<?xml version="1.0" encoding="UTF-8" standalone="no" ?>
<gpx xmlns="http://www.topografix.com/GPX/1/1" xmlns:xsi="http://www.w3.org/2001/XMLSchema-instance" xsi:schemaLocation="http://www.topografix.com/GPX/1/1 http://www.topografix.com/GPX/1/1/gpx.xsd" version="1.1" creator="VisuGPX - https://www.visugpx.com">
  <metadata>
    <name>Bessines 7km</name>
  </metadata>
  <wpt lat="46.29543" lon="-0.4895">
    <ele>27</ele>
  </wpt>
  <trk>
    <name><![CDATA[Bessines 7km_1]]></name>
    <trkseg>
      <trkpt lat="46.30031" lon="-0.51189">
        <ele>31.3</ele>
        <time>2013-08-29T09:04:28Z</time>
      </trkpt>
      <trkpt lat="46.30033" lon="-0.51186">
        <ele>31.3</ele>
        <time>2013-08-29T09:04:33Z</time>
      </trkpt>
      <trkpt lat="46.30033" lon="-0.5118">
        <ele>31.3</ele>
        <time>2013-08-29T09:04:38Z</time>
      </trkpt>
      <trkpt lat="46.30032" lon="-0.51176">
        <ele>34.045315</ele>
        <time>2013-08-29T09:04:43Z</time>
      </trkpt>
      <trkpt lat="46.30032" lon="-0.51171">
        <ele>34.045315</ele>
        <time>2013-08-29T09:04:48Z</time>
      </trkpt>
      <trkpt lat="46.30029" lon="-0.51167">
        <ele>34.045315</ele>
        <time>2013-08-29T09:04:53Z</time>
      </trkpt>
      <trkpt lat="46.30024" lon="-0.51162">
        <ele>32.299854</ele>
        <time>2013-08-29T09:04:58Z</time>
      </trkpt>
      <trkpt lat="46.30021" lon="-0.51157">
        <ele>32.299854</ele>
        <time>2013-08-29T09:05:03Z</time>
      </trkpt>
      <trkpt lat="46.30019" lon="-0.51156">
        <ele>32.299854</ele>
        <time>2013-08-29T09:05:08Z</time>
      </trkpt>
      <trkpt lat="46.30014" lon="-0.51152">
        <ele>31.869703</ele>
        <time>2013-08-29T09:05:13Z</time>
      </trkpt>
      <trkpt lat="46.30015" lon="-0.5115">
        <ele>31.869703</ele>
        <time>2013-08-29T09:05:18Z</time>
      </trkpt>
      <trkpt lat="46.30015" lon="-0.51147">
        <ele>31.869703</ele>
        <time>2013-08-29T09:05:23Z</time>
      </trkpt>
      <trkpt lat="46.30014" lon="-0.51143">
        <ele>31.869703</ele>
        <time>2013-08-29T09:05:28Z</time>
      </trkpt>
      <trkpt lat="46.30011" lon="-0.51141">
        <ele>31.92249</ele>
        <time>2013-08-29T09:05:33Z</time>
      </trkpt>
      <trkpt lat="46.30009" lon="-0.51138">
        <ele>31.92249</ele>
        <time>2013-08-29T09:05:38Z</time>
      </trkpt>
      <trkpt lat="46.30008" lon="-0.51137">
        <ele>31.92249</ele>
        <time>2013-08-29T09:05:43Z</time>
      </trkpt>
      <trkpt lat="46.30007" lon="-0.51132">
        <ele>31.92249</ele>
        <time>2013-08-29T09:05:48Z</time>
      </trkpt>
      <trkpt lat="46.30005" lon="-0.51127">
        <ele>32.71643</ele>
        <time>2013-08-29T09:05:53Z</time>
      </trkpt>
      <trkpt lat="46.30003" lon="-0.51118">
        <ele>32.71643</ele>
        <time>2013-08-29T09:05:58Z</time>
      </trkpt>
      <trkpt lat="46.30002" lon="-0.51109">
        <ele>33.03277</ele>
        <time>2013-08-29T09:06:03Z</time>
      </trkpt>
      <trkpt lat="46.30001" lon="-0.51104">
        <ele>33.03277</ele>
        <time>2013-08-29T09:06:08Z</time>
      </trkpt>
      <trkpt lat="46.30001" lon="-0.51099">
        <ele>33.03277</ele>
        <time>2013-08-29T09:06:13Z</time>
      </trkpt>
      <trkpt lat="46.3" lon="-0.51091">
        <ele>33.54521</ele>
        <time>2013-08-29T09:06:18Z</time>
      </trkpt>
      <trkpt lat="46.29998" lon="-0.51084">
        <ele>33.54521</ele>
        <time>2013-08-29T09:06:23Z</time>
      </trkpt>
      <trkpt lat="46.29995" lon="-0.51078">
        <ele>33.30815</ele>
        <time>2013-08-29T09:06:28Z</time>
      </trkpt>
      <trkpt lat="46.29993" lon="-0.51073">
        <ele>33.30815</ele>
        <time>2013-08-29T09:06:33Z</time>
      </trkpt>
      <trkpt lat="46.29991" lon="-0.51067">
        <ele>32.88638</ele>
        <time>2013-08-29T09:06:38Z</time>
      </trkpt>
      <trkpt lat="46.29987" lon="-0.51061">
        <ele>32.88638</ele>
        <time>2013-08-29T09:06:43Z</time>
      </trkpt>
      <trkpt lat="46.29985" lon="-0.51057">
        <ele>32.37467</ele>
        <time>2013-08-29T09:06:48Z</time>
      </trkpt>
      <trkpt lat="46.29983" lon="-0.5105">
        <ele>32.37467</ele>
        <time>2013-08-29T09:06:53Z</time>
      </trkpt>
      <trkpt lat="46.29979" lon="-0.51046">
        <ele>31.927849</ele>
        <time>2013-08-29T09:06:58Z</time>
      </trkpt>
      <trkpt lat="46.29976" lon="-0.5104">
        <ele>31.927849</ele>
        <time>2013-08-29T09:07:03Z</time>
      </trkpt>
      <trkpt lat="46.29973" lon="-0.51032">
        <ele>31.208887</ele>
        <time>2013-08-29T09:07:08Z</time>
      </trkpt>
      <trkpt lat="46.2997" lon="-0.51029">
        <ele>31.208887</ele>
        <time>2013-08-29T09:07:13Z</time>
      </trkpt>
      <trkpt lat="46.29966" lon="-0.51026">
        <ele>31.208887</ele>
        <time>2013-08-29T09:07:18Z</time>
      </trkpt>
      <trkpt lat="46.29964" lon="-0.5102">
        <ele>31.464563</ele>
        <time>2013-08-29T09:07:23Z</time>
      </trkpt>
      <trkpt lat="46.29961" lon="-0.51015">
        <ele>31.464563</ele>
        <time>2013-08-29T09:07:28Z</time>
      </trkpt>
      <trkpt lat="46.29956" lon="-0.51011">
        <ele>31.611803</ele>
        <time>2013-08-29T09:07:33Z</time>
      </trkpt>
      <trkpt lat="46.29951" lon="-0.51006">
        <ele>31.611803</ele>
        <time>2013-08-29T09:07:38Z</time>
      </trkpt>
      <trkpt lat="46.29947" lon="-0.51002">
        <ele>31.79196</ele>
        <time>2013-08-29T09:07:43Z</time>
      </trkpt>
      <trkpt lat="46.29948" lon="-0.50997">
        <ele>31.79196</ele>
        <time>2013-08-29T09:07:48Z</time>
      </trkpt>
      <trkpt lat="46.29944" lon="-0.50991">
        <ele>31.79196</ele>
        <time>2013-08-29T09:07:53Z</time>
      </trkpt>
      <trkpt lat="46.29941" lon="-0.50986">
        <ele>31.604975</ele>
        <time>2013-08-29T09:07:58Z</time>
      </trkpt>
      <trkpt lat="46.29939" lon="-0.5098">
        <ele>31.604975</ele>
        <time>2013-08-29T09:08:03Z</time>
      </trkpt>
      <trkpt lat="46.29936" lon="-0.50975">
        <ele>31.604975</ele>
        <time>2013-08-29T09:08:08Z</time>
      </trkpt>
      <trkpt lat="46.29935" lon="-0.50969">
        <ele>31.498747</ele>
        <time>2013-08-29T09:08:13Z</time>
      </trkpt>
      <trkpt lat="46.29933" lon="-0.50963">
        <ele>31.498747</ele>
        <time>2013-08-29T09:08:18Z</time>
      </trkpt>
      <trkpt lat="46.29931" lon="-0.50955">
        <ele>31.417595</ele>
        <time>2013-08-29T09:08:23Z</time>
      </trkpt>
      <trkpt lat="46.29928" lon="-0.50949">
        <ele>31.417595</ele>
        <time>2013-08-29T09:08:28Z</time>
      </trkpt>
      <trkpt lat="46.29925" lon="-0.50943">
        <ele>31.24818</ele>
        <time>2013-08-29T09:08:33Z</time>
      </trkpt>
      <trkpt lat="46.29921" lon="-0.50938">
        <ele>31.24818</ele>
        <time>2013-08-29T09:08:38Z</time>
      </trkpt>
      <trkpt lat="46.29918" lon="-0.5093">
        <ele>31.001694</ele>
        <time>2013-08-29T09:08:43Z</time>
      </trkpt>
      <trkpt lat="46.29917" lon="-0.50926">
        <ele>31.001694</ele>
        <time>2013-08-29T09:08:48Z</time>
      </trkpt>
      <trkpt lat="46.29915" lon="-0.50919">
        <ele>31.001694</ele>
        <time>2013-08-29T09:08:53Z</time>
      </trkpt>
      <trkpt lat="46.29913" lon="-0.50914">
        <ele>31.012676</ele>
        <time>2013-08-29T09:08:58Z</time>
      </trkpt>
      <trkpt lat="46.29912" lon="-0.50909">
        <ele>31.012676</ele>
        <time>2013-08-29T09:09:03Z</time>
      </trkpt>
      <trkpt lat="46.2991" lon="-0.50901">
        <ele>30.673468</ele>
        <time>2013-08-29T09:09:08Z</time>
      </trkpt>
      <trkpt lat="46.29909" lon="-0.50895">
        <ele>30.673468</ele>
        <time>2013-08-29T09:09:13Z</time>
      </trkpt>
      <trkpt lat="46.29906" lon="-0.50891">
        <ele>30.673468</ele>
        <time>2013-08-29T09:09:18Z</time>
      </trkpt>
      <trkpt lat="46.29903" lon="-0.50885">
        <ele>30.803991</ele>
        <time>2013-08-29T09:09:23Z</time>
      </trkpt>
      <trkpt lat="46.29898" lon="-0.50882">
        <ele>30.803991</ele>
        <time>2013-08-29T09:09:28Z</time>
      </trkpt>
      <trkpt lat="46.29895" lon="-0.50881">
        <ele>30.803991</ele>
        <time>2013-08-29T09:09:33Z</time>
      </trkpt>
      <trkpt lat="46.29896" lon="-0.50873">
        <ele>32.887547</ele>
        <time>2013-08-29T09:09:38Z</time>
      </trkpt>
      <trkpt lat="46.29897" lon="-0.50862">
        <ele>32.887547</ele>
        <time>2013-08-29T09:09:43Z</time>
      </trkpt>
      <trkpt lat="46.29897" lon="-0.50855">
        <ele>34.1878</ele>
        <time>2013-08-29T09:09:48Z</time>
      </trkpt>
      <trkpt lat="46.29896" lon="-0.50848">
        <ele>34.1878</ele>
        <time>2013-08-29T09:09:53Z</time>
      </trkpt>
      <trkpt lat="46.29897" lon="-0.50841">
        <ele>35.23223</ele>
        <time>2013-08-29T09:09:58Z</time>
      </trkpt>
      <trkpt lat="46.29897" lon="-0.50836">
        <ele>35.23223</ele>
        <time>2013-08-29T09:10:03Z</time>
      </trkpt>
      <trkpt lat="46.29898" lon="-0.50829">
        <ele>35.23223</ele>
        <time>2013-08-29T09:10:08Z</time>
      </trkpt>
      <trkpt lat="46.299" lon="-0.50823">
        <ele>35.70429</ele>
        <time>2013-08-29T09:10:13Z</time>
      </trkpt>
      <trkpt lat="46.29903" lon="-0.50815">
        <ele>35.70429</ele>
        <time>2013-08-29T09:10:18Z</time>
      </trkpt>
      <trkpt lat="46.29906" lon="-0.50809">
        <ele>35.43312</ele>
        <time>2013-08-29T09:10:23Z</time>
      </trkpt>
      <trkpt lat="46.2991" lon="-0.50804">
        <ele>35.43312</ele>
        <time>2013-08-29T09:10:28Z</time>
      </trkpt>
      <trkpt lat="46.29905" lon="-0.5079">
        <ele>34.82306</ele>
        <time>2013-08-29T09:10:33Z</time>
      </trkpt>
      <trkpt lat="46.29909" lon="-0.50785">
        <ele>34.82306</ele>
        <time>2013-08-29T09:10:38Z</time>
      </trkpt>
      <trkpt lat="46.29912" lon="-0.50779">
        <ele>34.27954</ele>
        <time>2013-08-29T09:10:43Z</time>
      </trkpt>
      <trkpt lat="46.29914" lon="-0.50773">
        <ele>34.27954</ele>
        <time>2013-08-29T09:10:48Z</time>
      </trkpt>
      <trkpt lat="46.29916" lon="-0.50769">
        <ele>34.27954</ele>
        <time>2013-08-29T09:10:53Z</time>
      </trkpt>
      <trkpt lat="46.29917" lon="-0.50763">
        <ele>33.866154</ele>
        <time>2013-08-29T09:10:58Z</time>
      </trkpt>
      <trkpt lat="46.29921" lon="-0.50754">
        <ele>33.866154</ele>
        <time>2013-08-29T09:11:03Z</time>
      </trkpt>
      <trkpt lat="46.29922" lon="-0.50747">
        <ele>33.50321</ele>
        <time>2013-08-29T09:11:08Z</time>
      </trkpt>
      <trkpt lat="46.29925" lon="-0.50741">
        <ele>33.50321</ele>
        <time>2013-08-29T09:11:13Z</time>
      </trkpt>
      <trkpt lat="46.29925" lon="-0.50733">
        <ele>33.14536</ele>
        <time>2013-08-29T09:11:18Z</time>
      </trkpt>
      <trkpt lat="46.29924" lon="-0.50728">
        <ele>33.14536</ele>
        <time>2013-08-29T09:11:23Z</time>
      </trkpt>
      <trkpt lat="46.29924" lon="-0.5072">
        <ele>32.792465</ele>
        <time>2013-08-29T09:11:28Z</time>
      </trkpt>
      <trkpt lat="46.29924" lon="-0.50713">
        <ele>32.792465</ele>
        <time>2013-08-29T09:11:33Z</time>
      </trkpt>
      <trkpt lat="46.29922" lon="-0.50704">
        <ele>32.570232</ele>
        <time>2013-08-29T09:11:38Z</time>
      </trkpt>
      <trkpt lat="46.29919" lon="-0.507">
        <ele>32.570232</ele>
        <time>2013-08-29T09:11:43Z</time>
      </trkpt>
      <trkpt lat="46.29917" lon="-0.50689">
        <ele>32.2328</ele>
        <time>2013-08-29T09:11:48Z</time>
      </trkpt>
      <trkpt lat="46.29918" lon="-0.50681">
        <ele>32.2328</ele>
        <time>2013-08-29T09:11:53Z</time>
      </trkpt>
      <trkpt lat="46.29916" lon="-0.50675">
        <ele>31.816105</ele>
        <time>2013-08-29T09:11:58Z</time>
      </trkpt>
      <trkpt lat="46.29913" lon="-0.50666">
        <ele>31.816105</ele>
        <time>2013-08-29T09:12:03Z</time>
      </trkpt>
      <trkpt lat="46.29911" lon="-0.50659">
        <ele>31.226746</ele>
        <time>2013-08-29T09:12:08Z</time>
      </trkpt>
      <trkpt lat="46.29909" lon="-0.50651">
        <ele>31.226746</ele>
        <time>2013-08-29T09:12:13Z</time>
      </trkpt>
      <trkpt lat="46.29906" lon="-0.50647">
        <ele>31.133093</ele>
        <time>2013-08-29T09:12:18Z</time>
      </trkpt>
      <trkpt lat="46.29904" lon="-0.50639">
        <ele>31.133093</ele>
        <time>2013-08-29T09:12:23Z</time>
      </trkpt>
      <trkpt lat="46.29902" lon="-0.50633">
        <ele>30.702976</ele>
        <time>2013-08-29T09:12:28Z</time>
      </trkpt>
      <trkpt lat="46.29898" lon="-0.50629">
        <ele>30.702976</ele>
        <time>2013-08-29T09:12:33Z</time>
      </trkpt>
      <trkpt lat="46.29896" lon="-0.50623">
        <ele>30.702976</ele>
        <time>2013-08-29T09:12:38Z</time>
      </trkpt>
      <trkpt lat="46.29895" lon="-0.50617">
        <ele>30.5939</ele>
        <time>2013-08-29T09:12:43Z</time>
      </trkpt>
      <trkpt lat="46.29893" lon="-0.50611">
        <ele>30.5939</ele>
        <time>2013-08-29T09:12:48Z</time>
      </trkpt>
      <trkpt lat="46.29892" lon="-0.50604">
        <ele>30.088795</ele>
        <time>2013-08-29T09:12:53Z</time>
      </trkpt>
      <trkpt lat="46.29891" lon="-0.50598">
        <ele>30.088795</ele>
        <time>2013-08-29T09:12:58Z</time>
      </trkpt>
      <trkpt lat="46.29889" lon="-0.50593">
        <ele>30.088795</ele>
        <time>2013-08-29T09:13:03Z</time>
      </trkpt>
      <trkpt lat="46.29885" lon="-0.50588">
        <ele>30.297913</ele>
        <time>2013-08-29T09:13:08Z</time>
      </trkpt>
      <trkpt lat="46.29882" lon="-0.50579">
        <ele>30.297913</ele>
        <time>2013-08-29T09:13:13Z</time>
      </trkpt>
      <trkpt lat="46.2988" lon="-0.5057">
        <ele>30.263357</ele>
        <time>2013-08-29T09:13:18Z</time>
      </trkpt>
      <trkpt lat="46.29876" lon="-0.50563">
        <ele>30.263357</ele>
        <time>2013-08-29T09:13:23Z</time>
      </trkpt>
      <trkpt lat="46.29873" lon="-0.50557">
        <ele>29.97041</ele>
        <time>2013-08-29T09:13:28Z</time>
      </trkpt>
      <trkpt lat="46.29872" lon="-0.50552">
        <ele>29.97041</ele>
        <time>2013-08-29T09:13:33Z</time>
      </trkpt>
      <trkpt lat="46.29869" lon="-0.50545">
        <ele>29.86863</ele>
        <time>2013-08-29T09:13:38Z</time>
      </trkpt>
      <trkpt lat="46.29866" lon="-0.50539">
        <ele>29.86863</ele>
        <time>2013-08-29T09:13:43Z</time>
      </trkpt>
      <trkpt lat="46.29864" lon="-0.50532">
        <ele>29.377504</ele>
        <time>2013-08-29T09:13:48Z</time>
      </trkpt>
      <trkpt lat="46.29861" lon="-0.50526">
        <ele>29.377504</ele>
        <time>2013-08-29T09:13:53Z</time>
      </trkpt>
      <trkpt lat="46.29858" lon="-0.50518">
        <ele>28.960367</ele>
        <time>2013-08-29T09:13:58Z</time>
      </trkpt>
      <trkpt lat="46.29853" lon="-0.50512">
        <ele>28.960367</ele>
        <time>2013-08-29T09:14:03Z</time>
      </trkpt>
      <trkpt lat="46.29852" lon="-0.5051">
        <ele>28.960367</ele>
        <time>2013-08-29T09:14:08Z</time>
      </trkpt>
      <trkpt lat="46.29848" lon="-0.50503">
        <ele>28.929659</ele>
        <time>2013-08-29T09:14:13Z</time>
      </trkpt>
      <trkpt lat="46.29845" lon="-0.50496">
        <ele>28.929659</ele>
        <time>2013-08-29T09:14:18Z</time>
      </trkpt>
      <trkpt lat="46.29841" lon="-0.50487">
        <ele>28.850817</ele>
        <time>2013-08-29T09:14:23Z</time>
      </trkpt>
      <trkpt lat="46.29838" lon="-0.5048">
        <ele>28.850817</ele>
        <time>2013-08-29T09:14:28Z</time>
      </trkpt>
      <trkpt lat="46.29836" lon="-0.50474">
        <ele>28.244497</ele>
        <time>2013-08-29T09:14:33Z</time>
      </trkpt>
      <trkpt lat="46.29834" lon="-0.50467">
        <ele>28.244497</ele>
        <time>2013-08-29T09:14:38Z</time>
      </trkpt>
      <trkpt lat="46.29832" lon="-0.5046">
        <ele>27.25789</ele>
        <time>2013-08-29T09:14:43Z</time>
      </trkpt>
      <trkpt lat="46.29829" lon="-0.50454">
        <ele>27.25789</ele>
        <time>2013-08-29T09:14:48Z</time>
      </trkpt>
      <trkpt lat="46.29826" lon="-0.50448">
        <ele>26.60288</ele>
        <time>2013-08-29T09:14:53Z</time>
      </trkpt>
      <trkpt lat="46.29824" lon="-0.50443">
        <ele>26.60288</ele>
        <time>2013-08-29T09:14:58Z</time>
      </trkpt>
      <trkpt lat="46.29821" lon="-0.50438">
        <ele>26.60288</ele>
        <time>2013-08-29T09:15:03Z</time>
      </trkpt>
      <trkpt lat="46.29818" lon="-0.5043">
        <ele>26.255913</ele>
        <time>2013-08-29T09:15:08Z</time>
      </trkpt>
      <trkpt lat="46.29816" lon="-0.50424">
        <ele>26.255913</ele>
        <time>2013-08-29T09:15:13Z</time>
      </trkpt>
      <trkpt lat="46.29812" lon="-0.50418">
        <ele>26.299116</ele>
        <time>2013-08-29T09:15:18Z</time>
      </trkpt>
      <trkpt lat="46.29808" lon="-0.50412">
        <ele>26.299116</ele>
        <time>2013-08-29T09:15:23Z</time>
      </trkpt>
      <trkpt lat="46.29807" lon="-0.50406">
        <ele>26.384697</ele>
        <time>2013-08-29T09:15:28Z</time>
      </trkpt>
      <trkpt lat="46.29804" lon="-0.504">
        <ele>26.384697</ele>
        <time>2013-08-29T09:15:33Z</time>
      </trkpt>
      <trkpt lat="46.29804" lon="-0.50393">
        <ele>26.59864</ele>
        <time>2013-08-29T09:15:38Z</time>
      </trkpt>
      <trkpt lat="46.29801" lon="-0.50389">
        <ele>26.59864</ele>
        <time>2013-08-29T09:15:43Z</time>
      </trkpt>
      <trkpt lat="46.29801" lon="-0.50384">
        <ele>26.59864</ele>
        <time>2013-08-29T09:15:48Z</time>
      </trkpt>
      <trkpt lat="46.298" lon="-0.50381">
        <ele>26.929392</ele>
        <time>2013-08-29T09:15:53Z</time>
      </trkpt>
      <trkpt lat="46.29799" lon="-0.50373">
        <ele>26.929392</ele>
        <time>2013-08-29T09:15:58Z</time>
      </trkpt>
      <trkpt lat="46.29795" lon="-0.50363">
        <ele>27.081638</ele>
        <time>2013-08-29T09:16:03Z</time>
      </trkpt>
      <trkpt lat="46.29793" lon="-0.50355">
        <ele>27.081638</ele>
        <time>2013-08-29T09:16:08Z</time>
      </trkpt>
      <trkpt lat="46.2979" lon="-0.50347">
        <ele>27.188545</ele>
        <time>2013-08-29T09:16:13Z</time>
      </trkpt>
      <trkpt lat="46.29791" lon="-0.50339">
        <ele>27.188545</ele>
        <time>2013-08-29T09:16:18Z</time>
      </trkpt>
      <trkpt lat="46.29789" lon="-0.50332">
        <ele>27.58081</ele>
        <time>2013-08-29T09:16:23Z</time>
      </trkpt>
      <trkpt lat="46.29789" lon="-0.50324">
        <ele>27.58081</ele>
        <time>2013-08-29T09:16:28Z</time>
      </trkpt>
      <trkpt lat="46.29787" lon="-0.50316">
        <ele>27.981022</ele>
        <time>2013-08-29T09:16:33Z</time>
      </trkpt>
      <trkpt lat="46.29785" lon="-0.50307">
        <ele>27.981022</ele>
        <time>2013-08-29T09:16:38Z</time>
      </trkpt>
      <trkpt lat="46.29782" lon="-0.50299">
        <ele>28.179617</ele>
        <time>2013-08-29T09:16:43Z</time>
      </trkpt>
      <trkpt lat="46.29781" lon="-0.50291">
        <ele>28.179617</ele>
        <time>2013-08-29T09:16:48Z</time>
      </trkpt>
      <trkpt lat="46.29782" lon="-0.50281">
        <ele>28.147858</ele>
        <time>2013-08-29T09:16:53Z</time>
      </trkpt>
      <trkpt lat="46.29781" lon="-0.50272">
        <ele>28.147858</ele>
        <time>2013-08-29T09:16:58Z</time>
      </trkpt>
      <trkpt lat="46.2978" lon="-0.50264">
        <ele>27.94852</ele>
        <time>2013-08-29T09:17:03Z</time>
      </trkpt>
      <trkpt lat="46.29778" lon="-0.50258">
        <ele>27.94852</ele>
        <time>2013-08-29T09:17:08Z</time>
      </trkpt>
      <trkpt lat="46.29778" lon="-0.50253">
        <ele>27.94852</ele>
        <time>2013-08-29T09:17:13Z</time>
      </trkpt>
      <trkpt lat="46.29778" lon="-0.50247">
        <ele>28.051483</ele>
        <time>2013-08-29T09:17:18Z</time>
      </trkpt>
      <trkpt lat="46.29777" lon="-0.50239">
        <ele>28.051483</ele>
        <time>2013-08-29T09:17:23Z</time>
      </trkpt>
      <trkpt lat="46.29776" lon="-0.50231">
        <ele>28.079521</ele>
        <time>2013-08-29T09:17:28Z</time>
      </trkpt>
      <trkpt lat="46.29776" lon="-0.50223">
        <ele>28.079521</ele>
        <time>2013-08-29T09:17:33Z</time>
      </trkpt>
      <trkpt lat="46.29774" lon="-0.50217">
        <ele>28.038296</ele>
        <time>2013-08-29T09:17:38Z</time>
      </trkpt>
      <trkpt lat="46.29772" lon="-0.50211">
        <ele>28.038296</ele>
        <time>2013-08-29T09:17:43Z</time>
      </trkpt>
      <trkpt lat="46.2977" lon="-0.50205">
        <ele>28.430164</ele>
        <time>2013-08-29T09:17:48Z</time>
      </trkpt>
      <trkpt lat="46.29766" lon="-0.50199">
        <ele>28.430164</ele>
        <time>2013-08-29T09:17:53Z</time>
      </trkpt>
      <trkpt lat="46.29766" lon="-0.5019">
        <ele>29.27789</ele>
        <time>2013-08-29T09:17:58Z</time>
      </trkpt>
      <trkpt lat="46.29767" lon="-0.50183">
        <ele>29.27789</ele>
        <time>2013-08-29T09:18:03Z</time>
      </trkpt>
      <trkpt lat="46.29766" lon="-0.50176">
        <ele>29.552734</ele>
        <time>2013-08-29T09:18:08Z</time>
      </trkpt>
      <trkpt lat="46.29766" lon="-0.50171">
        <ele>29.552734</ele>
        <time>2013-08-29T09:18:13Z</time>
      </trkpt>
      <trkpt lat="46.29764" lon="-0.50163">
        <ele>29.836708</ele>
        <time>2013-08-29T09:18:18Z</time>
      </trkpt>
      <trkpt lat="46.29763" lon="-0.50155">
        <ele>29.836708</ele>
        <time>2013-08-29T09:18:23Z</time>
      </trkpt>
      <trkpt lat="46.29761" lon="-0.50147">
        <ele>29.910316</ele>
        <time>2013-08-29T09:18:28Z</time>
      </trkpt>
      <trkpt lat="46.29759" lon="-0.50139">
        <ele>29.910316</ele>
        <time>2013-08-29T09:18:33Z</time>
      </trkpt>
      <trkpt lat="46.29757" lon="-0.50132">
        <ele>30.006966</ele>
        <time>2013-08-29T09:18:38Z</time>
      </trkpt>
      <trkpt lat="46.29754" lon="-0.50126">
        <ele>30.006966</ele>
        <time>2013-08-29T09:18:43Z</time>
      </trkpt>
      <trkpt lat="46.29752" lon="-0.50119">
        <ele>30.341728</ele>
        <time>2013-08-29T09:18:48Z</time>
      </trkpt>
      <trkpt lat="46.2975" lon="-0.50113">
        <ele>30.341728</ele>
        <time>2013-08-29T09:18:53Z</time>
      </trkpt>
      <trkpt lat="46.29747" lon="-0.50106">
        <ele>30.67825</ele>
        <time>2013-08-29T09:18:58Z</time>
      </trkpt>
      <trkpt lat="46.29748" lon="-0.50097">
        <ele>30.67825</ele>
        <time>2013-08-29T09:19:03Z</time>
      </trkpt>
      <trkpt lat="46.29744" lon="-0.50091">
        <ele>30.33566</ele>
        <time>2013-08-29T09:19:08Z</time>
      </trkpt>
      <trkpt lat="46.29742" lon="-0.50089">
        <ele>30.33566</ele>
        <time>2013-08-29T09:19:13Z</time>
      </trkpt>
      <trkpt lat="46.2974" lon="-0.50083">
        <ele>30.33566</ele>
        <time>2013-08-29T09:19:18Z</time>
      </trkpt>
      <trkpt lat="46.29736" lon="-0.50079">
        <ele>30.392088</ele>
        <time>2013-08-29T09:19:23Z</time>
      </trkpt>
      <trkpt lat="46.29732" lon="-0.50076">
        <ele>30.392088</ele>
        <time>2013-08-29T09:19:28Z</time>
      </trkpt>
      <trkpt lat="46.29729" lon="-0.5007">
        <ele>30.311687</ele>
        <time>2013-08-29T09:19:33Z</time>
      </trkpt>
      <trkpt lat="46.29729" lon="-0.50062">
        <ele>30.311687</ele>
        <time>2013-08-29T09:19:38Z</time>
      </trkpt>
      <trkpt lat="46.29727" lon="-0.50055">
        <ele>30.379078</ele>
        <time>2013-08-29T09:19:43Z</time>
      </trkpt>
      <trkpt lat="46.29725" lon="-0.50046">
        <ele>30.379078</ele>
        <time>2013-08-29T09:19:48Z</time>
      </trkpt>
      <trkpt lat="46.29725" lon="-0.50039">
        <ele>30.756092</ele>
        <time>2013-08-29T09:19:53Z</time>
      </trkpt>
      <trkpt lat="46.29721" lon="-0.5003">
        <ele>30.756092</ele>
        <time>2013-08-29T09:19:58Z</time>
      </trkpt>
      <trkpt lat="46.29718" lon="-0.50024">
        <ele>30.942537</ele>
        <time>2013-08-29T09:20:03Z</time>
      </trkpt>
      <trkpt lat="46.29715" lon="-0.50016">
        <ele>30.942537</ele>
        <time>2013-08-29T09:20:08Z</time>
      </trkpt>
      <trkpt lat="46.29712" lon="-0.50006">
        <ele>31.1539</ele>
        <time>2013-08-29T09:20:13Z</time>
      </trkpt>
      <trkpt lat="46.29704" lon="-0.49995">
        <ele>31.31561</ele>
        <time>2013-08-29T09:20:18Z</time>
      </trkpt>
      <trkpt lat="46.29699" lon="-0.49994">
        <ele>31.31561</ele>
        <time>2013-08-29T09:20:23Z</time>
      </trkpt>
      <trkpt lat="46.29694" lon="-0.49997">
        <ele>31.63272</ele>
        <time>2013-08-29T09:20:28Z</time>
      </trkpt>
      <trkpt lat="46.29692" lon="-0.50001">
        <ele>31.63272</ele>
        <time>2013-08-29T09:20:33Z</time>
      </trkpt>
      <trkpt lat="46.29686" lon="-0.50002">
        <ele>31.804539</ele>
        <time>2013-08-29T09:20:38Z</time>
      </trkpt>
      <trkpt lat="46.29685" lon="-0.50004">
        <ele>31.804539</ele>
        <time>2013-08-29T09:20:43Z</time>
      </trkpt>
      <trkpt lat="46.29684" lon="-0.50004">
        <ele>31.804539</ele>
        <time>2013-08-29T09:20:48Z</time>
      </trkpt>
      <trkpt lat="46.2968" lon="-0.49998">
        <ele>31.804539</ele>
        <time>2013-08-29T09:20:53Z</time>
      </trkpt>
      <trkpt lat="46.29677" lon="-0.49995">
        <ele>31.711533</ele>
        <time>2013-08-29T09:20:58Z</time>
      </trkpt>
      <trkpt lat="46.2968" lon="-0.49992">
        <ele>31.711533</ele>
        <time>2013-08-29T09:21:03Z</time>
      </trkpt>
      <trkpt lat="46.2968" lon="-0.49982">
        <ele>31.4888</ele>
        <time>2013-08-29T09:21:08Z</time>
      </trkpt>
      <trkpt lat="46.29682" lon="-0.49977">
        <ele>31.4888</ele>
        <time>2013-08-29T09:21:13Z</time>
      </trkpt>
      <trkpt lat="46.29678" lon="-0.49966">
        <ele>31.377226</ele>
        <time>2013-08-29T09:21:18Z</time>
      </trkpt>
      <trkpt lat="46.29677" lon="-0.4996">
        <ele>31.377226</ele>
        <time>2013-08-29T09:21:28Z</time>
      </trkpt>
      <trkpt lat="46.29682" lon="-0.49957">
        <ele>31.59972</ele>
        <time>2013-08-29T09:21:33Z</time>
      </trkpt>
      <trkpt lat="46.29686" lon="-0.49957">
        <ele>31.59972</ele>
        <time>2013-08-29T09:21:38Z</time>
      </trkpt>
      <trkpt lat="46.29691" lon="-0.49958">
        <ele>31.59972</ele>
        <time>2013-08-29T09:21:43Z</time>
      </trkpt>
      <trkpt lat="46.29696" lon="-0.49954">
        <ele>32.145645</ele>
        <time>2013-08-29T09:21:48Z</time>
      </trkpt>
      <trkpt lat="46.29698" lon="-0.49953">
        <ele>32.145645</ele>
        <time>2013-08-29T09:21:53Z</time>
      </trkpt>
      <trkpt lat="46.29705" lon="-0.49949">
        <ele>31.792952</ele>
        <time>2013-08-29T09:21:58Z</time>
      </trkpt>
      <trkpt lat="46.29712" lon="-0.49949">
        <ele>31.792952</ele>
        <time>2013-08-29T09:22:03Z</time>
      </trkpt>
      <trkpt lat="46.29718" lon="-0.49945">
        <ele>31.618143</ele>
        <time>2013-08-29T09:22:08Z</time>
      </trkpt>
      <trkpt lat="46.29721" lon="-0.4994">
        <ele>31.618143</ele>
        <time>2013-08-29T09:22:13Z</time>
      </trkpt>
      <trkpt lat="46.29724" lon="-0.49932">
        <ele>31.478985</ele>
        <time>2013-08-29T09:22:18Z</time>
      </trkpt>
      <trkpt lat="46.29723" lon="-0.49922">
        <ele>31.478985</ele>
        <time>2013-08-29T09:22:23Z</time>
      </trkpt>
      <trkpt lat="46.29726" lon="-0.49916">
        <ele>31.416655</ele>
        <time>2013-08-29T09:22:28Z</time>
      </trkpt>
      <trkpt lat="46.29728" lon="-0.49909">
        <ele>31.416655</ele>
        <time>2013-08-29T09:22:33Z</time>
      </trkpt>
      <trkpt lat="46.2973" lon="-0.49905">
        <ele>31.416655</ele>
        <time>2013-08-29T09:22:38Z</time>
      </trkpt>
      <trkpt lat="46.29731" lon="-0.49899">
        <ele>31.642174</ele>
        <time>2013-08-29T09:22:43Z</time>
      </trkpt>
      <trkpt lat="46.2973" lon="-0.49891">
        <ele>31.642174</ele>
        <time>2013-08-29T09:22:48Z</time>
      </trkpt>
      <trkpt lat="46.29731" lon="-0.49883">
        <ele>31.874289</ele>
        <time>2013-08-29T09:22:53Z</time>
      </trkpt>
      <trkpt lat="46.29732" lon="-0.49877">
        <ele>31.874289</ele>
        <time>2013-08-29T09:22:58Z</time>
      </trkpt>
      <trkpt lat="46.29731" lon="-0.49871">
        <ele>31.874289</ele>
        <time>2013-08-29T09:23:03Z</time>
      </trkpt>
      <trkpt lat="46.2973" lon="-0.49864">
        <ele>32.458187</ele>
        <time>2013-08-29T09:23:08Z</time>
      </trkpt>
      <trkpt lat="46.2973" lon="-0.49858">
        <ele>32.458187</ele>
        <time>2013-08-29T09:23:13Z</time>
      </trkpt>
      <trkpt lat="46.2973" lon="-0.4985">
        <ele>33.193447</ele>
        <time>2013-08-29T09:23:18Z</time>
      </trkpt>
      <trkpt lat="46.29728" lon="-0.49839">
        <ele>33.193447</ele>
        <time>2013-08-29T09:23:23Z</time>
      </trkpt>
      <trkpt lat="46.29727" lon="-0.49832">
        <ele>33.59103</ele>
        <time>2013-08-29T09:23:28Z</time>
      </trkpt>
      <trkpt lat="46.29726" lon="-0.49825">
        <ele>33.59103</ele>
        <time>2013-08-29T09:23:33Z</time>
      </trkpt>
      <trkpt lat="46.29723" lon="-0.49818">
        <ele>33.79022</ele>
        <time>2013-08-29T09:23:38Z</time>
      </trkpt>
      <trkpt lat="46.29721" lon="-0.49812">
        <ele>33.79022</ele>
        <time>2013-08-29T09:23:43Z</time>
      </trkpt>
      <trkpt lat="46.2972" lon="-0.49804">
        <ele>33.603313</ele>
        <time>2013-08-29T09:23:48Z</time>
      </trkpt>
      <trkpt lat="46.29718" lon="-0.49797">
        <ele>33.603313</ele>
        <time>2013-08-29T09:23:53Z</time>
      </trkpt>
      <trkpt lat="46.29717" lon="-0.49789">
        <ele>33.2037</ele>
        <time>2013-08-29T09:23:58Z</time>
      </trkpt>
      <trkpt lat="46.29715" lon="-0.49782">
        <ele>33.2037</ele>
        <time>2013-08-29T09:24:03Z</time>
      </trkpt>
      <trkpt lat="46.29714" lon="-0.49776">
        <ele>33.2037</ele>
        <time>2013-08-29T09:24:08Z</time>
      </trkpt>
      <trkpt lat="46.2971" lon="-0.4977">
        <ele>32.9834</ele>
        <time>2013-08-29T09:24:13Z</time>
      </trkpt>
      <trkpt lat="46.29706" lon="-0.4976">
        <ele>32.9834</ele>
        <time>2013-08-29T09:24:18Z</time>
      </trkpt>
      <trkpt lat="46.29705" lon="-0.49754">
        <ele>32.295464</ele>
        <time>2013-08-29T09:24:23Z</time>
      </trkpt>
      <trkpt lat="46.29704" lon="-0.49748">
        <ele>32.295464</ele>
        <time>2013-08-29T09:24:28Z</time>
      </trkpt>
      <trkpt lat="46.29701" lon="-0.49741">
        <ele>31.998571</ele>
        <time>2013-08-29T09:24:33Z</time>
      </trkpt>
      <trkpt lat="46.297" lon="-0.49736">
        <ele>31.998571</ele>
        <time>2013-08-29T09:24:38Z</time>
      </trkpt>
      <trkpt lat="46.297" lon="-0.4973">
        <ele>31.998571</ele>
        <time>2013-08-29T09:24:43Z</time>
      </trkpt>
      <trkpt lat="46.297" lon="-0.49723">
        <ele>31.473724</ele>
        <time>2013-08-29T09:24:48Z</time>
      </trkpt>
      <trkpt lat="46.29701" lon="-0.49716">
        <ele>31.473724</ele>
        <time>2013-08-29T09:24:53Z</time>
      </trkpt>
      <trkpt lat="46.29705" lon="-0.4971">
        <ele>30.97015</ele>
        <time>2013-08-29T09:24:58Z</time>
      </trkpt>
      <trkpt lat="46.29709" lon="-0.49708">
        <ele>30.97015</ele>
        <time>2013-08-29T09:25:03Z</time>
      </trkpt>
      <trkpt lat="46.29713" lon="-0.49704">
        <ele>30.531187</ele>
        <time>2013-08-29T09:25:08Z</time>
      </trkpt>
      <trkpt lat="46.29715" lon="-0.49701">
        <ele>30.531187</ele>
        <time>2013-08-29T09:25:13Z</time>
      </trkpt>
      <trkpt lat="46.2972" lon="-0.49699">
        <ele>30.531187</ele>
        <time>2013-08-29T09:25:18Z</time>
      </trkpt>
      <trkpt lat="46.29724" lon="-0.497">
        <ele>30.26888</ele>
        <time>2013-08-29T09:25:23Z</time>
      </trkpt>
      <trkpt lat="46.29729" lon="-0.49699">
        <ele>30.26888</ele>
        <time>2013-08-29T09:25:28Z</time>
      </trkpt>
      <trkpt lat="46.29733" lon="-0.49699">
        <ele>29.969292</ele>
        <time>2013-08-29T09:25:33Z</time>
      </trkpt>
      <trkpt lat="46.29738" lon="-0.49698">
        <ele>29.969292</ele>
        <time>2013-08-29T09:25:38Z</time>
      </trkpt>
      <trkpt lat="46.29741" lon="-0.497">
        <ele>29.969292</ele>
        <time>2013-08-29T09:25:43Z</time>
      </trkpt>
      <trkpt lat="46.29743" lon="-0.49703">
        <ele>29.75153</ele>
        <time>2013-08-29T09:25:48Z</time>
      </trkpt>
      <trkpt lat="46.29746" lon="-0.49706">
        <ele>29.75153</ele>
        <time>2013-08-29T09:25:53Z</time>
      </trkpt>
      <trkpt lat="46.2975" lon="-0.4971">
        <ele>29.75153</ele>
        <time>2013-08-29T09:25:58Z</time>
      </trkpt>
      <trkpt lat="46.29755" lon="-0.49714">
        <ele>29.682426</ele>
        <time>2013-08-29T09:26:03Z</time>
      </trkpt>
      <trkpt lat="46.29759" lon="-0.49717">
        <ele>29.682426</ele>
        <time>2013-08-29T09:26:08Z</time>
      </trkpt>
      <trkpt lat="46.29764" lon="-0.49719">
        <ele>29.448626</ele>
        <time>2013-08-29T09:26:13Z</time>
      </trkpt>
      <trkpt lat="46.2977" lon="-0.49721">
        <ele>29.448626</ele>
        <time>2013-08-29T09:26:18Z</time>
      </trkpt>
      <trkpt lat="46.29773" lon="-0.49721">
        <ele>29.553165</ele>
        <time>2013-08-29T09:26:23Z</time>
      </trkpt>
      <trkpt lat="46.29781" lon="-0.49717">
        <ele>29.553165</ele>
        <time>2013-08-29T09:26:28Z</time>
      </trkpt>
      <trkpt lat="46.29787" lon="-0.49717">
        <ele>28.990705</ele>
        <time>2013-08-29T09:26:33Z</time>
      </trkpt>
      <trkpt lat="46.2979" lon="-0.49713">
        <ele>28.990705</ele>
        <time>2013-08-29T09:26:38Z</time>
      </trkpt>
      <trkpt lat="46.29795" lon="-0.49708">
        <ele>28.273252</ele>
        <time>2013-08-29T09:26:43Z</time>
      </trkpt>
      <trkpt lat="46.29799" lon="-0.49705">
        <ele>28.273252</ele>
        <time>2013-08-29T09:26:48Z</time>
      </trkpt>
      <trkpt lat="46.298" lon="-0.49694">
        <ele>27.457514</ele>
        <time>2013-08-29T09:26:53Z</time>
      </trkpt>
      <trkpt lat="46.29802" lon="-0.49687">
        <ele>27.457514</ele>
        <time>2013-08-29T09:26:58Z</time>
      </trkpt>
      <trkpt lat="46.29802" lon="-0.49678">
        <ele>26.75482</ele>
        <time>2013-08-29T09:27:03Z</time>
      </trkpt>
      <trkpt lat="46.29806" lon="-0.49671">
        <ele>26.75482</ele>
        <time>2013-08-29T09:27:08Z</time>
      </trkpt>
      <trkpt lat="46.29808" lon="-0.49665">
        <ele>26.245296</ele>
        <time>2013-08-29T09:27:13Z</time>
      </trkpt>
      <trkpt lat="46.29807" lon="-0.49656">
        <ele>26.245296</ele>
        <time>2013-08-29T09:27:18Z</time>
      </trkpt>
      <trkpt lat="46.29806" lon="-0.49648">
        <ele>25.368431</ele>
        <time>2013-08-29T09:27:23Z</time>
      </trkpt>
      <trkpt lat="46.29805" lon="-0.49637">
        <ele>25.368431</ele>
        <time>2013-08-29T09:27:28Z</time>
      </trkpt>
      <trkpt lat="46.29804" lon="-0.49631">
        <ele>24.557167</ele>
        <time>2013-08-29T09:27:33Z</time>
      </trkpt>
      <trkpt lat="46.29801" lon="-0.49622">
        <ele>24.557167</ele>
        <time>2013-08-29T09:27:38Z</time>
      </trkpt>
      <trkpt lat="46.29799" lon="-0.49617">
        <ele>23.56382</ele>
        <time>2013-08-29T09:27:43Z</time>
      </trkpt>
      <trkpt lat="46.29799" lon="-0.49608">
        <ele>23.56382</ele>
        <time>2013-08-29T09:27:48Z</time>
      </trkpt>
      <trkpt lat="46.29798" lon="-0.496">
        <ele>22.750284</ele>
        <time>2013-08-29T09:27:53Z</time>
      </trkpt>
      <trkpt lat="46.29797" lon="-0.49594">
        <ele>22.750284</ele>
        <time>2013-08-29T09:27:58Z</time>
      </trkpt>
      <trkpt lat="46.29799" lon="-0.49589">
        <ele>22.750284</ele>
        <time>2013-08-29T09:28:03Z</time>
      </trkpt>
      <trkpt lat="46.298" lon="-0.49584">
        <ele>22.163055</ele>
        <time>2013-08-29T09:28:08Z</time>
      </trkpt>
      <trkpt lat="46.29801" lon="-0.49577">
        <ele>22.163055</ele>
        <time>2013-08-29T09:28:13Z</time>
      </trkpt>
      <trkpt lat="46.298" lon="-0.49572">
        <ele>22.163055</ele>
        <time>2013-08-29T09:28:18Z</time>
      </trkpt>
      <trkpt lat="46.29796" lon="-0.49566">
        <ele>21.974234</ele>
        <time>2013-08-29T09:28:23Z</time>
      </trkpt>
      <trkpt lat="46.29799" lon="-0.49559">
        <ele>21.974234</ele>
        <time>2013-08-29T09:28:28Z</time>
      </trkpt>
      <trkpt lat="46.29801" lon="-0.49554">
        <ele>21.477417</ele>
        <time>2013-08-29T09:28:33Z</time>
      </trkpt>
      <trkpt lat="46.29804" lon="-0.4955">
        <ele>21.477417</ele>
        <time>2013-08-29T09:28:38Z</time>
      </trkpt>
      <trkpt lat="46.29804" lon="-0.49544">
        <ele>21.477417</ele>
        <time>2013-08-29T09:28:43Z</time>
      </trkpt>
      <trkpt lat="46.29807" lon="-0.49539">
        <ele>20.364803</ele>
        <time>2013-08-29T09:28:48Z</time>
      </trkpt>
      <trkpt lat="46.29812" lon="-0.49539">
        <ele>20.364803</ele>
        <time>2013-08-29T09:28:53Z</time>
      </trkpt>
      <trkpt lat="46.29818" lon="-0.4954">
        <ele>19.678726</ele>
        <time>2013-08-29T09:28:58Z</time>
      </trkpt>
      <trkpt lat="46.29821" lon="-0.49538">
        <ele>19.678726</ele>
        <time>2013-08-29T09:29:03Z</time>
      </trkpt>
      <trkpt lat="46.29826" lon="-0.49536">
        <ele>19.678726</ele>
        <time>2013-08-29T09:29:08Z</time>
      </trkpt>
      <trkpt lat="46.29831" lon="-0.49533">
        <ele>19.31725</ele>
        <time>2013-08-29T09:29:13Z</time>
      </trkpt>
      <trkpt lat="46.29836" lon="-0.49531">
        <ele>19.31725</ele>
        <time>2013-08-29T09:29:18Z</time>
      </trkpt>
      <trkpt lat="46.29838" lon="-0.49527">
        <ele>19.31725</ele>
        <time>2013-08-29T09:29:23Z</time>
      </trkpt>
      <trkpt lat="46.29841" lon="-0.49525">
        <ele>18.637339</ele>
        <time>2013-08-29T09:29:28Z</time>
      </trkpt>
      <trkpt lat="46.29845" lon="-0.49523">
        <ele>18.637339</ele>
        <time>2013-08-29T09:29:33Z</time>
      </trkpt>
      <trkpt lat="46.29852" lon="-0.4952">
        <ele>17.822248</ele>
        <time>2013-08-29T09:29:38Z</time>
      </trkpt>
      <trkpt lat="46.29854" lon="-0.49526">
        <ele>17.822248</ele>
        <time>2013-08-29T09:29:43Z</time>
      </trkpt>
      <trkpt lat="46.29851" lon="-0.49525">
        <ele>19.76583</ele>
        <time>2013-08-29T09:29:48Z</time>
      </trkpt>
      <trkpt lat="46.29842" lon="-0.49521">
        <ele>22.385862</ele>
        <time>2013-08-29T09:29:53Z</time>
      </trkpt>
      <trkpt lat="46.29841" lon="-0.49515">
        <ele>22.385862</ele>
        <time>2013-08-29T09:29:58Z</time>
      </trkpt>
      <trkpt lat="46.29838" lon="-0.49501">
        <ele>25.004948</ele>
        <time>2013-08-29T09:30:03Z</time>
      </trkpt>
      <trkpt lat="46.29846" lon="-0.49486">
        <ele>26.649569</ele>
        <time>2013-08-29T09:30:08Z</time>
      </trkpt>
      <trkpt lat="46.29845" lon="-0.49476">
        <ele>26.649569</ele>
        <time>2013-08-29T09:30:13Z</time>
      </trkpt>
      <trkpt lat="46.29845" lon="-0.49468">
        <ele>27.040154</ele>
        <time>2013-08-29T09:30:18Z</time>
      </trkpt>
      <trkpt lat="46.29849" lon="-0.49469">
        <ele>27.040154</ele>
        <time>2013-08-29T09:30:23Z</time>
      </trkpt>
      <trkpt lat="46.29851" lon="-0.49465">
        <ele>27.040154</ele>
        <time>2013-08-29T09:30:28Z</time>
      </trkpt>
      <trkpt lat="46.29856" lon="-0.49464">
        <ele>27.319107</ele>
        <time>2013-08-29T09:30:33Z</time>
      </trkpt>
      <trkpt lat="46.29857" lon="-0.49465">
        <ele>27.319107</ele>
        <time>2013-08-29T09:30:38Z</time>
      </trkpt>
      <trkpt lat="46.29861" lon="-0.49461">
        <ele>27.319107</ele>
        <time>2013-08-29T09:30:43Z</time>
      </trkpt>
      <trkpt lat="46.29864" lon="-0.49454">
        <ele>27.176191</ele>
        <time>2013-08-29T09:30:48Z</time>
      </trkpt>
      <trkpt lat="46.29868" lon="-0.49451">
        <ele>27.176191</ele>
        <time>2013-08-29T09:30:53Z</time>
      </trkpt>
      <trkpt lat="46.29871" lon="-0.49443">
        <ele>26.815166</ele>
        <time>2013-08-29T09:30:58Z</time>
      </trkpt>
      <trkpt lat="46.29874" lon="-0.49437">
        <ele>26.815166</ele>
        <time>2013-08-29T09:31:03Z</time>
      </trkpt>
      <trkpt lat="46.29878" lon="-0.49434">
        <ele>26.497526</ele>
        <time>2013-08-29T09:31:08Z</time>
      </trkpt>
      <trkpt lat="46.29882" lon="-0.4943">
        <ele>26.497526</ele>
        <time>2013-08-29T09:31:13Z</time>
      </trkpt>
      <trkpt lat="46.29885" lon="-0.49426">
        <ele>26.033127</ele>
        <time>2013-08-29T09:31:18Z</time>
      </trkpt>
      <trkpt lat="46.29886" lon="-0.4942">
        <ele>26.033127</ele>
        <time>2013-08-29T09:31:23Z</time>
      </trkpt>
      <trkpt lat="46.29888" lon="-0.49414">
        <ele>26.033127</ele>
        <time>2013-08-29T09:31:28Z</time>
      </trkpt>
      <trkpt lat="46.29886" lon="-0.49402">
        <ele>25.289467</ele>
        <time>2013-08-29T09:31:33Z</time>
      </trkpt>
      <trkpt lat="46.29887" lon="-0.49392">
        <ele>25.289467</ele>
        <time>2013-08-29T09:31:38Z</time>
      </trkpt>
      <trkpt lat="46.29888" lon="-0.49386">
        <ele>23.870762</ele>
        <time>2013-08-29T09:31:43Z</time>
      </trkpt>
      <trkpt lat="46.29891" lon="-0.49379">
        <ele>23.870762</ele>
        <time>2013-08-29T09:31:48Z</time>
      </trkpt>
      <trkpt lat="46.29893" lon="-0.4937">
        <ele>22.622782</ele>
        <time>2013-08-29T09:31:53Z</time>
      </trkpt>
      <trkpt lat="46.29895" lon="-0.49365">
        <ele>22.622782</ele>
        <time>2013-08-29T09:31:58Z</time>
      </trkpt>
      <trkpt lat="46.29897" lon="-0.49358">
        <ele>21.521643</ele>
        <time>2013-08-29T09:32:03Z</time>
      </trkpt>
      <trkpt lat="46.299" lon="-0.49353">
        <ele>21.521643</ele>
        <time>2013-08-29T09:32:08Z</time>
      </trkpt>
      <trkpt lat="46.29903" lon="-0.49348">
        <ele>21.521643</ele>
        <time>2013-08-29T09:32:13Z</time>
      </trkpt>
      <trkpt lat="46.29905" lon="-0.49345">
        <ele>20.688923</ele>
        <time>2013-08-29T09:32:18Z</time>
      </trkpt>
      <trkpt lat="46.29905" lon="-0.49347">
        <ele>20.688923</ele>
        <time>2013-08-29T09:32:23Z</time>
      </trkpt>
      <trkpt lat="46.29905" lon="-0.49348">
        <ele>20.688923</ele>
        <time>2013-08-29T09:32:28Z</time>
      </trkpt>
      <trkpt lat="46.29905" lon="-0.49345">
        <ele>20.688923</ele>
        <time>2013-08-29T09:32:33Z</time>
      </trkpt>
      <trkpt lat="46.29908" lon="-0.49342">
        <ele>20.688923</ele>
        <time>2013-08-29T09:32:38Z</time>
      </trkpt>
      <trkpt lat="46.29911" lon="-0.4934">
        <ele>19.660042</ele>
        <time>2013-08-29T09:32:43Z</time>
      </trkpt>
      <trkpt lat="46.29916" lon="-0.4934">
        <ele>19.660042</ele>
        <time>2013-08-29T09:32:48Z</time>
      </trkpt>
      <trkpt lat="46.2992" lon="-0.49337">
        <ele>18.711246</ele>
        <time>2013-08-29T09:32:53Z</time>
      </trkpt>
      <trkpt lat="46.29922" lon="-0.49335">
        <ele>18.711246</ele>
        <time>2013-08-29T09:32:58Z</time>
      </trkpt>
      <trkpt lat="46.29927" lon="-0.49332">
        <ele>18.711246</ele>
        <time>2013-08-29T09:33:03Z</time>
      </trkpt>
      <trkpt lat="46.29934" lon="-0.49329">
        <ele>17.867657</ele>
        <time>2013-08-29T09:33:08Z</time>
      </trkpt>
      <trkpt lat="46.29938" lon="-0.49326">
        <ele>17.867657</ele>
        <time>2013-08-29T09:33:13Z</time>
      </trkpt>
      <trkpt lat="46.29943" lon="-0.49321">
        <ele>16.950468</ele>
        <time>2013-08-29T09:33:18Z</time>
      </trkpt>
      <trkpt lat="46.29948" lon="-0.4932">
        <ele>16.950468</ele>
        <time>2013-08-29T09:33:23Z</time>
      </trkpt>
      <trkpt lat="46.29951" lon="-0.49319">
        <ele>16.950468</ele>
        <time>2013-08-29T09:33:28Z</time>
      </trkpt>
      <trkpt lat="46.29956" lon="-0.49317">
        <ele>15.851831</ele>
        <time>2013-08-29T09:33:33Z</time>
      </trkpt>
      <trkpt lat="46.29961" lon="-0.49315">
        <ele>15.851831</ele>
        <time>2013-08-29T09:33:38Z</time>
      </trkpt>
      <trkpt lat="46.29966" lon="-0.49313">
        <ele>15.034338</ele>
        <time>2013-08-29T09:33:43Z</time>
      </trkpt>
      <trkpt lat="46.2997" lon="-0.49311">
        <ele>15.034338</ele>
        <time>2013-08-29T09:33:48Z</time>
      </trkpt>
      <trkpt lat="46.29974" lon="-0.4931">
        <ele>15.034338</ele>
        <time>2013-08-29T09:33:53Z</time>
      </trkpt>
      <trkpt lat="46.29978" lon="-0.49307">
        <ele>14.133142</ele>
        <time>2013-08-29T09:33:58Z</time>
      </trkpt>
      <trkpt lat="46.29983" lon="-0.49305">
        <ele>14.133142</ele>
        <time>2013-08-29T09:34:03Z</time>
      </trkpt>
      <trkpt lat="46.29988" lon="-0.49303">
        <ele>13.386849</ele>
        <time>2013-08-29T09:34:08Z</time>
      </trkpt>
      <trkpt lat="46.29994" lon="-0.49301">
        <ele>13.386849</ele>
        <time>2013-08-29T09:34:13Z</time>
      </trkpt>
      <trkpt lat="46.3" lon="-0.49298">
        <ele>12.425193</ele>
        <time>2013-08-29T09:34:18Z</time>
      </trkpt>
      <trkpt lat="46.30006" lon="-0.49297">
        <ele>12.425193</ele>
        <time>2013-08-29T09:34:23Z</time>
      </trkpt>
      <trkpt lat="46.30013" lon="-0.49297">
        <ele>11.669465</ele>
        <time>2013-08-29T09:34:28Z</time>
      </trkpt>
      <trkpt lat="46.30018" lon="-0.49297">
        <ele>11.669465</ele>
        <time>2013-08-29T09:34:33Z</time>
      </trkpt>
      <trkpt lat="46.30021" lon="-0.49295">
        <ele>11.669465</ele>
        <time>2013-08-29T09:34:38Z</time>
      </trkpt>
      <trkpt lat="46.30027" lon="-0.49293">
        <ele>11.6679125</ele>
        <time>2013-08-29T09:34:43Z</time>
      </trkpt>
      <trkpt lat="46.30033" lon="-0.4929">
        <ele>11.6679125</ele>
        <time>2013-08-29T09:34:48Z</time>
      </trkpt>
      <trkpt lat="46.30038" lon="-0.49291">
        <ele>11.528444</ele>
        <time>2013-08-29T09:34:53Z</time>
      </trkpt>
      <trkpt lat="46.30043" lon="-0.4929">
        <ele>11.528444</ele>
        <time>2013-08-29T09:34:58Z</time>
      </trkpt>
      <trkpt lat="46.30049" lon="-0.4929">
        <ele>11.563347</ele>
        <time>2013-08-29T09:35:03Z</time>
      </trkpt>
      <trkpt lat="46.30054" lon="-0.49289">
        <ele>11.563347</ele>
        <time>2013-08-29T09:35:08Z</time>
      </trkpt>
      <trkpt lat="46.30059" lon="-0.49285">
        <ele>11.513809</ele>
        <time>2013-08-29T09:35:13Z</time>
      </trkpt>
      <trkpt lat="46.30071" lon="-0.49289">
        <ele>12.307552</ele>
        <time>2013-08-29T09:35:18Z</time>
      </trkpt>
      <trkpt lat="46.30076" lon="-0.49288">
        <ele>12.307552</ele>
        <time>2013-08-29T09:35:23Z</time>
      </trkpt>
      <trkpt lat="46.30081" lon="-0.49285">
        <ele>13.331808</ele>
        <time>2013-08-29T09:35:28Z</time>
      </trkpt>
      <trkpt lat="46.30081" lon="-0.49285">
        <ele>13.331808</ele>
        <time>2013-08-29T09:35:33Z</time>
      </trkpt>
      <trkpt lat="46.30079" lon="-0.49279">
        <ele>13.331808</ele>
        <time>2013-08-29T09:35:38Z</time>
      </trkpt>
      <trkpt lat="46.30079" lon="-0.49275">
        <ele>13.331808</ele>
        <time>2013-08-29T09:35:43Z</time>
      </trkpt>
      <trkpt lat="46.30081" lon="-0.49272">
        <ele>13.94611</ele>
        <time>2013-08-29T09:35:48Z</time>
      </trkpt>
      <trkpt lat="46.30081" lon="-0.49271">
        <ele>13.94611</ele>
        <time>2013-08-29T09:35:53Z</time>
      </trkpt>
      <trkpt lat="46.30081" lon="-0.49265">
        <ele>13.94611</ele>
        <time>2013-08-29T09:35:58Z</time>
      </trkpt>
      <trkpt lat="46.30082" lon="-0.49256">
        <ele>14.293157</ele>
        <time>2013-08-29T09:36:03Z</time>
      </trkpt>
      <trkpt lat="46.30084" lon="-0.49247">
        <ele>14.293157</ele>
        <time>2013-08-29T09:36:08Z</time>
      </trkpt>
      <trkpt lat="46.30086" lon="-0.49239">
        <ele>14.203282</ele>
        <time>2013-08-29T09:36:13Z</time>
      </trkpt>
      <trkpt lat="46.30086" lon="-0.4923">
        <ele>14.203282</ele>
        <time>2013-08-29T09:36:18Z</time>
      </trkpt>
      <trkpt lat="46.30086" lon="-0.49221">
        <ele>14.111381</ele>
        <time>2013-08-29T09:36:23Z</time>
      </trkpt>
      <trkpt lat="46.30088" lon="-0.49215">
        <ele>14.111381</ele>
        <time>2013-08-29T09:36:28Z</time>
      </trkpt>
      <trkpt lat="46.3009" lon="-0.49208">
        <ele>13.959252</ele>
        <time>2013-08-29T09:36:33Z</time>
      </trkpt>
      <trkpt lat="46.30093" lon="-0.49201">
        <ele>13.959252</ele>
        <time>2013-08-29T09:36:38Z</time>
      </trkpt>
      <trkpt lat="46.30094" lon="-0.49194">
        <ele>13.794039</ele>
        <time>2013-08-29T09:36:43Z</time>
      </trkpt>
      <trkpt lat="46.30095" lon="-0.49186">
        <ele>13.794039</ele>
        <time>2013-08-29T09:36:48Z</time>
      </trkpt>
      <trkpt lat="46.30096" lon="-0.4918">
        <ele>13.80358</ele>
        <time>2013-08-29T09:36:53Z</time>
      </trkpt>
      <trkpt lat="46.30097" lon="-0.49175">
        <ele>13.80358</ele>
        <time>2013-08-29T09:36:58Z</time>
      </trkpt>
      <trkpt lat="46.30099" lon="-0.4917">
        <ele>13.80358</ele>
        <time>2013-08-29T09:37:03Z</time>
      </trkpt>
      <trkpt lat="46.301" lon="-0.49162">
        <ele>13.77234</ele>
        <time>2013-08-29T09:37:08Z</time>
      </trkpt>
      <trkpt lat="46.30103" lon="-0.49156">
        <ele>13.77234</ele>
        <time>2013-08-29T09:37:13Z</time>
      </trkpt>
      <trkpt lat="46.30108" lon="-0.49157">
        <ele>14.048373</ele>
        <time>2013-08-29T09:37:18Z</time>
      </trkpt>
      <trkpt lat="46.30112" lon="-0.49156">
        <ele>14.048373</ele>
        <time>2013-08-29T09:37:23Z</time>
      </trkpt>
      <trkpt lat="46.30114" lon="-0.49151">
        <ele>14.048373</ele>
        <time>2013-08-29T09:37:28Z</time>
      </trkpt>
      <trkpt lat="46.30116" lon="-0.49146">
        <ele>14.146298</ele>
        <time>2013-08-29T09:37:33Z</time>
      </trkpt>
      <trkpt lat="46.3012" lon="-0.49143">
        <ele>14.146298</ele>
        <time>2013-08-29T09:37:38Z</time>
      </trkpt>
      <trkpt lat="46.30125" lon="-0.4914">
        <ele>13.861899</ele>
        <time>2013-08-29T09:37:43Z</time>
      </trkpt>
      <trkpt lat="46.30125" lon="-0.49136">
        <ele>13.861899</ele>
        <time>2013-08-29T09:37:48Z</time>
      </trkpt>
      <trkpt lat="46.30126" lon="-0.49129">
        <ele>13.861899</ele>
        <time>2013-08-29T09:37:53Z</time>
      </trkpt>
      <trkpt lat="46.3013" lon="-0.49128">
        <ele>13.641146</ele>
        <time>2013-08-29T09:37:58Z</time>
      </trkpt>
      <trkpt lat="46.30133" lon="-0.49127">
        <ele>13.641146</ele>
        <time>2013-08-29T09:38:03Z</time>
      </trkpt>
      <trkpt lat="46.30138" lon="-0.49132">
        <ele>13.825032</ele>
        <time>2013-08-29T09:38:08Z</time>
      </trkpt>
      <trkpt lat="46.30142" lon="-0.49133">
        <ele>13.825032</ele>
        <time>2013-08-29T09:38:13Z</time>
      </trkpt>
      <trkpt lat="46.30147" lon="-0.49134">
        <ele>13.825032</ele>
        <time>2013-08-29T09:38:18Z</time>
      </trkpt>
      <trkpt lat="46.30152" lon="-0.49135">
        <ele>14.123127</ele>
        <time>2013-08-29T09:38:23Z</time>
      </trkpt>
      <trkpt lat="46.30154" lon="-0.49138">
        <ele>14.123127</ele>
        <time>2013-08-29T09:38:28Z</time>
      </trkpt>
      <trkpt lat="46.30157" lon="-0.4914">
        <ele>14.123127</ele>
        <time>2013-08-29T09:38:33Z</time>
      </trkpt>
      <trkpt lat="46.30165" lon="-0.49148">
        <ele>13.977812</ele>
        <time>2013-08-29T09:38:38Z</time>
      </trkpt>
      <trkpt lat="46.30169" lon="-0.49154">
        <ele>13.977812</ele>
        <time>2013-08-29T09:38:43Z</time>
      </trkpt>
      <trkpt lat="46.30172" lon="-0.49158">
        <ele>14.213936</ele>
        <time>2013-08-29T09:38:48Z</time>
      </trkpt>
      <trkpt lat="46.30174" lon="-0.49161">
        <ele>14.213936</ele>
        <time>2013-08-29T09:38:53Z</time>
      </trkpt>
      <trkpt lat="46.30178" lon="-0.49164">
        <ele>14.213936</ele>
        <time>2013-08-29T09:38:58Z</time>
      </trkpt>
      <trkpt lat="46.30184" lon="-0.49166">
        <ele>15.104731</ele>
        <time>2013-08-29T09:39:03Z</time>
      </trkpt>
      <trkpt lat="46.30189" lon="-0.49167">
        <ele>15.104731</ele>
        <time>2013-08-29T09:39:08Z</time>
      </trkpt>
      <trkpt lat="46.30197" lon="-0.49164">
        <ele>15.575731</ele>
        <time>2013-08-29T09:39:13Z</time>
      </trkpt>
      <trkpt lat="46.30202" lon="-0.49159">
        <ele>15.575731</ele>
        <time>2013-08-29T09:39:18Z</time>
      </trkpt>
      <trkpt lat="46.30205" lon="-0.49155">
        <ele>15.684622</ele>
        <time>2013-08-29T09:39:23Z</time>
      </trkpt>
      <trkpt lat="46.30208" lon="-0.49151">
        <ele>15.684622</ele>
        <time>2013-08-29T09:39:28Z</time>
      </trkpt>
      <trkpt lat="46.30213" lon="-0.49146">
        <ele>15.831767</ele>
        <time>2013-08-29T09:39:33Z</time>
      </trkpt>
      <trkpt lat="46.30214" lon="-0.4914">
        <ele>15.831767</ele>
        <time>2013-08-29T09:39:38Z</time>
      </trkpt>
      <trkpt lat="46.3021" lon="-0.49136">
        <ele>15.7395525</ele>
        <time>2013-08-29T09:39:43Z</time>
      </trkpt>
      <trkpt lat="46.30205" lon="-0.49134">
        <ele>15.7395525</ele>
        <time>2013-08-29T09:39:48Z</time>
      </trkpt>
      <trkpt lat="46.30198" lon="-0.49129">
        <ele>15.396454</ele>
        <time>2013-08-29T09:39:53Z</time>
      </trkpt>
      <trkpt lat="46.30192" lon="-0.49125">
        <ele>15.396454</ele>
        <time>2013-08-29T09:39:58Z</time>
      </trkpt>
      <trkpt lat="46.3019" lon="-0.49116">
        <ele>15.16722</ele>
        <time>2013-08-29T09:40:03Z</time>
      </trkpt>
      <trkpt lat="46.3019" lon="-0.49112">
        <ele>15.16722</ele>
        <time>2013-08-29T09:40:08Z</time>
      </trkpt>
      <trkpt lat="46.30189" lon="-0.49109">
        <ele>15.16722</ele>
        <time>2013-08-29T09:40:13Z</time>
      </trkpt>
      <trkpt lat="46.30186" lon="-0.49104">
        <ele>15.375109</ele>
        <time>2013-08-29T09:40:18Z</time>
      </trkpt>
      <trkpt lat="46.30182" lon="-0.491">
        <ele>15.375109</ele>
        <time>2013-08-29T09:40:23Z</time>
      </trkpt>
      <trkpt lat="46.3018" lon="-0.49089">
        <ele>15.871695</ele>
        <time>2013-08-29T09:40:28Z</time>
      </trkpt>
      <trkpt lat="46.30179" lon="-0.49085">
        <ele>15.871695</ele>
        <time>2013-08-29T09:40:33Z</time>
      </trkpt>
      <trkpt lat="46.30175" lon="-0.49078">
        <ele>16.129572</ele>
        <time>2013-08-29T09:40:38Z</time>
      </trkpt>
      <trkpt lat="46.30175" lon="-0.4907">
        <ele>16.129572</ele>
        <time>2013-08-29T09:40:43Z</time>
      </trkpt>
      <trkpt lat="46.30171" lon="-0.49061">
        <ele>16.165174</ele>
        <time>2013-08-29T09:40:48Z</time>
      </trkpt>
      <trkpt lat="46.30168" lon="-0.49056">
        <ele>16.165174</ele>
        <time>2013-08-29T09:40:53Z</time>
      </trkpt>
      <trkpt lat="46.30164" lon="-0.49049">
        <ele>15.821445</ele>
        <time>2013-08-29T09:40:58Z</time>
      </trkpt>
      <trkpt lat="46.30164" lon="-0.49043">
        <ele>15.821445</ele>
        <time>2013-08-29T09:41:03Z</time>
      </trkpt>
      <trkpt lat="46.30162" lon="-0.49035">
        <ele>15.616876</ele>
        <time>2013-08-29T09:41:08Z</time>
      </trkpt>
      <trkpt lat="46.3016" lon="-0.49029">
        <ele>15.616876</ele>
        <time>2013-08-29T09:41:13Z</time>
      </trkpt>
      <trkpt lat="46.30156" lon="-0.49022">
        <ele>15.483881</ele>
        <time>2013-08-29T09:41:18Z</time>
      </trkpt>
      <trkpt lat="46.30154" lon="-0.49014">
        <ele>15.483881</ele>
        <time>2013-08-29T09:41:23Z</time>
      </trkpt>
      <trkpt lat="46.30152" lon="-0.49008">
        <ele>15.071446</ele>
        <time>2013-08-29T09:41:28Z</time>
      </trkpt>
      <trkpt lat="46.3015" lon="-0.49003">
        <ele>15.071446</ele>
        <time>2013-08-29T09:41:33Z</time>
      </trkpt>
      <trkpt lat="46.30148" lon="-0.48996">
        <ele>14.99187</ele>
        <time>2013-08-29T09:41:38Z</time>
      </trkpt>
      <trkpt lat="46.30146" lon="-0.48988">
        <ele>14.99187</ele>
        <time>2013-08-29T09:41:43Z</time>
      </trkpt>
      <trkpt lat="46.30145" lon="-0.48981">
        <ele>14.745135</ele>
        <time>2013-08-29T09:41:48Z</time>
      </trkpt>
      <trkpt lat="46.30142" lon="-0.48974">
        <ele>14.745135</ele>
        <time>2013-08-29T09:41:53Z</time>
      </trkpt>
      <trkpt lat="46.30139" lon="-0.48968">
        <ele>14.632229</ele>
        <time>2013-08-29T09:41:58Z</time>
      </trkpt>
      <trkpt lat="46.30137" lon="-0.48963">
        <ele>14.632229</ele>
        <time>2013-08-29T09:42:03Z</time>
      </trkpt>
      <trkpt lat="46.30134" lon="-0.48955">
        <ele>14.54257</ele>
        <time>2013-08-29T09:42:08Z</time>
      </trkpt>
      <trkpt lat="46.30134" lon="-0.48948">
        <ele>14.54257</ele>
        <time>2013-08-29T09:42:13Z</time>
      </trkpt>
      <trkpt lat="46.30132" lon="-0.4894">
        <ele>14.388058</ele>
        <time>2013-08-29T09:42:18Z</time>
      </trkpt>
      <trkpt lat="46.3013" lon="-0.48932">
        <ele>14.388058</ele>
        <time>2013-08-29T09:42:23Z</time>
      </trkpt>
      <trkpt lat="46.3013" lon="-0.48927">
        <ele>14.548413</ele>
        <time>2013-08-29T09:42:28Z</time>
      </trkpt>
      <trkpt lat="46.30127" lon="-0.4892">
        <ele>14.548413</ele>
        <time>2013-08-29T09:42:33Z</time>
      </trkpt>
      <trkpt lat="46.30126" lon="-0.48913">
        <ele>14.322578</ele>
        <time>2013-08-29T09:42:38Z</time>
      </trkpt>
      <trkpt lat="46.30125" lon="-0.48905">
        <ele>14.322578</ele>
        <time>2013-08-29T09:42:43Z</time>
      </trkpt>
      <trkpt lat="46.30124" lon="-0.48898">
        <ele>14.027635</ele>
        <time>2013-08-29T09:42:48Z</time>
      </trkpt>
      <trkpt lat="46.3012" lon="-0.48893">
        <ele>14.027635</ele>
        <time>2013-08-29T09:42:53Z</time>
      </trkpt>
      <trkpt lat="46.30116" lon="-0.48885">
        <ele>14.1593275</ele>
        <time>2013-08-29T09:42:58Z</time>
      </trkpt>
      <trkpt lat="46.30113" lon="-0.48882">
        <ele>14.1593275</ele>
        <time>2013-08-29T09:43:03Z</time>
      </trkpt>
      <trkpt lat="46.30111" lon="-0.48876">
        <ele>14.1593275</ele>
        <time>2013-08-29T09:43:08Z</time>
      </trkpt>
      <trkpt lat="46.3011" lon="-0.48871">
        <ele>13.893204</ele>
        <time>2013-08-29T09:43:13Z</time>
      </trkpt>
      <trkpt lat="46.30107" lon="-0.4886">
        <ele>13.893204</ele>
        <time>2013-08-29T09:43:18Z</time>
      </trkpt>
      <trkpt lat="46.30107" lon="-0.48853">
        <ele>13.835557</ele>
        <time>2013-08-29T09:43:23Z</time>
      </trkpt>
      <trkpt lat="46.30105" lon="-0.48846">
        <ele>13.835557</ele>
        <time>2013-08-29T09:43:28Z</time>
      </trkpt>
      <trkpt lat="46.30104" lon="-0.48839">
        <ele>13.582014</ele>
        <time>2013-08-29T09:43:33Z</time>
      </trkpt>
      <trkpt lat="46.30103" lon="-0.48832">
        <ele>13.582014</ele>
        <time>2013-08-29T09:43:38Z</time>
      </trkpt>
      <trkpt lat="46.30102" lon="-0.48824">
        <ele>13.176384</ele>
        <time>2013-08-29T09:43:43Z</time>
      </trkpt>
      <trkpt lat="46.30099" lon="-0.48816">
        <ele>13.176384</ele>
        <time>2013-08-29T09:43:48Z</time>
      </trkpt>
      <trkpt lat="46.30097" lon="-0.48809">
        <ele>12.904674</ele>
        <time>2013-08-29T09:43:53Z</time>
      </trkpt>
      <trkpt lat="46.30095" lon="-0.488">
        <ele>12.904674</ele>
        <time>2013-08-29T09:43:58Z</time>
      </trkpt>
      <trkpt lat="46.30095" lon="-0.48796">
        <ele>12.904674</ele>
        <time>2013-08-29T09:44:03Z</time>
      </trkpt>
      <trkpt lat="46.30093" lon="-0.48791">
        <ele>12.714458</ele>
        <time>2013-08-29T09:44:08Z</time>
      </trkpt>
      <trkpt lat="46.30091" lon="-0.48783">
        <ele>12.714458</ele>
        <time>2013-08-29T09:44:13Z</time>
      </trkpt>
      <trkpt lat="46.3009" lon="-0.48778">
        <ele>12.701049</ele>
        <time>2013-08-29T09:44:18Z</time>
      </trkpt>
      <trkpt lat="46.30086" lon="-0.48771">
        <ele>12.701049</ele>
        <time>2013-08-29T09:44:23Z</time>
      </trkpt>
      <trkpt lat="46.30082" lon="-0.48767">
        <ele>12.937839</ele>
        <time>2013-08-29T09:44:28Z</time>
      </trkpt>
      <trkpt lat="46.30077" lon="-0.48767">
        <ele>12.937839</ele>
        <time>2013-08-29T09:44:33Z</time>
      </trkpt>
      <trkpt lat="46.30073" lon="-0.48768">
        <ele>12.937839</ele>
        <time>2013-08-29T09:44:38Z</time>
      </trkpt>
      <trkpt lat="46.30068" lon="-0.48768">
        <ele>12.901274</ele>
        <time>2013-08-29T09:44:43Z</time>
      </trkpt>
      <trkpt lat="46.30062" lon="-0.48771">
        <ele>12.901274</ele>
        <time>2013-08-29T09:44:48Z</time>
      </trkpt>
      <trkpt lat="46.30058" lon="-0.48772">
        <ele>12.928457</ele>
        <time>2013-08-29T09:44:53Z</time>
      </trkpt>
      <trkpt lat="46.30053" lon="-0.48773">
        <ele>12.928457</ele>
        <time>2013-08-29T09:44:58Z</time>
      </trkpt>
      <trkpt lat="46.30049" lon="-0.48773">
        <ele>13.086561</ele>
        <time>2013-08-29T09:45:03Z</time>
      </trkpt>
      <trkpt lat="46.30045" lon="-0.48776">
        <ele>13.086561</ele>
        <time>2013-08-29T09:45:08Z</time>
      </trkpt>
      <trkpt lat="46.30039" lon="-0.48778">
        <ele>13.264522</ele>
        <time>2013-08-29T09:45:13Z</time>
      </trkpt>
      <trkpt lat="46.30033" lon="-0.48779">
        <ele>13.264522</ele>
        <time>2013-08-29T09:45:18Z</time>
      </trkpt>
      <trkpt lat="46.30027" lon="-0.4878">
        <ele>13.589958</ele>
        <time>2013-08-29T09:45:23Z</time>
      </trkpt>
      <trkpt lat="46.30022" lon="-0.48781">
        <ele>13.589958</ele>
        <time>2013-08-29T09:45:28Z</time>
      </trkpt>
      <trkpt lat="46.30017" lon="-0.4878">
        <ele>13.661905</ele>
        <time>2013-08-29T09:45:33Z</time>
      </trkpt>
      <trkpt lat="46.30013" lon="-0.4878">
        <ele>13.661905</ele>
        <time>2013-08-29T09:45:38Z</time>
      </trkpt>
      <trkpt lat="46.30007" lon="-0.4878">
        <ele>13.902181</ele>
        <time>2013-08-29T09:45:43Z</time>
      </trkpt>
      <trkpt lat="46.30002" lon="-0.4878">
        <ele>13.902181</ele>
        <time>2013-08-29T09:45:48Z</time>
      </trkpt>
      <trkpt lat="46.29998" lon="-0.4878">
        <ele>14.124705</ele>
        <time>2013-08-29T09:45:53Z</time>
      </trkpt>
      <trkpt lat="46.29992" lon="-0.4878">
        <ele>14.124705</ele>
        <time>2013-08-29T09:45:58Z</time>
      </trkpt>
      <trkpt lat="46.29987" lon="-0.48779">
        <ele>14.488582</ele>
        <time>2013-08-29T09:46:03Z</time>
      </trkpt>
      <trkpt lat="46.29984" lon="-0.48779">
        <ele>14.488582</ele>
        <time>2013-08-29T09:46:08Z</time>
      </trkpt>
      <trkpt lat="46.29978" lon="-0.48777">
        <ele>14.488582</ele>
        <time>2013-08-29T09:46:13Z</time>
      </trkpt>
      <trkpt lat="46.29972" lon="-0.48775">
        <ele>14.996732</ele>
        <time>2013-08-29T09:46:18Z</time>
      </trkpt>
      <trkpt lat="46.29968" lon="-0.48776">
        <ele>14.996732</ele>
        <time>2013-08-29T09:46:23Z</time>
      </trkpt>
      <trkpt lat="46.29964" lon="-0.48776">
        <ele>14.996732</ele>
        <time>2013-08-29T09:46:28Z</time>
      </trkpt>
      <trkpt lat="46.29958" lon="-0.48777">
        <ele>15.363245</ele>
        <time>2013-08-29T09:46:33Z</time>
      </trkpt>
      <trkpt lat="46.29954" lon="-0.48776">
        <ele>15.363245</ele>
        <time>2013-08-29T09:46:38Z</time>
      </trkpt>
      <trkpt lat="46.29949" lon="-0.48774">
        <ele>15.755964</ele>
        <time>2013-08-29T09:46:43Z</time>
      </trkpt>
      <trkpt lat="46.29944" lon="-0.48776">
        <ele>15.755964</ele>
        <time>2013-08-29T09:46:48Z</time>
      </trkpt>
      <trkpt lat="46.29939" lon="-0.48776">
        <ele>15.941242</ele>
        <time>2013-08-29T09:46:53Z</time>
      </trkpt>
      <trkpt lat="46.29933" lon="-0.48776">
        <ele>15.941242</ele>
        <time>2013-08-29T09:46:58Z</time>
      </trkpt>
      <trkpt lat="46.29928" lon="-0.48777">
        <ele>16.049067</ele>
        <time>2013-08-29T09:47:03Z</time>
      </trkpt>
      <trkpt lat="46.29924" lon="-0.48777">
        <ele>16.049067</ele>
        <time>2013-08-29T09:47:08Z</time>
      </trkpt>
      <trkpt lat="46.29918" lon="-0.48778">
        <ele>16.300991</ele>
        <time>2013-08-29T09:47:13Z</time>
      </trkpt>
      <trkpt lat="46.29913" lon="-0.48778">
        <ele>16.300991</ele>
        <time>2013-08-29T09:47:18Z</time>
      </trkpt>
      <trkpt lat="46.29909" lon="-0.48777">
        <ele>16.483984</ele>
        <time>2013-08-29T09:47:23Z</time>
      </trkpt>
      <trkpt lat="46.29904" lon="-0.48777">
        <ele>16.483984</ele>
        <time>2013-08-29T09:47:28Z</time>
      </trkpt>
      <trkpt lat="46.29899" lon="-0.48777">
        <ele>16.660282</ele>
        <time>2013-08-29T09:47:33Z</time>
      </trkpt>
      <trkpt lat="46.29894" lon="-0.48778">
        <ele>16.660282</ele>
        <time>2013-08-29T09:47:38Z</time>
      </trkpt>
      <trkpt lat="46.2989" lon="-0.48778">
        <ele>16.660282</ele>
        <time>2013-08-29T09:47:43Z</time>
      </trkpt>
      <trkpt lat="46.29885" lon="-0.48781">
        <ele>16.282318</ele>
        <time>2013-08-29T09:47:48Z</time>
      </trkpt>
      <trkpt lat="46.29878" lon="-0.48782">
        <ele>16.282318</ele>
        <time>2013-08-29T09:47:53Z</time>
      </trkpt>
      <trkpt lat="46.29872" lon="-0.48781">
        <ele>16.083677</ele>
        <time>2013-08-29T09:47:58Z</time>
      </trkpt>
      <trkpt lat="46.29866" lon="-0.48781">
        <ele>16.083677</ele>
        <time>2013-08-29T09:48:03Z</time>
      </trkpt>
      <trkpt lat="46.29861" lon="-0.48782">
        <ele>16.12389</ele>
        <time>2013-08-29T09:48:08Z</time>
      </trkpt>
      <trkpt lat="46.29856" lon="-0.48783">
        <ele>16.12389</ele>
        <time>2013-08-29T09:48:13Z</time>
      </trkpt>
      <trkpt lat="46.29852" lon="-0.48785">
        <ele>16.111593</ele>
        <time>2013-08-29T09:48:18Z</time>
      </trkpt>
      <trkpt lat="46.29849" lon="-0.48791">
        <ele>16.111593</ele>
        <time>2013-08-29T09:48:23Z</time>
      </trkpt>
      <trkpt lat="46.29846" lon="-0.48794">
        <ele>16.111593</ele>
        <time>2013-08-29T09:48:28Z</time>
      </trkpt>
      <trkpt lat="46.29842" lon="-0.48797">
        <ele>16.814585</ele>
        <time>2013-08-29T09:48:33Z</time>
      </trkpt>
      <trkpt lat="46.29838" lon="-0.48799">
        <ele>16.814585</ele>
        <time>2013-08-29T09:48:38Z</time>
      </trkpt>
      <trkpt lat="46.29833" lon="-0.48802">
        <ele>17.587624</ele>
        <time>2013-08-29T09:48:43Z</time>
      </trkpt>
      <trkpt lat="46.2983" lon="-0.48805">
        <ele>17.587624</ele>
        <time>2013-08-29T09:48:48Z</time>
      </trkpt>
      <trkpt lat="46.29825" lon="-0.48807">
        <ele>17.587624</ele>
        <time>2013-08-29T09:48:53Z</time>
      </trkpt>
      <trkpt lat="46.29822" lon="-0.48811">
        <ele>18.510008</ele>
        <time>2013-08-29T09:48:58Z</time>
      </trkpt>
      <trkpt lat="46.29817" lon="-0.48815">
        <ele>18.510008</ele>
        <time>2013-08-29T09:49:03Z</time>
      </trkpt>
      <trkpt lat="46.29811" lon="-0.48818">
        <ele>19.424236</ele>
        <time>2013-08-29T09:49:08Z</time>
      </trkpt>
      <trkpt lat="46.29808" lon="-0.48823">
        <ele>19.424236</ele>
        <time>2013-08-29T09:49:13Z</time>
      </trkpt>
      <trkpt lat="46.29803" lon="-0.48824">
        <ele>20.227655</ele>
        <time>2013-08-29T09:49:18Z</time>
      </trkpt>
      <trkpt lat="46.29799" lon="-0.48829">
        <ele>20.227655</ele>
        <time>2013-08-29T09:49:23Z</time>
      </trkpt>
      <trkpt lat="46.29795" lon="-0.48832">
        <ele>20.969608</ele>
        <time>2013-08-29T09:49:28Z</time>
      </trkpt>
      <trkpt lat="46.29791" lon="-0.48837">
        <ele>20.969608</ele>
        <time>2013-08-29T09:49:33Z</time>
      </trkpt>
      <trkpt lat="46.29787" lon="-0.48841">
        <ele>21.724838</ele>
        <time>2013-08-29T09:49:38Z</time>
      </trkpt>
      <trkpt lat="46.29782" lon="-0.48842">
        <ele>21.724838</ele>
        <time>2013-08-29T09:49:43Z</time>
      </trkpt>
      <trkpt lat="46.29778" lon="-0.48846">
        <ele>22.447311</ele>
        <time>2013-08-29T09:49:48Z</time>
      </trkpt>
      <trkpt lat="46.29773" lon="-0.48849">
        <ele>22.447311</ele>
        <time>2013-08-29T09:49:53Z</time>
      </trkpt>
      <trkpt lat="46.29768" lon="-0.48851">
        <ele>22.90716</ele>
        <time>2013-08-29T09:49:58Z</time>
      </trkpt>
      <trkpt lat="46.29763" lon="-0.48853">
        <ele>22.90716</ele>
        <time>2013-08-29T09:50:03Z</time>
      </trkpt>
      <trkpt lat="46.29757" lon="-0.48854">
        <ele>23.180405</ele>
        <time>2013-08-29T09:50:08Z</time>
      </trkpt>
      <trkpt lat="46.29752" lon="-0.48856">
        <ele>23.180405</ele>
        <time>2013-08-29T09:50:13Z</time>
      </trkpt>
      <trkpt lat="46.29749" lon="-0.48859">
        <ele>23.294807</ele>
        <time>2013-08-29T09:50:18Z</time>
      </trkpt>
      <trkpt lat="46.29746" lon="-0.48862">
        <ele>23.294807</ele>
        <time>2013-08-29T09:50:23Z</time>
      </trkpt>
      <trkpt lat="46.29742" lon="-0.48863">
        <ele>23.294807</ele>
        <time>2013-08-29T09:50:28Z</time>
      </trkpt>
      <trkpt lat="46.29739" lon="-0.48862">
        <ele>23.939493</ele>
        <time>2013-08-29T09:50:33Z</time>
      </trkpt>
      <trkpt lat="46.29735" lon="-0.48862">
        <ele>23.939493</ele>
        <time>2013-08-29T09:50:38Z</time>
      </trkpt>
      <trkpt lat="46.2973" lon="-0.48867">
        <ele>24.685085</ele>
        <time>2013-08-29T09:50:43Z</time>
      </trkpt>
      <trkpt lat="46.29723" lon="-0.48868">
        <ele>24.685085</ele>
        <time>2013-08-29T09:50:48Z</time>
      </trkpt>
      <trkpt lat="46.29718" lon="-0.48869">
        <ele>25.436146</ele>
        <time>2013-08-29T09:50:53Z</time>
      </trkpt>
      <trkpt lat="46.29712" lon="-0.4887">
        <ele>25.436146</ele>
        <time>2013-08-29T09:50:58Z</time>
      </trkpt>
      <trkpt lat="46.29707" lon="-0.4887">
        <ele>25.715164</ele>
        <time>2013-08-29T09:51:03Z</time>
      </trkpt>
      <trkpt lat="46.29701" lon="-0.48872">
        <ele>25.715164</ele>
        <time>2013-08-29T09:51:08Z</time>
      </trkpt>
      <trkpt lat="46.29696" lon="-0.48875">
        <ele>25.426939</ele>
        <time>2013-08-29T09:51:13Z</time>
      </trkpt>
      <trkpt lat="46.29691" lon="-0.48874">
        <ele>25.426939</ele>
        <time>2013-08-29T09:51:18Z</time>
      </trkpt>
      <trkpt lat="46.29685" lon="-0.48874">
        <ele>25.118979</ele>
        <time>2013-08-29T09:51:23Z</time>
      </trkpt>
      <trkpt lat="46.2968" lon="-0.48876">
        <ele>25.118979</ele>
        <time>2013-08-29T09:51:28Z</time>
      </trkpt>
      <trkpt lat="46.29675" lon="-0.48878">
        <ele>24.866323</ele>
        <time>2013-08-29T09:51:33Z</time>
      </trkpt>
      <trkpt lat="46.2967" lon="-0.48879">
        <ele>24.866323</ele>
        <time>2013-08-29T09:51:38Z</time>
      </trkpt>
      <trkpt lat="46.29665" lon="-0.48881">
        <ele>24.810423</ele>
        <time>2013-08-29T09:51:43Z</time>
      </trkpt>
      <trkpt lat="46.29663" lon="-0.48883">
        <ele>24.810423</ele>
        <time>2013-08-29T09:51:48Z</time>
      </trkpt>
      <trkpt lat="46.29657" lon="-0.48882">
        <ele>24.810423</ele>
        <time>2013-08-29T09:51:53Z</time>
      </trkpt>
      <trkpt lat="46.29653" lon="-0.48884">
        <ele>24.995344</ele>
        <time>2013-08-29T09:51:58Z</time>
      </trkpt>
      <trkpt lat="46.29648" lon="-0.48888">
        <ele>24.995344</ele>
        <time>2013-08-29T09:52:03Z</time>
      </trkpt>
      <trkpt lat="46.29643" lon="-0.48892">
        <ele>25.418016</ele>
        <time>2013-08-29T09:52:08Z</time>
      </trkpt>
      <trkpt lat="46.29639" lon="-0.48895">
        <ele>25.418016</ele>
        <time>2013-08-29T09:52:13Z</time>
      </trkpt>
      <trkpt lat="46.29634" lon="-0.48897">
        <ele>26.031715</ele>
        <time>2013-08-29T09:52:18Z</time>
      </trkpt>
      <trkpt lat="46.2963" lon="-0.489">
        <ele>26.031715</ele>
        <time>2013-08-29T09:52:23Z</time>
      </trkpt>
      <trkpt lat="46.29625" lon="-0.48902">
        <ele>26.489988</ele>
        <time>2013-08-29T09:52:28Z</time>
      </trkpt>
      <trkpt lat="46.2962" lon="-0.48905">
        <ele>26.489988</ele>
        <time>2013-08-29T09:52:33Z</time>
      </trkpt>
      <trkpt lat="46.29615" lon="-0.48906">
        <ele>26.832561</ele>
        <time>2013-08-29T09:52:38Z</time>
      </trkpt>
      <trkpt lat="46.29609" lon="-0.48908">
        <ele>26.832561</ele>
        <time>2013-08-29T09:52:43Z</time>
      </trkpt>
      <trkpt lat="46.29604" lon="-0.4891">
        <ele>27.154226</ele>
        <time>2013-08-29T09:52:48Z</time>
      </trkpt>
      <trkpt lat="46.29598" lon="-0.48912">
        <ele>27.154226</ele>
        <time>2013-08-29T09:52:53Z</time>
      </trkpt>
      <trkpt lat="46.29592" lon="-0.48913">
        <ele>27.413185</ele>
        <time>2013-08-29T09:52:58Z</time>
      </trkpt>
      <trkpt lat="46.29588" lon="-0.48914">
        <ele>27.413185</ele>
        <time>2013-08-29T09:53:03Z</time>
      </trkpt>
      <trkpt lat="46.29583" lon="-0.48916">
        <ele>27.570898</ele>
        <time>2013-08-29T09:53:08Z</time>
      </trkpt>
      <trkpt lat="46.29579" lon="-0.48919">
        <ele>27.570898</ele>
        <time>2013-08-29T09:53:13Z</time>
      </trkpt>
      <trkpt lat="46.29574" lon="-0.48921">
        <ele>27.534307</ele>
        <time>2013-08-29T09:53:18Z</time>
      </trkpt>
      <trkpt lat="46.29569" lon="-0.48923">
        <ele>27.534307</ele>
        <time>2013-08-29T09:53:23Z</time>
      </trkpt>
      <trkpt lat="46.29563" lon="-0.48924">
        <ele>27.491556</ele>
        <time>2013-08-29T09:53:28Z</time>
      </trkpt>
      <trkpt lat="46.29558" lon="-0.48925">
        <ele>27.491556</ele>
        <time>2013-08-29T09:53:33Z</time>
      </trkpt>
      <trkpt lat="46.29552" lon="-0.48926">
        <ele>27.530527</ele>
        <time>2013-08-29T09:53:38Z</time>
      </trkpt>
      <trkpt lat="46.29546" lon="-0.48927">
        <ele>27.530527</ele>
        <time>2013-08-29T09:53:43Z</time>
      </trkpt>
      <trkpt lat="46.29542" lon="-0.48928">
        <ele>27.588306</ele>
        <time>2013-08-29T09:53:48Z</time>
      </trkpt>
      <trkpt lat="46.29536" lon="-0.48929">
        <ele>27.588306</ele>
        <time>2013-08-29T09:53:53Z</time>
      </trkpt>
      <trkpt lat="46.29531" lon="-0.48929">
        <ele>27.693018</ele>
        <time>2013-08-29T09:53:58Z</time>
      </trkpt>
      <trkpt lat="46.29526" lon="-0.48929">
        <ele>27.693018</ele>
        <time>2013-08-29T09:54:03Z</time>
      </trkpt>
      <trkpt lat="46.29521" lon="-0.48929">
        <ele>27.740887</ele>
        <time>2013-08-29T09:54:08Z</time>
      </trkpt>
      <trkpt lat="46.29516" lon="-0.48932">
        <ele>27.740887</ele>
        <time>2013-08-29T09:54:13Z</time>
      </trkpt>
      <trkpt lat="46.2951" lon="-0.48934">
        <ele>27.722387</ele>
        <time>2013-08-29T09:54:18Z</time>
      </trkpt>
      <trkpt lat="46.29504" lon="-0.48936">
        <ele>27.722387</ele>
        <time>2013-08-29T09:54:23Z</time>
      </trkpt>
      <trkpt lat="46.295" lon="-0.48936">
        <ele>27.772984</ele>
        <time>2013-08-29T09:54:28Z</time>
      </trkpt>
      <trkpt lat="46.29494" lon="-0.48937">
        <ele>27.772984</ele>
        <time>2013-08-29T09:54:33Z</time>
      </trkpt>
      <trkpt lat="46.2949" lon="-0.48938">
        <ele>27.715351</ele>
        <time>2013-08-29T09:54:38Z</time>
      </trkpt>
      <trkpt lat="46.29486" lon="-0.48938">
        <ele>27.715351</ele>
        <time>2013-08-29T09:54:43Z</time>
      </trkpt>
      <trkpt lat="46.2948" lon="-0.48938">
        <ele>27.702536</ele>
        <time>2013-08-29T09:54:48Z</time>
      </trkpt>
      <trkpt lat="46.29474" lon="-0.4894">
        <ele>27.702536</ele>
        <time>2013-08-29T09:54:53Z</time>
      </trkpt>
      <trkpt lat="46.29468" lon="-0.48941">
        <ele>28.222067</ele>
        <time>2013-08-29T09:54:58Z</time>
      </trkpt>
      <trkpt lat="46.29463" lon="-0.4894">
        <ele>28.222067</ele>
        <time>2013-08-29T09:55:03Z</time>
      </trkpt>
      <trkpt lat="46.29458" lon="-0.4894">
        <ele>28.571274</ele>
        <time>2013-08-29T09:55:08Z</time>
      </trkpt>
      <trkpt lat="46.29453" lon="-0.4894">
        <ele>28.571274</ele>
        <time>2013-08-29T09:55:13Z</time>
      </trkpt>
      <trkpt lat="46.29449" lon="-0.4894">
        <ele>28.67601</ele>
        <time>2013-08-29T09:55:18Z</time>
      </trkpt>
      <trkpt lat="46.29445" lon="-0.48938">
        <ele>28.67601</ele>
        <time>2013-08-29T09:55:23Z</time>
      </trkpt>
      <trkpt lat="46.2944" lon="-0.48938">
        <ele>28.42502</ele>
        <time>2013-08-29T09:55:28Z</time>
      </trkpt>
      <trkpt lat="46.29434" lon="-0.48938">
        <ele>28.42502</ele>
        <time>2013-08-29T09:55:33Z</time>
      </trkpt>
      <trkpt lat="46.29429" lon="-0.48937">
        <ele>28.090895</ele>
        <time>2013-08-29T09:55:38Z</time>
      </trkpt>
      <trkpt lat="46.29426" lon="-0.48937">
        <ele>28.090895</ele>
        <time>2013-08-29T09:55:43Z</time>
      </trkpt>
      <trkpt lat="46.29422" lon="-0.48936">
        <ele>28.090895</ele>
        <time>2013-08-29T09:55:48Z</time>
      </trkpt>
      <trkpt lat="46.2942" lon="-0.48932">
        <ele>27.609379</ele>
        <time>2013-08-29T09:55:53Z</time>
      </trkpt>
      <trkpt lat="46.29417" lon="-0.4893">
        <ele>27.609379</ele>
        <time>2013-08-29T09:55:58Z</time>
      </trkpt>
      <trkpt lat="46.29413" lon="-0.4893">
        <ele>27.609379</ele>
        <time>2013-08-29T09:56:03Z</time>
      </trkpt>
      <trkpt lat="46.29409" lon="-0.48926">
        <ele>26.906918</ele>
        <time>2013-08-29T09:56:08Z</time>
      </trkpt>
      <trkpt lat="46.29405" lon="-0.48922">
        <ele>26.906918</ele>
        <time>2013-08-29T09:56:13Z</time>
      </trkpt>
      <trkpt lat="46.29399" lon="-0.48924">
        <ele>26.506813</ele>
        <time>2013-08-29T09:56:18Z</time>
      </trkpt>
      <trkpt lat="46.29391" lon="-0.48923">
        <ele>26.506813</ele>
        <time>2013-08-29T09:56:23Z</time>
      </trkpt>
      <trkpt lat="46.29385" lon="-0.48922">
        <ele>26.54719</ele>
        <time>2013-08-29T09:56:28Z</time>
      </trkpt>
      <trkpt lat="46.29381" lon="-0.48922">
        <ele>26.54719</ele>
        <time>2013-08-29T09:56:33Z</time>
      </trkpt>
      <trkpt lat="46.29376" lon="-0.48925">
        <ele>26.60713</ele>
        <time>2013-08-29T09:56:38Z</time>
      </trkpt>
      <trkpt lat="46.29373" lon="-0.48928">
        <ele>26.60713</ele>
        <time>2013-08-29T09:56:43Z</time>
      </trkpt>
      <trkpt lat="46.29369" lon="-0.4893">
        <ele>26.60713</ele>
        <time>2013-08-29T09:56:48Z</time>
      </trkpt>
      <trkpt lat="46.29365" lon="-0.48933">
        <ele>26.253323</ele>
        <time>2013-08-29T09:56:53Z</time>
      </trkpt>
      <trkpt lat="46.2936" lon="-0.48938">
        <ele>26.253323</ele>
        <time>2013-08-29T09:56:58Z</time>
      </trkpt>
      <trkpt lat="46.29354" lon="-0.48942">
        <ele>25.964495</ele>
        <time>2013-08-29T09:57:03Z</time>
      </trkpt>
      <trkpt lat="46.29347" lon="-0.48945">
        <ele>25.964495</ele>
        <time>2013-08-29T09:57:08Z</time>
      </trkpt>
      <trkpt lat="46.29341" lon="-0.48948">
        <ele>25.59313</ele>
        <time>2013-08-29T09:57:13Z</time>
      </trkpt>
      <trkpt lat="46.29339" lon="-0.48952">
        <ele>25.59313</ele>
        <time>2013-08-29T09:57:18Z</time>
      </trkpt>
      <trkpt lat="46.29337" lon="-0.48955">
        <ele>25.59313</ele>
        <time>2013-08-29T09:57:23Z</time>
      </trkpt>
      <trkpt lat="46.29332" lon="-0.48958">
        <ele>24.123672</ele>
        <time>2013-08-29T09:57:28Z</time>
      </trkpt>
      <trkpt lat="46.29323" lon="-0.4896">
        <ele>23.313082</ele>
        <time>2013-08-29T09:57:33Z</time>
      </trkpt>
      <trkpt lat="46.2932" lon="-0.48964">
        <ele>23.313082</ele>
        <time>2013-08-29T09:57:38Z</time>
      </trkpt>
      <trkpt lat="46.29314" lon="-0.48967">
        <ele>22.034838</ele>
        <time>2013-08-29T09:57:43Z</time>
      </trkpt>
      <trkpt lat="46.29307" lon="-0.4897">
        <ele>22.034838</ele>
        <time>2013-08-29T09:57:48Z</time>
      </trkpt>
      <trkpt lat="46.29303" lon="-0.48971">
        <ele>20.413733</ele>
        <time>2013-08-29T09:57:53Z</time>
      </trkpt>
      <trkpt lat="46.29299" lon="-0.48973">
        <ele>20.413733</ele>
        <time>2013-08-29T09:57:58Z</time>
      </trkpt>
      <trkpt lat="46.29294" lon="-0.48974">
        <ele>20.413733</ele>
        <time>2013-08-29T09:58:03Z</time>
      </trkpt>
      <trkpt lat="46.29287" lon="-0.48974">
        <ele>19.834467</ele>
        <time>2013-08-29T09:58:08Z</time>
      </trkpt>
      <trkpt lat="46.29281" lon="-0.48974">
        <ele>19.834467</ele>
        <time>2013-08-29T09:58:13Z</time>
      </trkpt>
      <trkpt lat="46.29275" lon="-0.48973">
        <ele>19.934174</ele>
        <time>2013-08-29T09:58:18Z</time>
      </trkpt>
      <trkpt lat="46.29269" lon="-0.48973">
        <ele>19.934174</ele>
        <time>2013-08-29T09:58:23Z</time>
      </trkpt>
      <trkpt lat="46.29264" lon="-0.48973">
        <ele>20.518778</ele>
        <time>2013-08-29T09:58:28Z</time>
      </trkpt>
      <trkpt lat="46.29258" lon="-0.48973">
        <ele>20.518778</ele>
        <time>2013-08-29T09:58:33Z</time>
      </trkpt>
      <trkpt lat="46.29252" lon="-0.48973">
        <ele>21.089998</ele>
        <time>2013-08-29T09:58:38Z</time>
      </trkpt>
      <trkpt lat="46.29247" lon="-0.48973">
        <ele>21.089998</ele>
        <time>2013-08-29T09:58:43Z</time>
      </trkpt>
      <trkpt lat="46.29242" lon="-0.48972">
        <ele>21.517595</ele>
        <time>2013-08-29T09:58:48Z</time>
      </trkpt>
      <trkpt lat="46.29236" lon="-0.48974">
        <ele>21.517595</ele>
        <time>2013-08-29T09:58:53Z</time>
      </trkpt>
      <trkpt lat="46.29231" lon="-0.48975">
        <ele>22.012703</ele>
        <time>2013-08-29T09:58:58Z</time>
      </trkpt>
      <trkpt lat="46.29227" lon="-0.48976">
        <ele>22.012703</ele>
        <time>2013-08-29T09:59:03Z</time>
      </trkpt>
      <trkpt lat="46.29222" lon="-0.48976">
        <ele>22.568964</ele>
        <time>2013-08-29T09:59:08Z</time>
      </trkpt>
      <trkpt lat="46.29216" lon="-0.48975">
        <ele>22.568964</ele>
        <time>2013-08-29T09:59:13Z</time>
      </trkpt>
      <trkpt lat="46.2921" lon="-0.48974">
        <ele>23.28116</ele>
        <time>2013-08-29T09:59:18Z</time>
      </trkpt>
      <trkpt lat="46.29204" lon="-0.48974">
        <ele>23.28116</ele>
        <time>2013-08-29T09:59:23Z</time>
      </trkpt>
      <trkpt lat="46.29199" lon="-0.48975">
        <ele>23.861965</ele>
        <time>2013-08-29T09:59:28Z</time>
      </trkpt>
      <trkpt lat="46.29194" lon="-0.48976">
        <ele>23.861965</ele>
        <time>2013-08-29T09:59:33Z</time>
      </trkpt>
      <trkpt lat="46.29188" lon="-0.48979">
        <ele>24.189615</ele>
        <time>2013-08-29T09:59:38Z</time>
      </trkpt>
      <trkpt lat="46.29184" lon="-0.4898">
        <ele>24.189615</ele>
        <time>2013-08-29T09:59:43Z</time>
      </trkpt>
      <trkpt lat="46.29179" lon="-0.4898">
        <ele>24.252867</ele>
        <time>2013-08-29T09:59:48Z</time>
      </trkpt>
      <trkpt lat="46.29173" lon="-0.48981">
        <ele>24.252867</ele>
        <time>2013-08-29T09:59:53Z</time>
      </trkpt>
      <trkpt lat="46.29169" lon="-0.4898">
        <ele>23.897926</ele>
        <time>2013-08-29T09:59:58Z</time>
      </trkpt>
      <trkpt lat="46.29164" lon="-0.48979">
        <ele>23.897926</ele>
        <time>2013-08-29T10:00:03Z</time>
      </trkpt>
      <trkpt lat="46.29159" lon="-0.48978">
        <ele>23.55991</ele>
        <time>2013-08-29T10:00:08Z</time>
      </trkpt>
      <trkpt lat="46.29155" lon="-0.4898">
        <ele>23.55991</ele>
        <time>2013-08-29T10:00:13Z</time>
      </trkpt>
      <trkpt lat="46.29149" lon="-0.48982">
        <ele>23.223986</ele>
        <time>2013-08-29T10:00:18Z</time>
      </trkpt>
      <trkpt lat="46.29143" lon="-0.48979">
        <ele>23.223986</ele>
        <time>2013-08-29T10:00:23Z</time>
      </trkpt>
      <trkpt lat="46.29138" lon="-0.48974">
        <ele>22.68906</ele>
        <time>2013-08-29T10:00:28Z</time>
      </trkpt>
      <trkpt lat="46.29131" lon="-0.48973">
        <ele>22.68906</ele>
        <time>2013-08-29T10:00:33Z</time>
      </trkpt>
      <trkpt lat="46.29125" lon="-0.4897">
        <ele>22.461086</ele>
        <time>2013-08-29T10:00:38Z</time>
      </trkpt>
      <trkpt lat="46.2912" lon="-0.48967">
        <ele>22.461086</ele>
        <time>2013-08-29T10:00:43Z</time>
      </trkpt>
      <trkpt lat="46.29115" lon="-0.48967">
        <ele>22.489178</ele>
        <time>2013-08-29T10:00:48Z</time>
      </trkpt>
      <trkpt lat="46.29109" lon="-0.48966">
        <ele>22.489178</ele>
        <time>2013-08-29T10:00:53Z</time>
      </trkpt>
      <trkpt lat="46.29102" lon="-0.48963">
        <ele>22.999268</ele>
        <time>2013-08-29T10:00:58Z</time>
      </trkpt>
      <trkpt lat="46.29095" lon="-0.4896">
        <ele>22.999268</ele>
        <time>2013-08-29T10:01:03Z</time>
      </trkpt>
      <trkpt lat="46.2909" lon="-0.4896">
        <ele>23.406717</ele>
        <time>2013-08-29T10:01:08Z</time>
      </trkpt>
      <trkpt lat="46.29085" lon="-0.4896">
        <ele>23.406717</ele>
        <time>2013-08-29T10:01:13Z</time>
      </trkpt>
      <trkpt lat="46.29082" lon="-0.48959">
        <ele>23.406717</ele>
        <time>2013-08-29T10:01:18Z</time>
      </trkpt>
      <trkpt lat="46.29076" lon="-0.48956">
        <ele>23.660097</ele>
        <time>2013-08-29T10:01:23Z</time>
      </trkpt>
      <trkpt lat="46.29069" lon="-0.48953">
        <ele>23.660097</ele>
        <time>2013-08-29T10:01:28Z</time>
      </trkpt>
      <trkpt lat="46.29061" lon="-0.4895">
        <ele>24.37509</ele>
        <time>2013-08-29T10:01:33Z</time>
      </trkpt>
      <trkpt lat="46.29056" lon="-0.4895">
        <ele>24.37509</ele>
        <time>2013-08-29T10:01:38Z</time>
      </trkpt>
      <trkpt lat="46.29054" lon="-0.4895">
        <ele>24.37509</ele>
        <time>2013-08-29T10:01:43Z</time>
      </trkpt>
      <trkpt lat="46.29048" lon="-0.4895">
        <ele>24.463583</ele>
        <time>2013-08-29T10:01:48Z</time>
      </trkpt>
      <trkpt lat="46.29042" lon="-0.4895">
        <ele>24.463583</ele>
        <time>2013-08-29T10:01:53Z</time>
      </trkpt>
      <trkpt lat="46.29038" lon="-0.48951">
        <ele>24.46115</ele>
        <time>2013-08-29T10:01:58Z</time>
      </trkpt>
      <trkpt lat="46.29032" lon="-0.4895">
        <ele>24.46115</ele>
        <time>2013-08-29T10:02:03Z</time>
      </trkpt>
      <trkpt lat="46.29026" lon="-0.48951">
        <ele>24.633696</ele>
        <time>2013-08-29T10:02:08Z</time>
      </trkpt>
      <trkpt lat="46.29021" lon="-0.48952">
        <ele>24.633696</ele>
        <time>2013-08-29T10:02:13Z</time>
      </trkpt>
      <trkpt lat="46.29015" lon="-0.48953">
        <ele>24.520975</ele>
        <time>2013-08-29T10:02:18Z</time>
      </trkpt>
      <trkpt lat="46.29009" lon="-0.48955">
        <ele>24.520975</ele>
        <time>2013-08-29T10:02:23Z</time>
      </trkpt>
      <trkpt lat="46.29003" lon="-0.48957">
        <ele>24.461143</ele>
        <time>2013-08-29T10:02:28Z</time>
      </trkpt>
      <trkpt lat="46.28998" lon="-0.4896">
        <ele>24.461143</ele>
        <time>2013-08-29T10:02:33Z</time>
      </trkpt>
      <trkpt lat="46.28996" lon="-0.48964">
        <ele>23.91712</ele>
        <time>2013-08-29T10:02:38Z</time>
      </trkpt>
      <trkpt lat="46.28993" lon="-0.4897">
        <ele>23.91712</ele>
        <time>2013-08-29T10:02:43Z</time>
      </trkpt>
      <trkpt lat="46.28989" lon="-0.48972">
        <ele>23.127605</ele>
        <time>2013-08-29T10:02:48Z</time>
      </trkpt>
      <trkpt lat="46.28984" lon="-0.48974">
        <ele>23.127605</ele>
        <time>2013-08-29T10:02:53Z</time>
      </trkpt>
      <trkpt lat="46.28979" lon="-0.48977">
        <ele>22.213581</ele>
        <time>2013-08-29T10:02:58Z</time>
      </trkpt>
      <trkpt lat="46.28973" lon="-0.48977">
        <ele>22.213581</ele>
        <time>2013-08-29T10:03:03Z</time>
      </trkpt>
      <trkpt lat="46.28963" lon="-0.48975">
        <ele>21.777462</ele>
        <time>2013-08-29T10:03:08Z</time>
      </trkpt>
      <trkpt lat="46.2896" lon="-0.48976">
        <ele>21.777462</ele>
        <time>2013-08-29T10:03:13Z</time>
      </trkpt>
      <trkpt lat="46.28955" lon="-0.48976">
        <ele>21.777462</ele>
        <time>2013-08-29T10:03:18Z</time>
      </trkpt>
      <trkpt lat="46.28949" lon="-0.48977">
        <ele>21.136707</ele>
        <time>2013-08-29T10:03:23Z</time>
      </trkpt>
      <trkpt lat="46.28946" lon="-0.48979">
        <ele>21.136707</ele>
        <time>2013-08-29T10:03:28Z</time>
      </trkpt>
      <trkpt lat="46.2894" lon="-0.4898">
        <ele>20.437672</ele>
        <time>2013-08-29T10:03:33Z</time>
      </trkpt>
      <trkpt lat="46.28934" lon="-0.48978">
        <ele>20.437672</ele>
        <time>2013-08-29T10:03:38Z</time>
      </trkpt>
      <trkpt lat="46.28926" lon="-0.48978">
        <ele>19.85934</ele>
        <time>2013-08-29T10:03:43Z</time>
      </trkpt>
      <trkpt lat="46.28921" lon="-0.48979">
        <ele>19.85934</ele>
        <time>2013-08-29T10:03:48Z</time>
      </trkpt>
      <trkpt lat="46.28918" lon="-0.48978">
        <ele>19.85934</ele>
        <time>2013-08-29T10:03:53Z</time>
      </trkpt>
      <trkpt lat="46.28911" lon="-0.48975">
        <ele>19.221327</ele>
        <time>2013-08-29T10:03:58Z</time>
      </trkpt>
      <trkpt lat="46.28906" lon="-0.48977">
        <ele>19.221327</ele>
        <time>2013-08-29T10:04:03Z</time>
      </trkpt>
      <trkpt lat="46.28902" lon="-0.48978">
        <ele>18.500748</ele>
        <time>2013-08-29T10:04:08Z</time>
      </trkpt>
      <trkpt lat="46.28897" lon="-0.4898">
        <ele>18.500748</ele>
        <time>2013-08-29T10:04:13Z</time>
      </trkpt>
      <trkpt lat="46.28892" lon="-0.4898">
        <ele>17.763071</ele>
        <time>2013-08-29T10:04:18Z</time>
      </trkpt>
      <trkpt lat="46.28886" lon="-0.48978">
        <ele>17.763071</ele>
        <time>2013-08-29T10:04:23Z</time>
      </trkpt>
      <trkpt lat="46.28882" lon="-0.48977">
        <ele>17.198675</ele>
        <time>2013-08-29T10:04:28Z</time>
      </trkpt>
      <trkpt lat="46.28876" lon="-0.48978">
        <ele>17.198675</ele>
        <time>2013-08-29T10:04:33Z</time>
      </trkpt>
      <trkpt lat="46.28871" lon="-0.48978">
        <ele>16.810505</ele>
        <time>2013-08-29T10:04:38Z</time>
      </trkpt>
      <trkpt lat="46.28867" lon="-0.48977">
        <ele>16.810505</ele>
        <time>2013-08-29T10:04:43Z</time>
      </trkpt>
      <trkpt lat="46.28862" lon="-0.48975">
        <ele>16.810505</ele>
        <time>2013-08-29T10:04:48Z</time>
      </trkpt>
      <trkpt lat="46.28858" lon="-0.48974">
        <ele>16.874567</ele>
        <time>2013-08-29T10:04:53Z</time>
      </trkpt>
      <trkpt lat="46.28853" lon="-0.48974">
        <ele>16.874567</ele>
        <time>2013-08-29T10:04:58Z</time>
      </trkpt>
      <trkpt lat="46.28848" lon="-0.48974">
        <ele>17.011208</ele>
        <time>2013-08-29T10:05:03Z</time>
      </trkpt>
      <trkpt lat="46.28841" lon="-0.48973">
        <ele>17.011208</ele>
        <time>2013-08-29T10:05:08Z</time>
      </trkpt>
      <trkpt lat="46.28837" lon="-0.48972">
        <ele>17.127829</ele>
        <time>2013-08-29T10:05:13Z</time>
      </trkpt>
      <trkpt lat="46.28833" lon="-0.48973">
        <ele>17.127829</ele>
        <time>2013-08-29T10:05:18Z</time>
      </trkpt>
      <trkpt lat="46.28829" lon="-0.48973">
        <ele>17.127829</ele>
        <time>2013-08-29T10:05:23Z</time>
      </trkpt>
      <trkpt lat="46.28823" lon="-0.48976">
        <ele>17.023376</ele>
        <time>2013-08-29T10:05:28Z</time>
      </trkpt>
      <trkpt lat="46.28817" lon="-0.48981">
        <ele>17.023376</ele>
        <time>2013-08-29T10:05:33Z</time>
      </trkpt>
      <trkpt lat="46.28814" lon="-0.4898">
        <ele>16.872444</ele>
        <time>2013-08-29T10:05:38Z</time>
      </trkpt>
      <trkpt lat="46.28806" lon="-0.4898">
        <ele>16.872444</ele>
        <time>2013-08-29T10:05:43Z</time>
      </trkpt>
      <trkpt lat="46.28802" lon="-0.4898">
        <ele>17.139538</ele>
        <time>2013-08-29T10:05:48Z</time>
      </trkpt>
      <trkpt lat="46.28799" lon="-0.48983">
        <ele>17.139538</ele>
        <time>2013-08-29T10:05:53Z</time>
      </trkpt>
      <trkpt lat="46.28798" lon="-0.48991">
        <ele>17.139538</ele>
        <time>2013-08-29T10:05:58Z</time>
      </trkpt>
      <trkpt lat="46.28794" lon="-0.48996">
        <ele>17.504484</ele>
        <time>2013-08-29T10:06:03Z</time>
      </trkpt>
      <trkpt lat="46.28789" lon="-0.48998">
        <ele>17.504484</ele>
        <time>2013-08-29T10:06:08Z</time>
      </trkpt>
      <trkpt lat="46.28784" lon="-0.48998">
        <ele>17.482994</ele>
        <time>2013-08-29T10:06:13Z</time>
      </trkpt>
      <trkpt lat="46.28778" lon="-0.48995">
        <ele>17.482994</ele>
        <time>2013-08-29T10:06:18Z</time>
      </trkpt>
      <trkpt lat="46.28774" lon="-0.48993">
        <ele>17.54974</ele>
        <time>2013-08-29T10:06:23Z</time>
      </trkpt>
      <trkpt lat="46.28772" lon="-0.4899">
        <ele>17.54974</ele>
        <time>2013-08-29T10:06:28Z</time>
      </trkpt>
      <trkpt lat="46.28767" lon="-0.48992">
        <ele>17.54974</ele>
        <time>2013-08-29T10:06:33Z</time>
      </trkpt>
      <trkpt lat="46.28762" lon="-0.48996">
        <ele>17.423721</ele>
        <time>2013-08-29T10:06:38Z</time>
      </trkpt>
      <trkpt lat="46.28757" lon="-0.48996">
        <ele>17.423721</ele>
        <time>2013-08-29T10:06:43Z</time>
      </trkpt>
      <trkpt lat="46.28751" lon="-0.48997">
        <ele>17.162155</ele>
        <time>2013-08-29T10:06:48Z</time>
      </trkpt>
      <trkpt lat="46.28747" lon="-0.49002">
        <ele>17.162155</ele>
        <time>2013-08-29T10:06:53Z</time>
      </trkpt>
      <trkpt lat="46.28744" lon="-0.49004">
        <ele>17.162155</ele>
        <time>2013-08-29T10:06:58Z</time>
      </trkpt>
      <trkpt lat="46.28739" lon="-0.4901">
        <ele>17.322832</ele>
        <time>2013-08-29T10:07:03Z</time>
      </trkpt>
      <trkpt lat="46.28736" lon="-0.49015">
        <ele>17.322832</ele>
        <time>2013-08-29T10:07:08Z</time>
      </trkpt>
      <trkpt lat="46.28732" lon="-0.49019">
        <ele>17.167606</ele>
        <time>2013-08-29T10:07:13Z</time>
      </trkpt>
      <trkpt lat="46.28729" lon="-0.49026">
        <ele>17.167606</ele>
        <time>2013-08-29T10:07:18Z</time>
      </trkpt>
      <trkpt lat="46.28726" lon="-0.49031">
        <ele>16.892527</ele>
        <time>2013-08-29T10:07:23Z</time>
      </trkpt>
      <trkpt lat="46.28722" lon="-0.49036">
        <ele>16.892527</ele>
        <time>2013-08-29T10:07:28Z</time>
      </trkpt>
      <trkpt lat="46.28719" lon="-0.49041">
        <ele>16.722807</ele>
        <time>2013-08-29T10:07:33Z</time>
      </trkpt>
      <trkpt lat="46.28715" lon="-0.49046">
        <ele>16.722807</ele>
        <time>2013-08-29T10:07:38Z</time>
      </trkpt>
      <trkpt lat="46.28711" lon="-0.49051">
        <ele>16.621836</ele>
        <time>2013-08-29T10:07:43Z</time>
      </trkpt>
      <trkpt lat="46.28708" lon="-0.49055">
        <ele>16.621836</ele>
        <time>2013-08-29T10:07:48Z</time>
      </trkpt>
      <trkpt lat="46.28703" lon="-0.49059">
        <ele>16.382563</ele>
        <time>2013-08-29T10:07:53Z</time>
      </trkpt>
      <trkpt lat="46.287" lon="-0.49065">
        <ele>16.382563</ele>
        <time>2013-08-29T10:07:58Z</time>
      </trkpt>
      <trkpt lat="46.28697" lon="-0.49067">
        <ele>16.382563</ele>
        <time>2013-08-29T10:08:03Z</time>
      </trkpt>
      <trkpt lat="46.28698" lon="-0.49068">
        <ele>16.044117</ele>
        <time>2013-08-29T10:08:08Z</time>
      </trkpt>
      <trkpt lat="46.28695" lon="-0.4907">
        <ele>16.044117</ele>
        <time>2013-08-29T10:08:13Z</time>
      </trkpt>
      <trkpt lat="46.28691" lon="-0.49076">
        <ele>16.044117</ele>
        <time>2013-08-29T10:08:18Z</time>
      </trkpt>
      <trkpt lat="46.28688" lon="-0.4908">
        <ele>15.844786</ele>
        <time>2013-08-29T10:08:23Z</time>
      </trkpt>
      <trkpt lat="46.28685" lon="-0.49084">
        <ele>15.844786</ele>
        <time>2013-08-29T10:08:28Z</time>
      </trkpt>
      <trkpt lat="46.28682" lon="-0.49088">
        <ele>15.844786</ele>
        <time>2013-08-29T10:08:33Z</time>
      </trkpt>
      <trkpt lat="46.2868" lon="-0.49092">
        <ele>15.471749</ele>
        <time>2013-08-29T10:08:38Z</time>
      </trkpt>
      <trkpt lat="46.28676" lon="-0.49096">
        <ele>15.471749</ele>
        <time>2013-08-29T10:08:43Z</time>
      </trkpt>
      <trkpt lat="46.28673" lon="-0.491">
        <ele>15.212101</ele>
        <time>2013-08-29T10:08:48Z</time>
      </trkpt>
      <trkpt lat="46.2867" lon="-0.49105">
        <ele>15.212101</ele>
        <time>2013-08-29T10:08:53Z</time>
      </trkpt>
      <trkpt lat="46.28667" lon="-0.49109">
        <ele>15.212101</ele>
        <time>2013-08-29T10:08:58Z</time>
      </trkpt>
      <trkpt lat="46.28663" lon="-0.49113">
        <ele>15.230645</ele>
        <time>2013-08-29T10:09:03Z</time>
      </trkpt>
      <trkpt lat="46.28662" lon="-0.49118">
        <ele>15.230645</ele>
        <time>2013-08-29T10:09:08Z</time>
      </trkpt>
      <trkpt lat="46.28663" lon="-0.49123">
        <ele>15.230645</ele>
        <time>2013-08-29T10:09:13Z</time>
      </trkpt>
      <trkpt lat="46.2866" lon="-0.49127">
        <ele>15.2181425</ele>
        <time>2013-08-29T10:09:18Z</time>
      </trkpt>
      <trkpt lat="46.28653" lon="-0.49132">
        <ele>15.2181425</ele>
        <time>2013-08-29T10:09:23Z</time>
      </trkpt>
      <trkpt lat="46.28649" lon="-0.49139">
        <ele>15.190791</ele>
        <time>2013-08-29T10:09:28Z</time>
      </trkpt>
      <trkpt lat="46.28644" lon="-0.49145">
        <ele>15.190791</ele>
        <time>2013-08-29T10:09:33Z</time>
      </trkpt>
      <trkpt lat="46.28641" lon="-0.4915">
        <ele>15.3365755</ele>
        <time>2013-08-29T10:09:38Z</time>
      </trkpt>
      <trkpt lat="46.28638" lon="-0.49155">
        <ele>15.3365755</ele>
        <time>2013-08-29T10:09:43Z</time>
      </trkpt>
      <trkpt lat="46.28634" lon="-0.49161">
        <ele>15.425676</ele>
        <time>2013-08-29T10:09:48Z</time>
      </trkpt>
      <trkpt lat="46.2863" lon="-0.49166">
        <ele>15.425676</ele>
        <time>2013-08-29T10:09:53Z</time>
      </trkpt>
      <trkpt lat="46.28625" lon="-0.4917">
        <ele>15.864998</ele>
        <time>2013-08-29T10:09:58Z</time>
      </trkpt>
      <trkpt lat="46.28621" lon="-0.49175">
        <ele>15.864998</ele>
        <time>2013-08-29T10:10:03Z</time>
      </trkpt>
      <trkpt lat="46.28618" lon="-0.49182">
        <ele>16.050625</ele>
        <time>2013-08-29T10:10:08Z</time>
      </trkpt>
      <trkpt lat="46.28617" lon="-0.49188">
        <ele>16.050625</ele>
        <time>2013-08-29T10:10:13Z</time>
      </trkpt>
      <trkpt lat="46.28615" lon="-0.49195">
        <ele>16.072226</ele>
        <time>2013-08-29T10:10:18Z</time>
      </trkpt>
      <trkpt lat="46.28615" lon="-0.49202">
        <ele>16.072226</ele>
        <time>2013-08-29T10:10:23Z</time>
      </trkpt>
      <trkpt lat="46.28615" lon="-0.4921">
        <ele>15.768367</ele>
        <time>2013-08-29T10:10:28Z</time>
      </trkpt>
      <trkpt lat="46.28615" lon="-0.49216">
        <ele>15.768367</ele>
        <time>2013-08-29T10:10:33Z</time>
      </trkpt>
      <trkpt lat="46.28615" lon="-0.49224">
        <ele>15.278621</ele>
        <time>2013-08-29T10:10:38Z</time>
      </trkpt>
      <trkpt lat="46.28615" lon="-0.49231">
        <ele>15.278621</ele>
        <time>2013-08-29T10:10:43Z</time>
      </trkpt>
      <trkpt lat="46.28616" lon="-0.49237">
        <ele>14.7904825</ele>
        <time>2013-08-29T10:10:48Z</time>
      </trkpt>
      <trkpt lat="46.28616" lon="-0.49243">
        <ele>14.7904825</ele>
        <time>2013-08-29T10:10:53Z</time>
      </trkpt>
      <trkpt lat="46.28614" lon="-0.49248">
        <ele>14.7904825</ele>
        <time>2013-08-29T10:10:58Z</time>
      </trkpt>
      <trkpt lat="46.28612" lon="-0.49257">
        <ele>14.607379</ele>
        <time>2013-08-29T10:11:03Z</time>
      </trkpt>
      <trkpt lat="46.28612" lon="-0.49264">
        <ele>14.607379</ele>
        <time>2013-08-29T10:11:08Z</time>
      </trkpt>
      <trkpt lat="46.28613" lon="-0.49269">
        <ele>14.607379</ele>
        <time>2013-08-29T10:11:13Z</time>
      </trkpt>
      <trkpt lat="46.28613" lon="-0.49277">
        <ele>14.678144</ele>
        <time>2013-08-29T10:11:18Z</time>
      </trkpt>
      <trkpt lat="46.28612" lon="-0.49284">
        <ele>14.678144</ele>
        <time>2013-08-29T10:11:23Z</time>
      </trkpt>
      <trkpt lat="46.28614" lon="-0.49293">
        <ele>14.334987</ele>
        <time>2013-08-29T10:11:28Z</time>
      </trkpt>
      <trkpt lat="46.28616" lon="-0.49299">
        <ele>14.334987</ele>
        <time>2013-08-29T10:11:33Z</time>
      </trkpt>
      <trkpt lat="46.28617" lon="-0.49306">
        <ele>13.983521</ele>
        <time>2013-08-29T10:11:38Z</time>
      </trkpt>
      <trkpt lat="46.28617" lon="-0.49312">
        <ele>13.983521</ele>
        <time>2013-08-29T10:11:43Z</time>
      </trkpt>
      <trkpt lat="46.28616" lon="-0.49319">
        <ele>13.610498</ele>
        <time>2013-08-29T10:11:48Z</time>
      </trkpt>
      <trkpt lat="46.28615" lon="-0.49325">
        <ele>13.610498</ele>
        <time>2013-08-29T10:11:53Z</time>
      </trkpt>
      <trkpt lat="46.28614" lon="-0.49332">
        <ele>13.419869</ele>
        <time>2013-08-29T10:11:58Z</time>
      </trkpt>
      <trkpt lat="46.28614" lon="-0.4934">
        <ele>13.419869</ele>
        <time>2013-08-29T10:12:03Z</time>
      </trkpt>
      <trkpt lat="46.28614" lon="-0.49347">
        <ele>13.311869</ele>
        <time>2013-08-29T10:12:08Z</time>
      </trkpt>
      <trkpt lat="46.28613" lon="-0.49354">
        <ele>13.311869</ele>
        <time>2013-08-29T10:12:13Z</time>
      </trkpt>
      <trkpt lat="46.28613" lon="-0.49361">
        <ele>13.265886</ele>
        <time>2013-08-29T10:12:18Z</time>
      </trkpt>
      <trkpt lat="46.28614" lon="-0.49368">
        <ele>13.265886</ele>
        <time>2013-08-29T10:12:23Z</time>
      </trkpt>
      <trkpt lat="46.28614" lon="-0.49374">
        <ele>13.406764</ele>
        <time>2013-08-29T10:12:28Z</time>
      </trkpt>
      <trkpt lat="46.28612" lon="-0.49379">
        <ele>13.406764</ele>
        <time>2013-08-29T10:12:33Z</time>
      </trkpt>
      <trkpt lat="46.28611" lon="-0.49385">
        <ele>13.406764</ele>
        <time>2013-08-29T10:12:38Z</time>
      </trkpt>
      <trkpt lat="46.28609" lon="-0.49392">
        <ele>13.4029045</ele>
        <time>2013-08-29T10:12:43Z</time>
      </trkpt>
      <trkpt lat="46.28605" lon="-0.49396">
        <ele>13.4029045</ele>
        <time>2013-08-29T10:12:48Z</time>
      </trkpt>
      <trkpt lat="46.28603" lon="-0.49404">
        <ele>13.336579</ele>
        <time>2013-08-29T10:12:53Z</time>
      </trkpt>
      <trkpt lat="46.28603" lon="-0.4941">
        <ele>13.336579</ele>
        <time>2013-08-29T10:12:58Z</time>
      </trkpt>
      <trkpt lat="46.28602" lon="-0.49417">
        <ele>13.356251</ele>
        <time>2013-08-29T10:13:03Z</time>
      </trkpt>
      <trkpt lat="46.28603" lon="-0.49424">
        <ele>13.356251</ele>
        <time>2013-08-29T10:13:08Z</time>
      </trkpt>
      <trkpt lat="46.28604" lon="-0.49431">
        <ele>13.181318</ele>
        <time>2013-08-29T10:13:13Z</time>
      </trkpt>
      <trkpt lat="46.28603" lon="-0.49438">
        <ele>13.181318</ele>
        <time>2013-08-29T10:13:18Z</time>
      </trkpt>
      <trkpt lat="46.28603" lon="-0.49445">
        <ele>13.128786</ele>
        <time>2013-08-29T10:13:23Z</time>
      </trkpt>
      <trkpt lat="46.28601" lon="-0.49451">
        <ele>13.128786</ele>
        <time>2013-08-29T10:13:28Z</time>
      </trkpt>
      <trkpt lat="46.286" lon="-0.49458">
        <ele>12.973238</ele>
        <time>2013-08-29T10:13:33Z</time>
      </trkpt>
      <trkpt lat="46.28602" lon="-0.49464">
        <ele>12.973238</ele>
        <time>2013-08-29T10:13:38Z</time>
      </trkpt>
      <trkpt lat="46.28601" lon="-0.49471">
        <ele>13.111374</ele>
        <time>2013-08-29T10:13:43Z</time>
      </trkpt>
      <trkpt lat="46.286" lon="-0.49476">
        <ele>13.111374</ele>
        <time>2013-08-29T10:13:48Z</time>
      </trkpt>
      <trkpt lat="46.286" lon="-0.49483">
        <ele>13.218204</ele>
        <time>2013-08-29T10:13:53Z</time>
      </trkpt>
      <trkpt lat="46.28599" lon="-0.49491">
        <ele>13.218204</ele>
        <time>2013-08-29T10:13:58Z</time>
      </trkpt>
      <trkpt lat="46.28596" lon="-0.49499">
        <ele>13.266518</ele>
        <time>2013-08-29T10:14:03Z</time>
      </trkpt>
      <trkpt lat="46.28596" lon="-0.49505">
        <ele>13.266518</ele>
        <time>2013-08-29T10:14:08Z</time>
      </trkpt>
      <trkpt lat="46.28599" lon="-0.49511">
        <ele>13.375387</ele>
        <time>2013-08-29T10:14:13Z</time>
      </trkpt>
      <trkpt lat="46.28602" lon="-0.49519">
        <ele>13.375387</ele>
        <time>2013-08-29T10:14:18Z</time>
      </trkpt>
      <trkpt lat="46.28605" lon="-0.49523">
        <ele>13.525276</ele>
        <time>2013-08-29T10:14:23Z</time>
      </trkpt>
      <trkpt lat="46.28607" lon="-0.49524">
        <ele>13.525276</ele>
        <time>2013-08-29T10:14:28Z</time>
      </trkpt>
      <trkpt lat="46.2861" lon="-0.49525">
        <ele>13.525276</ele>
        <time>2013-08-29T10:14:33Z</time>
      </trkpt>
      <trkpt lat="46.28613" lon="-0.49524">
        <ele>13.525276</ele>
        <time>2013-08-29T10:14:38Z</time>
      </trkpt>
      <trkpt lat="46.28616" lon="-0.49524">
        <ele>14.605884</ele>
        <time>2013-08-29T10:14:43Z</time>
      </trkpt>
      <trkpt lat="46.28619" lon="-0.49524">
        <ele>14.605884</ele>
        <time>2013-08-29T10:14:48Z</time>
      </trkpt>
      <trkpt lat="46.28622" lon="-0.49523">
        <ele>14.605884</ele>
        <time>2013-08-29T10:14:53Z</time>
      </trkpt>
      <trkpt lat="46.28626" lon="-0.49522">
        <ele>15.940199</ele>
        <time>2013-08-29T10:14:58Z</time>
      </trkpt>
      <trkpt lat="46.28626" lon="-0.49523">
        <ele>15.940199</ele>
        <time>2013-08-29T10:15:03Z</time>
      </trkpt>
      <trkpt lat="46.2863" lon="-0.49522">
        <ele>15.940199</ele>
        <time>2013-08-29T10:15:08Z</time>
      </trkpt>
      <trkpt lat="46.28634" lon="-0.49522">
        <ele>15.940199</ele>
        <time>2013-08-29T10:15:13Z</time>
      </trkpt>
      <trkpt lat="46.2864" lon="-0.49521">
        <ele>18.81694</ele>
        <time>2013-08-29T10:15:18Z</time>
      </trkpt>
      <trkpt lat="46.28645" lon="-0.49522">
        <ele>18.81694</ele>
        <time>2013-08-29T10:15:23Z</time>
      </trkpt>
      <trkpt lat="46.28651" lon="-0.4952">
        <ele>21.12572</ele>
        <time>2013-08-29T10:15:28Z</time>
      </trkpt>
      <trkpt lat="46.28657" lon="-0.49521">
        <ele>21.12572</ele>
        <time>2013-08-29T10:15:33Z</time>
      </trkpt>
      <trkpt lat="46.28661" lon="-0.49524">
        <ele>23.391539</ele>
        <time>2013-08-29T10:15:38Z</time>
      </trkpt>
      <trkpt lat="46.28664" lon="-0.49526">
        <ele>23.391539</ele>
        <time>2013-08-29T10:15:43Z</time>
      </trkpt>
      <trkpt lat="46.28669" lon="-0.49524">
        <ele>23.391539</ele>
        <time>2013-08-29T10:15:48Z</time>
      </trkpt>
      <trkpt lat="46.28673" lon="-0.49525">
        <ele>25.697512</ele>
        <time>2013-08-29T10:15:53Z</time>
      </trkpt>
      <trkpt lat="46.28678" lon="-0.49525">
        <ele>25.697512</ele>
        <time>2013-08-29T10:15:58Z</time>
      </trkpt>
      <trkpt lat="46.28685" lon="-0.49524">
        <ele>27.544168</ele>
        <time>2013-08-29T10:16:03Z</time>
      </trkpt>
      <trkpt lat="46.2869" lon="-0.49525">
        <ele>27.544168</ele>
        <time>2013-08-29T10:16:08Z</time>
      </trkpt>
      <trkpt lat="46.28697" lon="-0.49522">
        <ele>28.830399</ele>
        <time>2013-08-29T10:16:13Z</time>
      </trkpt>
      <trkpt lat="46.28703" lon="-0.49525">
        <ele>28.830399</ele>
        <time>2013-08-29T10:16:18Z</time>
      </trkpt>
      <trkpt lat="46.28707" lon="-0.49526">
        <ele>29.665943</ele>
        <time>2013-08-29T10:16:23Z</time>
      </trkpt>
      <trkpt lat="46.28712" lon="-0.49525">
        <ele>29.665943</ele>
        <time>2013-08-29T10:16:28Z</time>
      </trkpt>
      <trkpt lat="46.28715" lon="-0.49527">
        <ele>29.665943</ele>
        <time>2013-08-29T10:16:33Z</time>
      </trkpt>
      <trkpt lat="46.28722" lon="-0.49528">
        <ele>29.779163</ele>
        <time>2013-08-29T10:16:38Z</time>
      </trkpt>
      <trkpt lat="46.28725" lon="-0.49526">
        <ele>29.779163</ele>
        <time>2013-08-29T10:16:43Z</time>
      </trkpt>
      <trkpt lat="46.28728" lon="-0.4953">
        <ele>29.779163</ele>
        <time>2013-08-29T10:16:48Z</time>
      </trkpt>
      <trkpt lat="46.28735" lon="-0.49534">
        <ele>29.958105</ele>
        <time>2013-08-29T10:16:53Z</time>
      </trkpt>
      <trkpt lat="46.2874" lon="-0.49545">
        <ele>29.958105</ele>
        <time>2013-08-29T10:16:58Z</time>
      </trkpt>
      <trkpt lat="46.28739" lon="-0.49549">
        <ele>30.111408</ele>
        <time>2013-08-29T10:17:03Z</time>
      </trkpt>
      <trkpt lat="46.2874" lon="-0.49556">
        <ele>30.111408</ele>
        <time>2013-08-29T10:17:08Z</time>
      </trkpt>
      <trkpt lat="46.28739" lon="-0.49567">
        <ele>30.831905</ele>
        <time>2013-08-29T10:17:13Z</time>
      </trkpt>
      <trkpt lat="46.2874" lon="-0.49572">
        <ele>30.831905</ele>
        <time>2013-08-29T10:17:18Z</time>
      </trkpt>
      <trkpt lat="46.28741" lon="-0.49578">
        <ele>30.831905</ele>
        <time>2013-08-29T10:17:23Z</time>
      </trkpt>
      <trkpt lat="46.28746" lon="-0.49586">
        <ele>31.096567</ele>
        <time>2013-08-29T10:17:28Z</time>
      </trkpt>
      <trkpt lat="46.28747" lon="-0.49592">
        <ele>31.096567</ele>
        <time>2013-08-29T10:17:33Z</time>
      </trkpt>
      <trkpt lat="46.28749" lon="-0.49599">
        <ele>31.010887</ele>
        <time>2013-08-29T10:17:38Z</time>
      </trkpt>
      <trkpt lat="46.2875" lon="-0.49605">
        <ele>31.010887</ele>
        <time>2013-08-29T10:17:43Z</time>
      </trkpt>
      <trkpt lat="46.28752" lon="-0.49612">
        <ele>30.543964</ele>
        <time>2013-08-29T10:17:48Z</time>
      </trkpt>
      <trkpt lat="46.28752" lon="-0.49617">
        <ele>30.543964</ele>
        <time>2013-08-29T10:17:53Z</time>
      </trkpt>
      <trkpt lat="46.28755" lon="-0.49622">
        <ele>30.543964</ele>
        <time>2013-08-29T10:17:58Z</time>
      </trkpt>
      <trkpt lat="46.28755" lon="-0.49629">
        <ele>29.380075</ele>
        <time>2013-08-29T10:18:03Z</time>
      </trkpt>
      <trkpt lat="46.28757" lon="-0.49636">
        <ele>29.380075</ele>
        <time>2013-08-29T10:18:08Z</time>
      </trkpt>
      <trkpt lat="46.28756" lon="-0.49642">
        <ele>28.050138</ele>
        <time>2013-08-29T10:18:13Z</time>
      </trkpt>
      <trkpt lat="46.28759" lon="-0.4965">
        <ele>28.050138</ele>
        <time>2013-08-29T10:18:18Z</time>
      </trkpt>
      <trkpt lat="46.28763" lon="-0.49656">
        <ele>26.743933</ele>
        <time>2013-08-29T10:18:23Z</time>
      </trkpt>
      <trkpt lat="46.28767" lon="-0.49661">
        <ele>26.743933</ele>
        <time>2013-08-29T10:18:28Z</time>
      </trkpt>
      <trkpt lat="46.28772" lon="-0.49666">
        <ele>25.5652</ele>
        <time>2013-08-29T10:18:33Z</time>
      </trkpt>
      <trkpt lat="46.28776" lon="-0.4967">
        <ele>25.5652</ele>
        <time>2013-08-29T10:18:38Z</time>
      </trkpt>
      <trkpt lat="46.28777" lon="-0.49673">
        <ele>25.5652</ele>
        <time>2013-08-29T10:18:43Z</time>
      </trkpt>
      <trkpt lat="46.2878" lon="-0.49677">
        <ele>23.817104</ele>
        <time>2013-08-29T10:18:48Z</time>
      </trkpt>
      <trkpt lat="46.28786" lon="-0.49681">
        <ele>23.817104</ele>
        <time>2013-08-29T10:18:53Z</time>
      </trkpt>
      <trkpt lat="46.28791" lon="-0.49686">
        <ele>22.109346</ele>
        <time>2013-08-29T10:18:58Z</time>
      </trkpt>
      <trkpt lat="46.28797" lon="-0.49686">
        <ele>22.109346</ele>
        <time>2013-08-29T10:19:03Z</time>
      </trkpt>
      <trkpt lat="46.28799" lon="-0.49694">
        <ele>20.502316</ele>
        <time>2013-08-29T10:19:08Z</time>
      </trkpt>
      <trkpt lat="46.28801" lon="-0.49699">
        <ele>20.502316</ele>
        <time>2013-08-29T10:19:13Z</time>
      </trkpt>
      <trkpt lat="46.28804" lon="-0.49708">
        <ele>19.138111</ele>
        <time>2013-08-29T10:19:18Z</time>
      </trkpt>
      <trkpt lat="46.2881" lon="-0.49709">
        <ele>19.138111</ele>
        <time>2013-08-29T10:19:23Z</time>
      </trkpt>
      <trkpt lat="46.28815" lon="-0.49714">
        <ele>18.24854</ele>
        <time>2013-08-29T10:19:28Z</time>
      </trkpt>
      <trkpt lat="46.28818" lon="-0.4972">
        <ele>18.24854</ele>
        <time>2013-08-29T10:19:33Z</time>
      </trkpt>
      <trkpt lat="46.28821" lon="-0.49724">
        <ele>17.412905</ele>
        <time>2013-08-29T10:19:38Z</time>
      </trkpt>
      <trkpt lat="46.28824" lon="-0.49729">
        <ele>17.412905</ele>
        <time>2013-08-29T10:19:43Z</time>
      </trkpt>
      <trkpt lat="46.28828" lon="-0.49732">
        <ele>16.803219</ele>
        <time>2013-08-29T10:19:48Z</time>
      </trkpt>
      <trkpt lat="46.28831" lon="-0.49734">
        <ele>16.803219</ele>
        <time>2013-08-29T10:19:53Z</time>
      </trkpt>
      <trkpt lat="46.28832" lon="-0.49737">
        <ele>16.803219</ele>
        <time>2013-08-29T10:19:58Z</time>
      </trkpt>
      <trkpt lat="46.28832" lon="-0.49745">
        <ele>16.145828</ele>
        <time>2013-08-29T10:20:03Z</time>
      </trkpt>
      <trkpt lat="46.28829" lon="-0.49751">
        <ele>16.145828</ele>
        <time>2013-08-29T10:20:08Z</time>
      </trkpt>
      <trkpt lat="46.28826" lon="-0.49759">
        <ele>15.576339</ele>
        <time>2013-08-29T10:20:13Z</time>
      </trkpt>
      <trkpt lat="46.28824" lon="-0.49763">
        <ele>15.576339</ele>
        <time>2013-08-29T10:20:18Z</time>
      </trkpt>
      <trkpt lat="46.28822" lon="-0.4977">
        <ele>15.576339</ele>
        <time>2013-08-29T10:20:23Z</time>
      </trkpt>
      <trkpt lat="46.28818" lon="-0.49775">
        <ele>15.407422</ele>
        <time>2013-08-29T10:20:28Z</time>
      </trkpt>
      <trkpt lat="46.28817" lon="-0.49781">
        <ele>15.407422</ele>
        <time>2013-08-29T10:20:33Z</time>
      </trkpt>
      <trkpt lat="46.28815" lon="-0.49787">
        <ele>15.407422</ele>
        <time>2013-08-29T10:20:38Z</time>
      </trkpt>
      <trkpt lat="46.28815" lon="-0.49796">
        <ele>15.2358465</ele>
        <time>2013-08-29T10:20:43Z</time>
      </trkpt>
      <trkpt lat="46.28813" lon="-0.49802">
        <ele>15.2358465</ele>
        <time>2013-08-29T10:20:48Z</time>
      </trkpt>
      <trkpt lat="46.28813" lon="-0.4981">
        <ele>15.091449</ele>
        <time>2013-08-29T10:20:53Z</time>
      </trkpt>
      <trkpt lat="46.28812" lon="-0.49818">
        <ele>15.091449</ele>
        <time>2013-08-29T10:20:58Z</time>
      </trkpt>
      <trkpt lat="46.28811" lon="-0.49824">
        <ele>14.497337</ele>
        <time>2013-08-29T10:21:03Z</time>
      </trkpt>
      <trkpt lat="46.28813" lon="-0.49832">
        <ele>14.497337</ele>
        <time>2013-08-29T10:21:08Z</time>
      </trkpt>
      <trkpt lat="46.28816" lon="-0.49838">
        <ele>13.949571</ele>
        <time>2013-08-29T10:21:13Z</time>
      </trkpt>
      <trkpt lat="46.28821" lon="-0.49841">
        <ele>13.949571</ele>
        <time>2013-08-29T10:21:18Z</time>
      </trkpt>
      <trkpt lat="46.28825" lon="-0.49844">
        <ele>13.806691</ele>
        <time>2013-08-29T10:21:23Z</time>
      </trkpt>
      <trkpt lat="46.2883" lon="-0.49846">
        <ele>13.806691</ele>
        <time>2013-08-29T10:21:28Z</time>
      </trkpt>
      <trkpt lat="46.28835" lon="-0.49849">
        <ele>13.462977</ele>
        <time>2013-08-29T10:21:33Z</time>
      </trkpt>
      <trkpt lat="46.28838" lon="-0.49849">
        <ele>13.462977</ele>
        <time>2013-08-29T10:21:38Z</time>
      </trkpt>
      <trkpt lat="46.28844" lon="-0.49849">
        <ele>12.948562</ele>
        <time>2013-08-29T10:21:43Z</time>
      </trkpt>
      <trkpt lat="46.28849" lon="-0.49848">
        <ele>12.948562</ele>
        <time>2013-08-29T10:21:48Z</time>
      </trkpt>
      <trkpt lat="46.28854" lon="-0.4985">
        <ele>12.594412</ele>
        <time>2013-08-29T10:21:53Z</time>
      </trkpt>
      <trkpt lat="46.28858" lon="-0.4985">
        <ele>12.594412</ele>
        <time>2013-08-29T10:21:58Z</time>
      </trkpt>
      <trkpt lat="46.28863" lon="-0.4985">
        <ele>12.3463955</ele>
        <time>2013-08-29T10:22:03Z</time>
      </trkpt>
      <trkpt lat="46.28866" lon="-0.49849">
        <ele>12.3463955</ele>
        <time>2013-08-29T10:22:08Z</time>
      </trkpt>
      <trkpt lat="46.2887" lon="-0.49851">
        <ele>12.3463955</ele>
        <time>2013-08-29T10:22:13Z</time>
      </trkpt>
      <trkpt lat="46.28875" lon="-0.49851">
        <ele>12.52869</ele>
        <time>2013-08-29T10:22:18Z</time>
      </trkpt>
      <trkpt lat="46.28881" lon="-0.49849">
        <ele>12.52869</ele>
        <time>2013-08-29T10:22:23Z</time>
      </trkpt>
      <trkpt lat="46.28888" lon="-0.4985">
        <ele>12.633377</ele>
        <time>2013-08-29T10:22:28Z</time>
      </trkpt>
      <trkpt lat="46.28893" lon="-0.49851">
        <ele>12.633377</ele>
        <time>2013-08-29T10:22:33Z</time>
      </trkpt>
      <trkpt lat="46.28896" lon="-0.49851">
        <ele>12.633377</ele>
        <time>2013-08-29T10:22:38Z</time>
      </trkpt>
      <trkpt lat="46.28899" lon="-0.49851">
        <ele>12.809693</ele>
        <time>2013-08-29T10:22:43Z</time>
      </trkpt>
      <trkpt lat="46.28905" lon="-0.49852">
        <ele>12.809693</ele>
        <time>2013-08-29T10:22:48Z</time>
      </trkpt>
      <trkpt lat="46.2891" lon="-0.4985">
        <ele>12.907447</ele>
        <time>2013-08-29T10:22:53Z</time>
      </trkpt>
      <trkpt lat="46.28914" lon="-0.49851">
        <ele>12.907447</ele>
        <time>2013-08-29T10:22:58Z</time>
      </trkpt>
      <trkpt lat="46.28919" lon="-0.49851">
        <ele>12.8453045</ele>
        <time>2013-08-29T10:23:03Z</time>
      </trkpt>
      <trkpt lat="46.28924" lon="-0.49854">
        <ele>12.8453045</ele>
        <time>2013-08-29T10:23:08Z</time>
      </trkpt>
      <trkpt lat="46.2893" lon="-0.49854">
        <ele>12.836545</ele>
        <time>2013-08-29T10:23:13Z</time>
      </trkpt>
      <trkpt lat="46.28936" lon="-0.49854">
        <ele>12.836545</ele>
        <time>2013-08-29T10:23:18Z</time>
      </trkpt>
      <trkpt lat="46.28941" lon="-0.49853">
        <ele>12.761554</ele>
        <time>2013-08-29T10:23:23Z</time>
      </trkpt>
      <trkpt lat="46.28945" lon="-0.49855">
        <ele>12.761554</ele>
        <time>2013-08-29T10:23:28Z</time>
      </trkpt>
      <trkpt lat="46.28949" lon="-0.49854">
        <ele>12.761554</ele>
        <time>2013-08-29T10:23:33Z</time>
      </trkpt>
      <trkpt lat="46.28953" lon="-0.49855">
        <ele>13.071697</ele>
        <time>2013-08-29T10:23:38Z</time>
      </trkpt>
      <trkpt lat="46.28958" lon="-0.49852">
        <ele>13.071697</ele>
        <time>2013-08-29T10:23:43Z</time>
      </trkpt>
      <trkpt lat="46.28963" lon="-0.49855">
        <ele>13.622049</ele>
        <time>2013-08-29T10:23:48Z</time>
      </trkpt>
      <trkpt lat="46.28967" lon="-0.4986">
        <ele>13.622049</ele>
        <time>2013-08-29T10:23:53Z</time>
      </trkpt>
      <trkpt lat="46.28969" lon="-0.49866">
        <ele>14.292049</ele>
        <time>2013-08-29T10:23:58Z</time>
      </trkpt>
      <trkpt lat="46.28971" lon="-0.4987">
        <ele>14.292049</ele>
        <time>2013-08-29T10:24:03Z</time>
      </trkpt>
      <trkpt lat="46.28976" lon="-0.49876">
        <ele>14.796717</ele>
        <time>2013-08-29T10:24:08Z</time>
      </trkpt>
      <trkpt lat="46.28977" lon="-0.49884">
        <ele>14.796717</ele>
        <time>2013-08-29T10:24:13Z</time>
      </trkpt>
      <trkpt lat="46.28979" lon="-0.49887">
        <ele>15.578607</ele>
        <time>2013-08-29T10:24:18Z</time>
      </trkpt>
      <trkpt lat="46.28983" lon="-0.49894">
        <ele>15.578607</ele>
        <time>2013-08-29T10:24:23Z</time>
      </trkpt>
      <trkpt lat="46.28986" lon="-0.499">
        <ele>16.06704</ele>
        <time>2013-08-29T10:24:28Z</time>
      </trkpt>
      <trkpt lat="46.28989" lon="-0.49909">
        <ele>16.06704</ele>
        <time>2013-08-29T10:24:33Z</time>
      </trkpt>
      <trkpt lat="46.28992" lon="-0.49916">
        <ele>16.440233</ele>
        <time>2013-08-29T10:24:38Z</time>
      </trkpt>
      <trkpt lat="46.28997" lon="-0.4992">
        <ele>16.440233</ele>
        <time>2013-08-29T10:24:43Z</time>
      </trkpt>
      <trkpt lat="46.29" lon="-0.49926">
        <ele>16.70513</ele>
        <time>2013-08-29T10:24:48Z</time>
      </trkpt>
      <trkpt lat="46.29004" lon="-0.49932">
        <ele>16.70513</ele>
        <time>2013-08-29T10:24:53Z</time>
      </trkpt>
      <trkpt lat="46.2901" lon="-0.49937">
        <ele>16.551435</ele>
        <time>2013-08-29T10:24:58Z</time>
      </trkpt>
      <trkpt lat="46.29014" lon="-0.49941">
        <ele>16.551435</ele>
        <time>2013-08-29T10:25:03Z</time>
      </trkpt>
      <trkpt lat="46.29015" lon="-0.49948">
        <ele>16.413408</ele>
        <time>2013-08-29T10:25:08Z</time>
      </trkpt>
      <trkpt lat="46.29017" lon="-0.49953">
        <ele>16.413408</ele>
        <time>2013-08-29T10:25:13Z</time>
      </trkpt>
      <trkpt lat="46.29022" lon="-0.49957">
        <ele>16.261038</ele>
        <time>2013-08-29T10:25:18Z</time>
      </trkpt>
      <trkpt lat="46.29024" lon="-0.49963">
        <ele>16.261038</ele>
        <time>2013-08-29T10:25:23Z</time>
      </trkpt>
      <trkpt lat="46.29026" lon="-0.49967">
        <ele>16.261038</ele>
        <time>2013-08-29T10:25:28Z</time>
      </trkpt>
      <trkpt lat="46.29029" lon="-0.49973">
        <ele>15.850421</ele>
        <time>2013-08-29T10:25:33Z</time>
      </trkpt>
      <trkpt lat="46.29032" lon="-0.49976">
        <ele>15.850421</ele>
        <time>2013-08-29T10:25:38Z</time>
      </trkpt>
      <trkpt lat="46.29035" lon="-0.49979">
        <ele>15.850421</ele>
        <time>2013-08-29T10:25:43Z</time>
      </trkpt>
      <trkpt lat="46.29039" lon="-0.49985">
        <ele>15.460691</ele>
        <time>2013-08-29T10:25:48Z</time>
      </trkpt>
      <trkpt lat="46.29043" lon="-0.49988">
        <ele>15.460691</ele>
        <time>2013-08-29T10:25:53Z</time>
      </trkpt>
      <trkpt lat="46.29047" lon="-0.49991">
        <ele>15.206327</ele>
        <time>2013-08-29T10:25:58Z</time>
      </trkpt>
      <trkpt lat="46.29051" lon="-0.49995">
        <ele>15.206327</ele>
        <time>2013-08-29T10:26:03Z</time>
      </trkpt>
      <trkpt lat="46.29055" lon="-0.5">
        <ele>15.394785</ele>
        <time>2013-08-29T10:26:08Z</time>
      </trkpt>
      <trkpt lat="46.29057" lon="-0.50004">
        <ele>15.394785</ele>
        <time>2013-08-29T10:26:13Z</time>
      </trkpt>
      <trkpt lat="46.29061" lon="-0.50006">
        <ele>15.394785</ele>
        <time>2013-08-29T10:26:18Z</time>
      </trkpt>
      <trkpt lat="46.29066" lon="-0.50009">
        <ele>15.445033</ele>
        <time>2013-08-29T10:26:23Z</time>
      </trkpt>
      <trkpt lat="46.29071" lon="-0.50013">
        <ele>15.445033</ele>
        <time>2013-08-29T10:26:28Z</time>
      </trkpt>
      <trkpt lat="46.29075" lon="-0.50016">
        <ele>15.669381</ele>
        <time>2013-08-29T10:26:33Z</time>
      </trkpt>
      <trkpt lat="46.29079" lon="-0.5002">
        <ele>15.669381</ele>
        <time>2013-08-29T10:26:38Z</time>
      </trkpt>
      <trkpt lat="46.29083" lon="-0.50024">
        <ele>15.86674</ele>
        <time>2013-08-29T10:26:43Z</time>
      </trkpt>
      <trkpt lat="46.29088" lon="-0.50029">
        <ele>15.86674</ele>
        <time>2013-08-29T10:26:48Z</time>
      </trkpt>
      <trkpt lat="46.29092" lon="-0.50035">
        <ele>16.052635</ele>
        <time>2013-08-29T10:26:53Z</time>
      </trkpt>
      <trkpt lat="46.29095" lon="-0.50038">
        <ele>16.052635</ele>
        <time>2013-08-29T10:26:58Z</time>
      </trkpt>
      <trkpt lat="46.291" lon="-0.50042">
        <ele>16.052635</ele>
        <time>2013-08-29T10:27:03Z</time>
      </trkpt>
      <trkpt lat="46.29103" lon="-0.50045">
        <ele>16.21268</ele>
        <time>2013-08-29T10:27:08Z</time>
      </trkpt>
      <trkpt lat="46.29108" lon="-0.50049">
        <ele>16.21268</ele>
        <time>2013-08-29T10:27:13Z</time>
      </trkpt>
      <trkpt lat="46.29111" lon="-0.50053">
        <ele>16.434507</ele>
        <time>2013-08-29T10:27:18Z</time>
      </trkpt>
      <trkpt lat="46.29114" lon="-0.50059">
        <ele>16.434507</ele>
        <time>2013-08-29T10:27:23Z</time>
      </trkpt>
      <trkpt lat="46.29117" lon="-0.50061">
        <ele>16.434507</ele>
        <time>2013-08-29T10:27:28Z</time>
      </trkpt>
      <trkpt lat="46.29121" lon="-0.50067">
        <ele>16.957682</ele>
        <time>2013-08-29T10:27:33Z</time>
      </trkpt>
      <trkpt lat="46.29124" lon="-0.50074">
        <ele>16.957682</ele>
        <time>2013-08-29T10:27:38Z</time>
      </trkpt>
      <trkpt lat="46.29128" lon="-0.50081">
        <ele>17.153086</ele>
        <time>2013-08-29T10:27:43Z</time>
      </trkpt>
      <trkpt lat="46.29132" lon="-0.50086">
        <ele>17.153086</ele>
        <time>2013-08-29T10:27:48Z</time>
      </trkpt>
      <trkpt lat="46.29134" lon="-0.50092">
        <ele>17.332247</ele>
        <time>2013-08-29T10:27:53Z</time>
      </trkpt>
      <trkpt lat="46.29137" lon="-0.50098">
        <ele>17.332247</ele>
        <time>2013-08-29T10:27:58Z</time>
      </trkpt>
      <trkpt lat="46.29139" lon="-0.50103">
        <ele>17.193022</ele>
        <time>2013-08-29T10:28:03Z</time>
      </trkpt>
      <trkpt lat="46.29143" lon="-0.50108">
        <ele>17.193022</ele>
        <time>2013-08-29T10:28:08Z</time>
      </trkpt>
      <trkpt lat="46.29145" lon="-0.50114">
        <ele>16.91753</ele>
        <time>2013-08-29T10:28:13Z</time>
      </trkpt>
      <trkpt lat="46.29148" lon="-0.50119">
        <ele>16.91753</ele>
        <time>2013-08-29T10:28:18Z</time>
      </trkpt>
      <trkpt lat="46.29151" lon="-0.50126">
        <ele>16.862259</ele>
        <time>2013-08-29T10:28:23Z</time>
      </trkpt>
      <trkpt lat="46.29153" lon="-0.50132">
        <ele>16.862259</ele>
        <time>2013-08-29T10:28:28Z</time>
      </trkpt>
      <trkpt lat="46.29154" lon="-0.50139">
        <ele>17.054281</ele>
        <time>2013-08-29T10:28:33Z</time>
      </trkpt>
      <trkpt lat="46.29156" lon="-0.50144">
        <ele>17.054281</ele>
        <time>2013-08-29T10:28:38Z</time>
      </trkpt>
      <trkpt lat="46.29159" lon="-0.5015">
        <ele>16.739796</ele>
        <time>2013-08-29T10:28:43Z</time>
      </trkpt>
      <trkpt lat="46.2916" lon="-0.50156">
        <ele>16.739796</ele>
        <time>2013-08-29T10:28:48Z</time>
      </trkpt>
      <trkpt lat="46.2916" lon="-0.50161">
        <ele>16.739796</ele>
        <time>2013-08-29T10:28:53Z</time>
      </trkpt>
      <trkpt lat="46.29162" lon="-0.50165">
        <ele>17.354668</ele>
        <time>2013-08-29T10:28:58Z</time>
      </trkpt>
      <trkpt lat="46.29163" lon="-0.50167">
        <ele>17.354668</ele>
        <time>2013-08-29T10:29:03Z</time>
      </trkpt>
      <trkpt lat="46.29166" lon="-0.50173">
        <ele>17.354668</ele>
        <time>2013-08-29T10:29:08Z</time>
      </trkpt>
      <trkpt lat="46.29167" lon="-0.50178">
        <ele>17.45975</ele>
        <time>2013-08-29T10:29:13Z</time>
      </trkpt>
      <trkpt lat="46.29168" lon="-0.5018">
        <ele>17.45975</ele>
        <time>2013-08-29T10:29:18Z</time>
      </trkpt>
      <trkpt lat="46.29171" lon="-0.50184">
        <ele>17.45975</ele>
        <time>2013-08-29T10:29:23Z</time>
      </trkpt>
      <trkpt lat="46.29173" lon="-0.50186">
        <ele>17.45975</ele>
        <time>2013-08-29T10:29:28Z</time>
      </trkpt>
      <trkpt lat="46.29176" lon="-0.50189">
        <ele>17.553274</ele>
        <time>2013-08-29T10:29:33Z</time>
      </trkpt>
      <trkpt lat="46.29183" lon="-0.50198">
        <ele>17.794296</ele>
        <time>2013-08-29T10:29:43Z</time>
      </trkpt>
      <trkpt lat="46.29185" lon="-0.50205">
        <ele>17.794296</ele>
        <time>2013-08-29T10:29:48Z</time>
      </trkpt>
      <trkpt lat="46.29188" lon="-0.50209">
        <ele>18.286547</ele>
        <time>2013-08-29T10:29:53Z</time>
      </trkpt>
      <trkpt lat="46.29192" lon="-0.50212">
        <ele>18.286547</ele>
        <time>2013-08-29T10:29:58Z</time>
      </trkpt>
      <trkpt lat="46.29197" lon="-0.50215">
        <ele>18.44814</ele>
        <time>2013-08-29T10:30:03Z</time>
      </trkpt>
      <trkpt lat="46.29201" lon="-0.50215">
        <ele>18.44814</ele>
        <time>2013-08-29T10:30:08Z</time>
      </trkpt>
      <trkpt lat="46.29205" lon="-0.50215">
        <ele>18.44814</ele>
        <time>2013-08-29T10:30:13Z</time>
      </trkpt>
      <trkpt lat="46.29212" lon="-0.50215">
        <ele>19.03787</ele>
        <time>2013-08-29T10:30:18Z</time>
      </trkpt>
      <trkpt lat="46.29216" lon="-0.50215">
        <ele>19.03787</ele>
        <time>2013-08-29T10:30:23Z</time>
      </trkpt>
      <trkpt lat="46.29221" lon="-0.50216">
        <ele>19.907372</ele>
        <time>2013-08-29T10:30:28Z</time>
      </trkpt>
      <trkpt lat="46.29225" lon="-0.50216">
        <ele>19.907372</ele>
        <time>2013-08-29T10:30:33Z</time>
      </trkpt>
      <trkpt lat="46.2923" lon="-0.50215">
        <ele>20.630182</ele>
        <time>2013-08-29T10:30:38Z</time>
      </trkpt>
      <trkpt lat="46.29234" lon="-0.50216">
        <ele>20.630182</ele>
        <time>2013-08-29T10:30:43Z</time>
      </trkpt>
      <trkpt lat="46.2924" lon="-0.5022">
        <ele>21.215128</ele>
        <time>2013-08-29T10:30:48Z</time>
      </trkpt>
      <trkpt lat="46.29245" lon="-0.50219">
        <ele>21.215128</ele>
        <time>2013-08-29T10:30:53Z</time>
      </trkpt>
      <trkpt lat="46.29249" lon="-0.50221">
        <ele>21.324934</ele>
        <time>2013-08-29T10:30:58Z</time>
      </trkpt>
      <trkpt lat="46.29252" lon="-0.50221">
        <ele>21.324934</ele>
        <time>2013-08-29T10:31:03Z</time>
      </trkpt>
      <trkpt lat="46.29259" lon="-0.5022">
        <ele>21.311378</ele>
        <time>2013-08-29T10:31:08Z</time>
      </trkpt>
      <trkpt lat="46.29264" lon="-0.50222">
        <ele>21.311378</ele>
        <time>2013-08-29T10:31:13Z</time>
      </trkpt>
      <trkpt lat="46.2927" lon="-0.50223">
        <ele>21.371077</ele>
        <time>2013-08-29T10:31:18Z</time>
      </trkpt>
      <trkpt lat="46.29274" lon="-0.50225">
        <ele>21.371077</ele>
        <time>2013-08-29T10:31:23Z</time>
      </trkpt>
      <trkpt lat="46.29278" lon="-0.50225">
        <ele>21.371077</ele>
        <time>2013-08-29T10:31:28Z</time>
      </trkpt>
      <trkpt lat="46.29284" lon="-0.50229">
        <ele>21.239279</ele>
        <time>2013-08-29T10:31:33Z</time>
      </trkpt>
      <trkpt lat="46.29291" lon="-0.50231">
        <ele>21.239279</ele>
        <time>2013-08-29T10:31:38Z</time>
      </trkpt>
      <trkpt lat="46.29295" lon="-0.5023">
        <ele>21.089172</ele>
        <time>2013-08-29T10:31:43Z</time>
      </trkpt>
      <trkpt lat="46.29301" lon="-0.50233">
        <ele>21.089172</ele>
        <time>2013-08-29T10:31:48Z</time>
      </trkpt>
      <trkpt lat="46.29305" lon="-0.50233">
        <ele>21.066883</ele>
        <time>2013-08-29T10:31:53Z</time>
      </trkpt>
      <trkpt lat="46.29309" lon="-0.50232">
        <ele>21.066883</ele>
        <time>2013-08-29T10:31:58Z</time>
      </trkpt>
      <trkpt lat="46.29315" lon="-0.50232">
        <ele>21.163359</ele>
        <time>2013-08-29T10:32:03Z</time>
      </trkpt>
      <trkpt lat="46.29318" lon="-0.50238">
        <ele>21.163359</ele>
        <time>2013-08-29T10:32:08Z</time>
      </trkpt>
      <trkpt lat="46.29319" lon="-0.50242">
        <ele>21.163359</ele>
        <time>2013-08-29T10:32:13Z</time>
      </trkpt>
      <trkpt lat="46.29324" lon="-0.50242">
        <ele>21.586058</ele>
        <time>2013-08-29T10:32:18Z</time>
      </trkpt>
      <trkpt lat="46.29328" lon="-0.50242">
        <ele>21.586058</ele>
        <time>2013-08-29T10:32:23Z</time>
      </trkpt>
      <trkpt lat="46.2933" lon="-0.50248">
        <ele>21.586058</ele>
        <time>2013-08-29T10:32:28Z</time>
      </trkpt>
      <trkpt lat="46.29334" lon="-0.50254">
        <ele>22.007507</ele>
        <time>2013-08-29T10:32:33Z</time>
      </trkpt>
      <trkpt lat="46.29337" lon="-0.50259">
        <ele>22.007507</ele>
        <time>2013-08-29T10:32:38Z</time>
      </trkpt>
      <trkpt lat="46.29343" lon="-0.50268">
        <ele>22.196362</ele>
        <time>2013-08-29T10:32:43Z</time>
      </trkpt>
      <trkpt lat="46.29348" lon="-0.50275">
        <ele>22.196362</ele>
        <time>2013-08-29T10:32:48Z</time>
      </trkpt>
      <trkpt lat="46.29354" lon="-0.5028">
        <ele>22.183931</ele>
        <time>2013-08-29T10:32:53Z</time>
      </trkpt>
      <trkpt lat="46.29356" lon="-0.50283">
        <ele>22.183931</ele>
        <time>2013-08-29T10:32:58Z</time>
      </trkpt>
      <trkpt lat="46.29359" lon="-0.50287">
        <ele>22.183931</ele>
        <time>2013-08-29T10:33:03Z</time>
      </trkpt>
      <trkpt lat="46.29363" lon="-0.50292">
        <ele>22.04304</ele>
        <time>2013-08-29T10:33:08Z</time>
      </trkpt>
      <trkpt lat="46.29368" lon="-0.50298">
        <ele>22.04304</ele>
        <time>2013-08-29T10:33:13Z</time>
      </trkpt>
      <trkpt lat="46.29369" lon="-0.50303">
        <ele>21.76948</ele>
        <time>2013-08-29T10:33:18Z</time>
      </trkpt>
      <trkpt lat="46.29374" lon="-0.5031">
        <ele>21.76948</ele>
        <time>2013-08-29T10:33:23Z</time>
      </trkpt>
      <trkpt lat="46.29376" lon="-0.50313">
        <ele>21.66237</ele>
        <time>2013-08-29T10:33:28Z</time>
      </trkpt>
      <trkpt lat="46.29377" lon="-0.50316">
        <ele>21.66237</ele>
        <time>2013-08-29T10:33:33Z</time>
      </trkpt>
      <trkpt lat="46.29381" lon="-0.50322">
        <ele>21.66237</ele>
        <time>2013-08-29T10:33:38Z</time>
      </trkpt>
      <trkpt lat="46.29385" lon="-0.50327">
        <ele>21.666946</ele>
        <time>2013-08-29T10:33:43Z</time>
      </trkpt>
      <trkpt lat="46.2939" lon="-0.50332">
        <ele>21.666946</ele>
        <time>2013-08-29T10:33:48Z</time>
      </trkpt>
      <trkpt lat="46.29391" lon="-0.50336">
        <ele>21.666946</ele>
        <time>2013-08-29T10:33:53Z</time>
      </trkpt>
      <trkpt lat="46.29395" lon="-0.50338">
        <ele>21.544806</ele>
        <time>2013-08-29T10:33:58Z</time>
      </trkpt>
      <trkpt lat="46.29397" lon="-0.50343">
        <ele>21.544806</ele>
        <time>2013-08-29T10:34:03Z</time>
      </trkpt>
      <trkpt lat="46.29398" lon="-0.5035">
        <ele>21.478937</ele>
        <time>2013-08-29T10:34:08Z</time>
      </trkpt>
      <trkpt lat="46.294" lon="-0.50351">
        <ele>21.478937</ele>
        <time>2013-08-29T10:34:13Z</time>
      </trkpt>
      <trkpt lat="46.29399" lon="-0.50352">
        <ele>21.478937</ele>
        <time>2013-08-29T10:34:18Z</time>
      </trkpt>
      <trkpt lat="46.29401" lon="-0.50354">
        <ele>21.478937</ele>
        <time>2013-08-29T10:34:33Z</time>
      </trkpt>
      <trkpt lat="46.29403" lon="-0.5036">
        <ele>21.478937</ele>
        <time>2013-08-29T10:34:38Z</time>
      </trkpt>
      <trkpt lat="46.29406" lon="-0.50364">
        <ele>22.258404</ele>
        <time>2013-08-29T10:34:43Z</time>
      </trkpt>
      <trkpt lat="46.29407" lon="-0.50366">
        <ele>22.258404</ele>
        <time>2013-08-29T10:34:48Z</time>
      </trkpt>
      <trkpt lat="46.29411" lon="-0.50369">
        <ele>22.258404</ele>
        <time>2013-08-29T10:34:53Z</time>
      </trkpt>
      <trkpt lat="46.29413" lon="-0.50369">
        <ele>22.258404</ele>
        <time>2013-08-29T10:34:58Z</time>
      </trkpt>
      <trkpt lat="46.29414" lon="-0.50369">
        <ele>23.617573</ele>
        <time>2013-08-29T10:35:03Z</time>
      </trkpt>
      <trkpt lat="46.29415" lon="-0.50369">
        <ele>23.617573</ele>
        <time>2013-08-29T10:35:08Z</time>
      </trkpt>
      <trkpt lat="46.29418" lon="-0.50371">
        <ele>23.617573</ele>
        <time>2013-08-29T10:35:13Z</time>
      </trkpt>
      <trkpt lat="46.29426" lon="-0.5038">
        <ele>24.429625</ele>
        <time>2013-08-29T10:35:18Z</time>
      </trkpt>
      <trkpt lat="46.29434" lon="-0.50383">
        <ele>24.429625</ele>
        <time>2013-08-29T10:35:23Z</time>
      </trkpt>
      <trkpt lat="46.29439" lon="-0.50388">
        <ele>25.122002</ele>
        <time>2013-08-29T10:35:28Z</time>
      </trkpt>
      <trkpt lat="46.29442" lon="-0.5039">
        <ele>25.122002</ele>
        <time>2013-08-29T10:35:33Z</time>
      </trkpt>
      <trkpt lat="46.29447" lon="-0.50395">
        <ele>26.04786</ele>
        <time>2013-08-29T10:35:38Z</time>
      </trkpt>
      <trkpt lat="46.29454" lon="-0.50402">
        <ele>26.04786</ele>
        <time>2013-08-29T10:35:43Z</time>
      </trkpt>
      <trkpt lat="46.29456" lon="-0.50406">
        <ele>26.611471</ele>
        <time>2013-08-29T10:35:48Z</time>
      </trkpt>
      <trkpt lat="46.29457" lon="-0.50406">
        <ele>26.611471</ele>
        <time>2013-08-29T10:35:53Z</time>
      </trkpt>
      <trkpt lat="46.29462" lon="-0.5041">
        <ele>26.611471</ele>
        <time>2013-08-29T10:35:58Z</time>
      </trkpt>
      <trkpt lat="46.29465" lon="-0.50417">
        <ele>27.16981</ele>
        <time>2013-08-29T10:36:03Z</time>
      </trkpt>
      <trkpt lat="46.29469" lon="-0.50422">
        <ele>27.16981</ele>
        <time>2013-08-29T10:36:08Z</time>
      </trkpt>
      <trkpt lat="46.29471" lon="-0.50423">
        <ele>27.16981</ele>
        <time>2013-08-29T10:36:13Z</time>
      </trkpt>
      <trkpt lat="46.29477" lon="-0.5043">
        <ele>27.52046</ele>
        <time>2013-08-29T10:36:18Z</time>
      </trkpt>
      <trkpt lat="46.29484" lon="-0.50437">
        <ele>27.52046</ele>
        <time>2013-08-29T10:36:23Z</time>
      </trkpt>
      <trkpt lat="46.29485" lon="-0.50443">
        <ele>26.669458</ele>
        <time>2013-08-29T10:36:28Z</time>
      </trkpt>
      <trkpt lat="46.29493" lon="-0.50451">
        <ele>25.904152</ele>
        <time>2013-08-29T10:36:33Z</time>
      </trkpt>
      <trkpt lat="46.29498" lon="-0.50457">
        <ele>25.904152</ele>
        <time>2013-08-29T10:36:38Z</time>
      </trkpt>
      <trkpt lat="46.29501" lon="-0.5046">
        <ele>25.033628</ele>
        <time>2013-08-29T10:36:43Z</time>
      </trkpt>
      <trkpt lat="46.29505" lon="-0.50465">
        <ele>25.033628</ele>
        <time>2013-08-29T10:36:48Z</time>
      </trkpt>
      <trkpt lat="46.2951" lon="-0.50468">
        <ele>24.529806</ele>
        <time>2013-08-29T10:36:53Z</time>
      </trkpt>
      <trkpt lat="46.29516" lon="-0.50465">
        <ele>24.529806</ele>
        <time>2013-08-29T10:36:58Z</time>
      </trkpt>
      <trkpt lat="46.2952" lon="-0.50467">
        <ele>24.007471</ele>
        <time>2013-08-29T10:37:03Z</time>
      </trkpt>
      <trkpt lat="46.29525" lon="-0.50473">
        <ele>24.007471</ele>
        <time>2013-08-29T10:37:08Z</time>
      </trkpt>
      <trkpt lat="46.29529" lon="-0.50477">
        <ele>23.6862</ele>
        <time>2013-08-29T10:37:13Z</time>
      </trkpt>
      <trkpt lat="46.29531" lon="-0.50478">
        <ele>23.6862</ele>
        <time>2013-08-29T10:37:18Z</time>
      </trkpt>
      <trkpt lat="46.29536" lon="-0.50481">
        <ele>23.6862</ele>
        <time>2013-08-29T10:37:23Z</time>
      </trkpt>
      <trkpt lat="46.29538" lon="-0.50484">
        <ele>23.495045</ele>
        <time>2013-08-29T10:37:28Z</time>
      </trkpt>
      <trkpt lat="46.29541" lon="-0.50484">
        <ele>23.495045</ele>
        <time>2013-08-29T10:37:33Z</time>
      </trkpt>
      <trkpt lat="46.29542" lon="-0.50484">
        <ele>23.495045</ele>
        <time>2013-08-29T10:37:38Z</time>
      </trkpt>
      <trkpt lat="46.29542" lon="-0.50485">
        <ele>23.495045</ele>
        <time>2013-08-29T10:37:43Z</time>
      </trkpt>
      <trkpt lat="46.29542" lon="-0.50486">
        <ele>23.495045</ele>
        <time>2013-08-29T10:37:48Z</time>
      </trkpt>
      <trkpt lat="46.29543" lon="-0.50487">
        <ele>23.495045</ele>
        <time>2013-08-29T10:37:53Z</time>
      </trkpt>
      <trkpt lat="46.29547" lon="-0.5049">
        <ele>23.42554</ele>
        <time>2013-08-29T10:37:58Z</time>
      </trkpt>
      <trkpt lat="46.29551" lon="-0.50492">
        <ele>23.42554</ele>
        <time>2013-08-29T10:38:03Z</time>
      </trkpt>
      <trkpt lat="46.29553" lon="-0.50494">
        <ele>23.42554</ele>
        <time>2013-08-29T10:38:08Z</time>
      </trkpt>
      <trkpt lat="46.2956" lon="-0.505">
        <ele>23.71447</ele>
        <time>2013-08-29T10:38:13Z</time>
      </trkpt>
      <trkpt lat="46.29565" lon="-0.50504">
        <ele>23.71447</ele>
        <time>2013-08-29T10:38:18Z</time>
      </trkpt>
      <trkpt lat="46.29569" lon="-0.50506">
        <ele>23.686712</ele>
        <time>2013-08-29T10:38:23Z</time>
      </trkpt>
      <trkpt lat="46.29574" lon="-0.50509">
        <ele>23.686712</ele>
        <time>2013-08-29T10:38:28Z</time>
      </trkpt>
      <trkpt lat="46.29579" lon="-0.50512">
        <ele>23.711971</ele>
        <time>2013-08-29T10:38:33Z</time>
      </trkpt>
      <trkpt lat="46.29583" lon="-0.50514">
        <ele>23.711971</ele>
        <time>2013-08-29T10:38:38Z</time>
      </trkpt>
      <trkpt lat="46.29587" lon="-0.50517">
        <ele>23.711971</ele>
        <time>2013-08-29T10:38:43Z</time>
      </trkpt>
      <trkpt lat="46.2959" lon="-0.5052">
        <ele>24.06058</ele>
        <time>2013-08-29T10:38:48Z</time>
      </trkpt>
      <trkpt lat="46.29595" lon="-0.50519">
        <ele>24.06058</ele>
        <time>2013-08-29T10:38:53Z</time>
      </trkpt>
      <trkpt lat="46.29597" lon="-0.50522">
        <ele>24.06058</ele>
        <time>2013-08-29T10:38:58Z</time>
      </trkpt>
      <trkpt lat="46.29603" lon="-0.50523">
        <ele>24.751501</ele>
        <time>2013-08-29T10:39:03Z</time>
      </trkpt>
      <trkpt lat="46.29606" lon="-0.50526">
        <ele>24.751501</ele>
        <time>2013-08-29T10:39:08Z</time>
      </trkpt>
      <trkpt lat="46.29612" lon="-0.50526">
        <ele>25.268127</ele>
        <time>2013-08-29T10:39:13Z</time>
      </trkpt>
      <trkpt lat="46.29616" lon="-0.50527">
        <ele>25.268127</ele>
        <time>2013-08-29T10:39:18Z</time>
      </trkpt>
      <trkpt lat="46.29624" lon="-0.5053">
        <ele>25.751959</ele>
        <time>2013-08-29T10:39:23Z</time>
      </trkpt>
      <trkpt lat="46.29631" lon="-0.50533">
        <ele>25.751959</ele>
        <time>2013-08-29T10:39:28Z</time>
      </trkpt>
      <trkpt lat="46.29639" lon="-0.50536">
        <ele>25.671268</ele>
        <time>2013-08-29T10:39:33Z</time>
      </trkpt>
      <trkpt lat="46.29642" lon="-0.50539">
        <ele>25.671268</ele>
        <time>2013-08-29T10:39:38Z</time>
      </trkpt>
      <trkpt lat="46.29647" lon="-0.50542">
        <ele>25.671268</ele>
        <time>2013-08-29T10:39:43Z</time>
      </trkpt>
      <trkpt lat="46.29653" lon="-0.50541">
        <ele>25.169064</ele>
        <time>2013-08-29T10:39:48Z</time>
      </trkpt>
      <trkpt lat="46.29658" lon="-0.50541">
        <ele>25.169064</ele>
        <time>2013-08-29T10:39:53Z</time>
      </trkpt>
      <trkpt lat="46.29663" lon="-0.50544">
        <ele>24.32137</ele>
        <time>2013-08-29T10:39:58Z</time>
      </trkpt>
      <trkpt lat="46.29668" lon="-0.50544">
        <ele>24.32137</ele>
        <time>2013-08-29T10:40:03Z</time>
      </trkpt>
      <trkpt lat="46.29671" lon="-0.50546">
        <ele>24.32137</ele>
        <time>2013-08-29T10:40:08Z</time>
      </trkpt>
      <trkpt lat="46.29674" lon="-0.50548">
        <ele>23.675158</ele>
        <time>2013-08-29T10:40:13Z</time>
      </trkpt>
      <trkpt lat="46.29678" lon="-0.5055">
        <ele>23.675158</ele>
        <time>2013-08-29T10:40:18Z</time>
      </trkpt>
      <trkpt lat="46.29683" lon="-0.50553">
        <ele>22.88638</ele>
        <time>2013-08-29T10:40:23Z</time>
      </trkpt>
      <trkpt lat="46.29685" lon="-0.50555">
        <ele>22.88638</ele>
        <time>2013-08-29T10:40:28Z</time>
      </trkpt>
      <trkpt lat="46.29685" lon="-0.50556">
        <ele>22.88638</ele>
        <time>2013-08-29T10:40:33Z</time>
      </trkpt>
      <trkpt lat="46.29685" lon="-0.50557">
        <ele>22.88638</ele>
        <time>2013-08-29T10:40:38Z</time>
      </trkpt>
      <trkpt lat="46.29685" lon="-0.50563">
        <ele>22.270727</ele>
        <time>2013-08-29T10:40:53Z</time>
      </trkpt>
      <trkpt lat="46.29687" lon="-0.50566">
        <ele>22.270727</ele>
        <time>2013-08-29T10:40:58Z</time>
      </trkpt>
      <trkpt lat="46.29691" lon="-0.5057">
        <ele>22.270727</ele>
        <time>2013-08-29T10:41:03Z</time>
      </trkpt>
      <trkpt lat="46.29693" lon="-0.50576">
        <ele>21.932846</ele>
        <time>2013-08-29T10:41:08Z</time>
      </trkpt>
      <trkpt lat="46.29696" lon="-0.50581">
        <ele>21.932846</ele>
        <time>2013-08-29T10:41:13Z</time>
      </trkpt>
      <trkpt lat="46.29699" lon="-0.50585">
        <ele>21.932846</ele>
        <time>2013-08-29T10:41:18Z</time>
      </trkpt>
      <trkpt lat="46.29703" lon="-0.5059">
        <ele>21.868006</ele>
        <time>2013-08-29T10:41:23Z</time>
      </trkpt>
      <trkpt lat="46.29704" lon="-0.50595">
        <ele>21.868006</ele>
        <time>2013-08-29T10:41:28Z</time>
      </trkpt>
      <trkpt lat="46.29707" lon="-0.50601">
        <ele>21.868006</ele>
        <time>2013-08-29T10:41:33Z</time>
      </trkpt>
      <trkpt lat="46.29709" lon="-0.50607">
        <ele>22.056612</ele>
        <time>2013-08-29T10:41:38Z</time>
      </trkpt>
      <trkpt lat="46.29711" lon="-0.50611">
        <ele>22.056612</ele>
        <time>2013-08-29T10:41:43Z</time>
      </trkpt>
      <trkpt lat="46.29713" lon="-0.50617">
        <ele>22.056612</ele>
        <time>2013-08-29T10:41:48Z</time>
      </trkpt>
      <trkpt lat="46.29716" lon="-0.50621">
        <ele>22.335663</ele>
        <time>2013-08-29T10:41:53Z</time>
      </trkpt>
      <trkpt lat="46.29718" lon="-0.50628">
        <ele>22.335663</ele>
        <time>2013-08-29T10:41:58Z</time>
      </trkpt>
      <trkpt lat="46.2972" lon="-0.50634">
        <ele>22.798832</ele>
        <time>2013-08-29T10:42:03Z</time>
      </trkpt>
      <trkpt lat="46.29721" lon="-0.50641">
        <ele>22.798832</ele>
        <time>2013-08-29T10:42:08Z</time>
      </trkpt>
      <trkpt lat="46.29723" lon="-0.50648">
        <ele>23.35944</ele>
        <time>2013-08-29T10:42:13Z</time>
      </trkpt>
      <trkpt lat="46.29725" lon="-0.50653">
        <ele>23.35944</ele>
        <time>2013-08-29T10:42:18Z</time>
      </trkpt>
      <trkpt lat="46.29725" lon="-0.50655">
        <ele>23.35944</ele>
        <time>2013-08-29T10:42:23Z</time>
      </trkpt>
      <trkpt lat="46.29725" lon="-0.5066">
        <ele>23.35944</ele>
        <time>2013-08-29T10:42:28Z</time>
      </trkpt>
      <trkpt lat="46.29728" lon="-0.50666">
        <ele>23.619835</ele>
        <time>2013-08-29T10:42:33Z</time>
      </trkpt>
      <trkpt lat="46.29731" lon="-0.50672">
        <ele>23.619835</ele>
        <time>2013-08-29T10:42:38Z</time>
      </trkpt>
      <trkpt lat="46.29732" lon="-0.50678">
        <ele>23.961782</ele>
        <time>2013-08-29T10:42:43Z</time>
      </trkpt>
      <trkpt lat="46.29734" lon="-0.50685">
        <ele>23.961782</ele>
        <time>2013-08-29T10:42:48Z</time>
      </trkpt>
      <trkpt lat="46.29736" lon="-0.50692">
        <ele>24.594648</ele>
        <time>2013-08-29T10:42:53Z</time>
      </trkpt>
      <trkpt lat="46.29736" lon="-0.507">
        <ele>24.594648</ele>
        <time>2013-08-29T10:42:58Z</time>
      </trkpt>
      <trkpt lat="46.29737" lon="-0.50706">
        <ele>25.351324</ele>
        <time>2013-08-29T10:43:03Z</time>
      </trkpt>
      <trkpt lat="46.2974" lon="-0.50712">
        <ele>25.351324</ele>
        <time>2013-08-29T10:43:08Z</time>
      </trkpt>
      <trkpt lat="46.29743" lon="-0.50719">
        <ele>25.226366</ele>
        <time>2013-08-29T10:43:13Z</time>
      </trkpt>
      <trkpt lat="46.29744" lon="-0.50726">
        <ele>25.226366</ele>
        <time>2013-08-29T10:43:18Z</time>
      </trkpt>
      <trkpt lat="46.29747" lon="-0.50734">
        <ele>25.178518</ele>
        <time>2013-08-29T10:43:23Z</time>
      </trkpt>
      <trkpt lat="46.29748" lon="-0.50743">
        <ele>25.178518</ele>
        <time>2013-08-29T10:43:28Z</time>
      </trkpt>
      <trkpt lat="46.29748" lon="-0.50749">
        <ele>25.087105</ele>
        <time>2013-08-29T10:43:33Z</time>
      </trkpt>
      <trkpt lat="46.2975" lon="-0.50754">
        <ele>25.087105</ele>
        <time>2013-08-29T10:43:38Z</time>
      </trkpt>
      <trkpt lat="46.2975" lon="-0.50761">
        <ele>25.087105</ele>
        <time>2013-08-29T10:43:43Z</time>
      </trkpt>
      <trkpt lat="46.29751" lon="-0.50767">
        <ele>25.51776</ele>
        <time>2013-08-29T10:43:48Z</time>
      </trkpt>
      <trkpt lat="46.29755" lon="-0.50774">
        <ele>25.51776</ele>
        <time>2013-08-29T10:43:53Z</time>
      </trkpt>
      <trkpt lat="46.29756" lon="-0.5078">
        <ele>25.955502</ele>
        <time>2013-08-29T10:43:58Z</time>
      </trkpt>
      <trkpt lat="46.29756" lon="-0.50785">
        <ele>25.955502</ele>
        <time>2013-08-29T10:44:03Z</time>
      </trkpt>
      <trkpt lat="46.29759" lon="-0.50792">
        <ele>25.955502</ele>
        <time>2013-08-29T10:44:08Z</time>
      </trkpt>
      <trkpt lat="46.29759" lon="-0.50799">
        <ele>26.78783</ele>
        <time>2013-08-29T10:44:13Z</time>
      </trkpt>
      <trkpt lat="46.2976" lon="-0.50806">
        <ele>26.78783</ele>
        <time>2013-08-29T10:44:18Z</time>
      </trkpt>
      <trkpt lat="46.29761" lon="-0.50814">
        <ele>26.945984</ele>
        <time>2013-08-29T10:44:23Z</time>
      </trkpt>
      <trkpt lat="46.29764" lon="-0.50821">
        <ele>26.945984</ele>
        <time>2013-08-29T10:44:28Z</time>
      </trkpt>
      <trkpt lat="46.29766" lon="-0.50828">
        <ele>26.79625</ele>
        <time>2013-08-29T10:44:33Z</time>
      </trkpt>
      <trkpt lat="46.29768" lon="-0.50834">
        <ele>26.79625</ele>
        <time>2013-08-29T10:44:38Z</time>
      </trkpt>
      <trkpt lat="46.29773" lon="-0.50842">
        <ele>26.39066</ele>
        <time>2013-08-29T10:44:43Z</time>
      </trkpt>
      <trkpt lat="46.29774" lon="-0.5085">
        <ele>26.39066</ele>
        <time>2013-08-29T10:44:48Z</time>
      </trkpt>
      <trkpt lat="46.29777" lon="-0.50854">
        <ele>26.15284</ele>
        <time>2013-08-29T10:44:53Z</time>
      </trkpt>
      <trkpt lat="46.29777" lon="-0.50861">
        <ele>26.15284</ele>
        <time>2013-08-29T10:44:58Z</time>
      </trkpt>
      <trkpt lat="46.29779" lon="-0.50869">
        <ele>25.941622</ele>
        <time>2013-08-29T10:45:03Z</time>
      </trkpt>
      <trkpt lat="46.29781" lon="-0.50874">
        <ele>25.941622</ele>
        <time>2013-08-29T10:45:08Z</time>
      </trkpt>
      <trkpt lat="46.29783" lon="-0.5088">
        <ele>26.01523</ele>
        <time>2013-08-29T10:45:13Z</time>
      </trkpt>
      <trkpt lat="46.29786" lon="-0.50887">
        <ele>26.01523</ele>
        <time>2013-08-29T10:45:18Z</time>
      </trkpt>
      <trkpt lat="46.29788" lon="-0.50893">
        <ele>25.574524</ele>
        <time>2013-08-29T10:45:23Z</time>
      </trkpt>
      <trkpt lat="46.2979" lon="-0.509">
        <ele>25.574524</ele>
        <time>2013-08-29T10:45:28Z</time>
      </trkpt>
      <trkpt lat="46.29792" lon="-0.50907">
        <ele>25.422499</ele>
        <time>2013-08-29T10:45:33Z</time>
      </trkpt>
      <trkpt lat="46.29793" lon="-0.50913">
        <ele>25.422499</ele>
        <time>2013-08-29T10:45:38Z</time>
      </trkpt>
      <trkpt lat="46.29794" lon="-0.50921">
        <ele>25.336798</ele>
        <time>2013-08-29T10:45:43Z</time>
      </trkpt>
      <trkpt lat="46.29798" lon="-0.50926">
        <ele>25.336798</ele>
        <time>2013-08-29T10:45:48Z</time>
      </trkpt>
      <trkpt lat="46.298" lon="-0.50931">
        <ele>25.759714</ele>
        <time>2013-08-29T10:45:53Z</time>
      </trkpt>
      <trkpt lat="46.29803" lon="-0.5094">
        <ele>25.759714</ele>
        <time>2013-08-29T10:45:58Z</time>
      </trkpt>
      <trkpt lat="46.29807" lon="-0.50943">
        <ele>26.148483</ele>
        <time>2013-08-29T10:46:03Z</time>
      </trkpt>
      <trkpt lat="46.29812" lon="-0.50941">
        <ele>26.148483</ele>
        <time>2013-08-29T10:46:08Z</time>
      </trkpt>
      <trkpt lat="46.29818" lon="-0.5094">
        <ele>26.562334</ele>
        <time>2013-08-29T10:46:13Z</time>
      </trkpt>
      <trkpt lat="46.29824" lon="-0.50935">
        <ele>26.562334</ele>
        <time>2013-08-29T10:46:18Z</time>
      </trkpt>
      <trkpt lat="46.2983" lon="-0.50931">
        <ele>27.185778</ele>
        <time>2013-08-29T10:46:23Z</time>
      </trkpt>
      <trkpt lat="46.29833" lon="-0.50929">
        <ele>27.185778</ele>
        <time>2013-08-29T10:46:29Z</time>
      </trkpt>
      <trkpt lat="46.29837" lon="-0.50925">
        <ele>27.185778</ele>
        <time>2013-08-29T10:46:33Z</time>
      </trkpt>
      <trkpt lat="46.2984" lon="-0.50923">
        <ele>27.699207</ele>
        <time>2013-08-29T10:46:38Z</time>
      </trkpt>
      <trkpt lat="46.29845" lon="-0.5092">
        <ele>27.699207</ele>
        <time>2013-08-29T10:46:43Z</time>
      </trkpt>
      <trkpt lat="46.29846" lon="-0.50919">
        <ele>27.699207</ele>
        <time>2013-08-29T10:46:48Z</time>
      </trkpt>
      <trkpt lat="46.29848" lon="-0.50922">
        <ele>27.850044</ele>
        <time>2013-08-29T10:46:53Z</time>
      </trkpt>
      <trkpt lat="46.29854" lon="-0.50917">
        <ele>27.850044</ele>
        <time>2013-08-29T10:46:58Z</time>
      </trkpt>
      <trkpt lat="46.29858" lon="-0.50913">
        <ele>27.679096</ele>
        <time>2013-08-29T10:47:03Z</time>
      </trkpt>
      <trkpt lat="46.29862" lon="-0.5091">
        <ele>27.679096</ele>
        <time>2013-08-29T10:47:08Z</time>
      </trkpt>
      <trkpt lat="46.29864" lon="-0.50909">
        <ele>27.679096</ele>
        <time>2013-08-29T10:47:13Z</time>
      </trkpt>
      <trkpt lat="46.29867" lon="-0.50907">
        <ele>27.614187</ele>
        <time>2013-08-29T10:47:18Z</time>
      </trkpt>
      <trkpt lat="46.2987" lon="-0.50903">
        <ele>27.614187</ele>
        <time>2013-08-29T10:47:23Z</time>
      </trkpt>
      <trkpt lat="46.29874" lon="-0.50899">
        <ele>27.561445</ele>
        <time>2013-08-29T10:47:28Z</time>
      </trkpt>
      <trkpt lat="46.29878" lon="-0.50898">
        <ele>27.561445</ele>
        <time>2013-08-29T10:47:33Z</time>
      </trkpt>
      <trkpt lat="46.29883" lon="-0.50895">
        <ele>27.7365</ele>
        <time>2013-08-29T10:47:38Z</time>
      </trkpt>
      <trkpt lat="46.29886" lon="-0.50894">
        <ele>27.7365</ele>
        <time>2013-08-29T10:47:43Z</time>
      </trkpt>
      <trkpt lat="46.29891" lon="-0.50894">
        <ele>27.7365</ele>
        <time>2013-08-29T10:47:48Z</time>
      </trkpt>
      <trkpt lat="46.29895" lon="-0.50895">
        <ele>27.617949</ele>
        <time>2013-08-29T10:47:53Z</time>
      </trkpt>
      <trkpt lat="46.29897" lon="-0.50898">
        <ele>27.617949</ele>
        <time>2013-08-29T10:47:58Z</time>
      </trkpt>
      <trkpt lat="46.299" lon="-0.50902">
        <ele>27.617949</ele>
        <time>2013-08-29T10:48:03Z</time>
      </trkpt>
      <trkpt lat="46.29903" lon="-0.50905">
        <ele>27.444078</ele>
        <time>2013-08-29T10:48:08Z</time>
      </trkpt>
      <trkpt lat="46.29903" lon="-0.50905">
        <ele>27.444078</ele>
        <time>2013-08-29T10:48:13Z</time>
      </trkpt>
      <trkpt lat="46.29906" lon="-0.50907">
        <ele>27.444078</ele>
        <time>2013-08-29T10:48:18Z</time>
      </trkpt>
      <trkpt lat="46.2991" lon="-0.50912">
        <ele>27.444078</ele>
        <time>2013-08-29T10:48:23Z</time>
      </trkpt>
      <trkpt lat="46.29912" lon="-0.50918">
        <ele>27.407001</ele>
        <time>2013-08-29T10:48:28Z</time>
      </trkpt>
      <trkpt lat="46.29914" lon="-0.50925">
        <ele>27.407001</ele>
        <time>2013-08-29T10:48:33Z</time>
      </trkpt>
      <trkpt lat="46.29917" lon="-0.50931">
        <ele>27.367296</ele>
        <time>2013-08-29T10:48:38Z</time>
      </trkpt>
      <trkpt lat="46.29919" lon="-0.50937">
        <ele>27.367296</ele>
        <time>2013-08-29T10:48:43Z</time>
      </trkpt>
      <trkpt lat="46.29923" lon="-0.50942">
        <ele>26.979616</ele>
        <time>2013-08-29T10:48:48Z</time>
      </trkpt>
      <trkpt lat="46.29926" lon="-0.50948">
        <ele>26.979616</ele>
        <time>2013-08-29T10:48:53Z</time>
      </trkpt>
      <trkpt lat="46.29929" lon="-0.50954">
        <ele>26.93374</ele>
        <time>2013-08-29T10:48:58Z</time>
      </trkpt>
      <trkpt lat="46.2993" lon="-0.50961">
        <ele>26.93374</ele>
        <time>2013-08-29T10:49:03Z</time>
      </trkpt>
      <trkpt lat="46.29932" lon="-0.50968">
        <ele>26.830214</ele>
        <time>2013-08-29T10:49:08Z</time>
      </trkpt>
      <trkpt lat="46.29934" lon="-0.50975">
        <ele>26.830214</ele>
        <time>2013-08-29T10:49:13Z</time>
      </trkpt>
      <trkpt lat="46.29936" lon="-0.5098">
        <ele>26.961988</ele>
        <time>2013-08-29T10:49:18Z</time>
      </trkpt>
      <trkpt lat="46.29939" lon="-0.50987">
        <ele>26.961988</ele>
        <time>2013-08-29T10:49:23Z</time>
      </trkpt>
      <trkpt lat="46.29942" lon="-0.50991">
        <ele>26.994568</ele>
        <time>2013-08-29T10:49:28Z</time>
      </trkpt>
      <trkpt lat="46.29943" lon="-0.50999">
        <ele>26.994568</ele>
        <time>2013-08-29T10:49:33Z</time>
      </trkpt>
      <trkpt lat="46.29948" lon="-0.51003">
        <ele>27.065039</ele>
        <time>2013-08-29T10:49:38Z</time>
      </trkpt>
      <trkpt lat="46.2995" lon="-0.51009">
        <ele>27.065039</ele>
        <time>2013-08-29T10:49:43Z</time>
      </trkpt>
      <trkpt lat="46.29952" lon="-0.51018">
        <ele>27.185024</ele>
        <time>2013-08-29T10:49:48Z</time>
      </trkpt>
      <trkpt lat="46.29955" lon="-0.51025">
        <ele>27.185024</ele>
        <time>2013-08-29T10:49:53Z</time>
      </trkpt>
      <trkpt lat="46.29958" lon="-0.51029">
        <ele>27.278677</ele>
        <time>2013-08-29T10:49:58Z</time>
      </trkpt>
      <trkpt lat="46.29961" lon="-0.51033">
        <ele>27.278677</ele>
        <time>2013-08-29T10:50:03Z</time>
      </trkpt>
      <trkpt lat="46.29964" lon="-0.51041">
        <ele>27.5496</ele>
        <time>2013-08-29T10:50:08Z</time>
      </trkpt>
      <trkpt lat="46.29965" lon="-0.51053">
        <ele>27.5496</ele>
        <time>2013-08-29T10:50:13Z</time>
      </trkpt>
      <trkpt lat="46.29968" lon="-0.51057">
        <ele>28.113894</ele>
        <time>2013-08-29T10:50:18Z</time>
      </trkpt>
      <trkpt lat="46.29973" lon="-0.5106">
        <ele>28.113894</ele>
        <time>2013-08-29T10:50:23Z</time>
      </trkpt>
      <trkpt lat="46.29976" lon="-0.51068">
        <ele>28.790073</ele>
        <time>2013-08-29T10:50:28Z</time>
      </trkpt>
      <trkpt lat="46.29979" lon="-0.5107">
        <ele>28.790073</ele>
        <time>2013-08-29T10:50:33Z</time>
      </trkpt>
      <trkpt lat="46.29983" lon="-0.51073">
        <ele>28.790073</ele>
        <time>2013-08-29T10:50:38Z</time>
      </trkpt>
      <trkpt lat="46.29987" lon="-0.51077">
        <ele>29.380861</ele>
        <time>2013-08-29T10:50:43Z</time>
      </trkpt>
      <trkpt lat="46.2999" lon="-0.51081">
        <ele>29.380861</ele>
        <time>2013-08-29T10:50:48Z</time>
      </trkpt>
      <trkpt lat="46.29993" lon="-0.51087">
        <ele>29.380861</ele>
        <time>2013-08-29T10:50:53Z</time>
      </trkpt>
      <trkpt lat="46.29995" lon="-0.51094">
        <ele>29.847824</ele>
        <time>2013-08-29T10:50:58Z</time>
      </trkpt>
      <trkpt lat="46.29996" lon="-0.51101">
        <ele>29.847824</ele>
        <time>2013-08-29T10:51:03Z</time>
      </trkpt>
      <trkpt lat="46.29998" lon="-0.51108">
        <ele>30.054834</ele>
        <time>2013-08-29T10:51:08Z</time>
      </trkpt>
      <trkpt lat="46.3" lon="-0.51113">
        <ele>30.054834</ele>
        <time>2013-08-29T10:51:13Z</time>
      </trkpt>
      <trkpt lat="46.30001" lon="-0.51119">
        <ele>30.054834</ele>
        <time>2013-08-29T10:51:18Z</time>
      </trkpt>
      <trkpt lat="46.30003" lon="-0.51123">
        <ele>30.22237</ele>
        <time>2013-08-29T10:51:23Z</time>
      </trkpt>
      <trkpt lat="46.30005" lon="-0.5113">
        <ele>30.22237</ele>
        <time>2013-08-29T10:51:28Z</time>
      </trkpt>
      <trkpt lat="46.30006" lon="-0.51137">
        <ele>30.497196</ele>
        <time>2013-08-29T10:51:33Z</time>
      </trkpt>
      <trkpt lat="46.30008" lon="-0.51142">
        <ele>30.497196</ele>
        <time>2013-08-29T10:51:38Z</time>
      </trkpt>
      <trkpt lat="46.30009" lon="-0.51148">
        <ele>30.497196</ele>
        <time>2013-08-29T10:51:43Z</time>
      </trkpt>
      <trkpt lat="46.30012" lon="-0.51152">
        <ele>31.18794</ele>
        <time>2013-08-29T10:51:48Z</time>
      </trkpt>
      <trkpt lat="46.30014" lon="-0.51159">
        <ele>31.18794</ele>
        <time>2013-08-29T10:51:53Z</time>
      </trkpt>
      <trkpt lat="46.30019" lon="-0.51163">
        <ele>31.498575</ele>
        <time>2013-08-29T10:51:58Z</time>
      </trkpt>
    </trkseg>
  </trk>
</gpx>